<?xml version='1.0' encoding='UTF-8'?><gpx version="1.1" creator="JPX - https://github.com/jenetics/jpx" xmlns="http://www.topografix.com/GPX/1/1"><trk><trkseg><trkpt lat="43.72119585182145" lon="10.953609541142816"><ele>28.999999999999996</ele><time>2026-05-01T09:25:13Z</time></trkpt><trkpt lat="43.721184494762376" lon="10.953683568890165"><ele>29.0</ele><time>2026-05-01T09:30:39Z</time></trkpt><trkpt lat="43.72123428798725" lon="10.953738560581376"><ele>29.0</ele><time>2026-05-01T09:31:23.001Z</time></trkpt><trkpt lat="43.72130178802937" lon="10.953692068577027"><ele>29.0</ele><time>2026-05-01T09:31:28.001Z</time></trkpt><trkpt lat="43.72129682046634" lon="10.95356157060577"><ele>28.999999999999996</ele><time>2026-05-01T09:31:32.001Z</time></trkpt><trkpt lat="43.72127677436807" lon="10.953443427028537"><ele>29.0</ele><time>2026-05-01T09:31:34.001Z</time></trkpt><trkpt lat="43.721268063834636" lon="10.953282339165513"><ele>29.166666666666664</ele><time>2026-05-01T09:31:36.001Z</time></trkpt><trkpt lat="43.72125500851582" lon="10.953161653002029"><ele>29.333333333333332</ele><time>2026-05-01T09:31:38.001Z</time></trkpt><trkpt lat="43.7212466187457" lon="10.953059877792043"><ele>29.5</ele><time>2026-05-01T09:31:41.001Z</time></trkpt><trkpt lat="43.7212617904165" lon="10.952942968215167"><ele>29.666666666666664</ele><time>2026-05-01T09:31:45.001Z</time></trkpt><trkpt lat="43.72136459087678" lon="10.952934194435864"><ele>29.833333333333332</ele><time>2026-05-01T09:31:47.001Z</time></trkpt><trkpt lat="43.721419021182705" lon="10.952861123379341"><ele>30.0</ele><time>2026-05-01T09:31:49.001Z</time></trkpt><trkpt lat="43.72142866796004" lon="10.95271204469896"><ele>30.0</ele><time>2026-05-01T09:31:51.001Z</time></trkpt><trkpt lat="43.72141388632926" lon="10.952583806471942"><ele>30.0</ele><time>2026-05-01T09:31:53.001Z</time></trkpt><trkpt lat="43.721396493473044" lon="10.952454307353081"><ele>30.0</ele><time>2026-05-01T09:31:55.001Z</time></trkpt><trkpt lat="43.72139573210253" lon="10.952357036088015"><ele>30.0</ele><time>2026-05-01T09:31:57.001Z</time></trkpt><trkpt lat="43.721393667284296" lon="10.952254889119983"><ele>30.0</ele><time>2026-05-01T09:32:24.001Z</time></trkpt><trkpt lat="43.72146803007614" lon="10.95219103520887"><ele>30.0</ele><time>2026-05-01T09:32:27.001Z</time></trkpt><trkpt lat="43.72155599018097" lon="10.95219437114926"><ele>29.5</ele><time>2026-05-01T09:32:29.001Z</time></trkpt><trkpt lat="43.721647126659796" lon="10.952171177113092"><ele>29.0</ele><time>2026-05-01T09:32:31Z</time></trkpt><trkpt lat="43.721731351615745" lon="10.952170100713824"><ele>28.5</ele><time>2026-05-01T09:32:34Z</time></trkpt><trkpt lat="43.72179034714683" lon="10.952137955332965"><ele>28.0</ele><time>2026-05-01T09:32:37Z</time></trkpt><trkpt lat="43.72182032083365" lon="10.952031292280905"><ele>27.5</ele><time>2026-05-01T09:32:39Z</time></trkpt><trkpt lat="43.72179813299857" lon="10.951915124981092"><ele>27.0</ele><time>2026-05-01T09:32:41Z</time></trkpt><trkpt lat="43.721784263711406" lon="10.951827221032776"><ele>27.0</ele><time>2026-05-01T09:32:42Z</time></trkpt><trkpt lat="43.72177624933462" lon="10.951736917508828"><ele>27.0</ele><time>2026-05-01T09:32:43Z</time></trkpt><trkpt lat="43.72176994129697" lon="10.951643277026832"><ele>27.0</ele><time>2026-05-01T09:32:44Z</time></trkpt><trkpt lat="43.721760109103585" lon="10.951546172983027"><ele>27.0</ele><time>2026-05-01T09:32:45Z</time></trkpt><trkpt lat="43.721753251899685" lon="10.951445490960596"><ele>27.0</ele><time>2026-05-01T09:32:46Z</time></trkpt><trkpt lat="43.72174474889217" lon="10.951349109074638"><ele>27.0</ele><time>2026-05-01T09:32:47Z</time></trkpt><trkpt lat="43.721750070132394" lon="10.95125612746461"><ele>27.0</ele><time>2026-05-01T09:32:48Z</time></trkpt><trkpt lat="43.72174166684494" lon="10.951159732726142"><ele>27.0</ele><time>2026-05-01T09:32:49Z</time></trkpt><trkpt lat="43.72171768854853" lon="10.951066768449568"><ele>27.0</ele><time>2026-05-01T09:32:50Z</time></trkpt><trkpt lat="43.72172298737466" lon="10.950964479222067"><ele>27.0</ele><time>2026-05-01T09:32:51Z</time></trkpt><trkpt lat="43.72169756157015" lon="10.950872105299588"><ele>27.0</ele><time>2026-05-01T09:32:52Z</time></trkpt><trkpt lat="43.721688575485885" lon="10.950777754401223"><ele>27.0</ele><time>2026-05-01T09:32:53Z</time></trkpt><trkpt lat="43.72168127749583" lon="10.950682530508082"><ele>27.0</ele><time>2026-05-01T09:32:54Z</time></trkpt><trkpt lat="43.7216741775" lon="10.950585136687936"><ele>27.0</ele><time>2026-05-01T09:32:55Z</time></trkpt><trkpt lat="43.72166438477971" lon="10.950479776215811"><ele>27.0</ele><time>2026-05-01T09:32:56Z</time></trkpt><trkpt lat="43.721654881119555" lon="10.950382501735291"><ele>27.0</ele><time>2026-05-01T09:32:57Z</time></trkpt><trkpt lat="43.721643787750004" lon="10.950291371864646"><ele>27.0</ele><time>2026-05-01T09:32:58Z</time></trkpt><trkpt lat="43.72164129024673" lon="10.950199515437284"><ele>27.0</ele><time>2026-05-01T09:32:59Z</time></trkpt><trkpt lat="43.72164558090635" lon="10.950055637955296"><ele>27.0</ele><time>2026-05-01T09:33:01Z</time></trkpt><trkpt lat="43.72164513267209" lon="10.949953352986004"><ele>27.0</ele><time>2026-05-01T09:33:03Z</time></trkpt><trkpt lat="43.72160486723942" lon="10.949881353581851"><ele>27.0</ele><time>2026-05-01T09:33:42.001Z</time></trkpt><trkpt lat="43.721592459499085" lon="10.949785879240713"><ele>27.0</ele><time>2026-05-01T09:33:44.001Z</time></trkpt><trkpt lat="43.721573377976675" lon="10.949651418180652"><ele>27.000000000000004</ele><time>2026-05-01T09:33:46.001Z</time></trkpt><trkpt lat="43.72155932284641" lon="10.94950705966241"><ele>27.000000000000004</ele><time>2026-05-01T09:33:48.001Z</time></trkpt><trkpt lat="43.72154206990495" lon="10.949352283453377"><ele>27.0</ele><time>2026-05-01T09:33:50.001Z</time></trkpt><trkpt lat="43.721529148940526" lon="10.949188297166733"><ele>27.0</ele><time>2026-05-01T09:33:52.001Z</time></trkpt><trkpt lat="43.72152795868084" lon="10.949046288618828"><ele>27.333333333333332</ele><time>2026-05-01T09:33:54.001Z</time></trkpt><trkpt lat="43.721509114210825" lon="10.948939983167687"><ele>27.666666666666664</ele><time>2026-05-01T09:33:56.001Z</time></trkpt><trkpt lat="43.72157935198018" lon="10.948841628497306"><ele>28.0</ele><time>2026-05-01T09:33:58.001Z</time></trkpt><trkpt lat="43.721638489889784" lon="10.948784633151464"><ele>28.333333333333332</ele><time>2026-05-01T09:34:00.001Z</time></trkpt><trkpt lat="43.72170535701392" lon="10.948729115112373"><ele>28.666666666666664</ele><time>2026-05-01T09:34:02.001Z</time></trkpt><trkpt lat="43.72179262541452" lon="10.948659611004603"><ele>29.0</ele><time>2026-05-01T09:34:04.001Z</time></trkpt><trkpt lat="43.72188812060281" lon="10.948555232628731"><ele>29.166666666666664</ele><time>2026-05-01T09:34:06.001Z</time></trkpt><trkpt lat="43.72198658332269" lon="10.948441395236376"><ele>29.333333333333332</ele><time>2026-05-01T09:34:08.001Z</time></trkpt><trkpt lat="43.72204189829301" lon="10.948379578461102"><ele>29.5</ele><time>2026-05-01T09:34:09.001Z</time></trkpt><trkpt lat="43.72209433996857" lon="10.948315651850915"><ele>29.666666666666664</ele><time>2026-05-01T09:34:10.001Z</time></trkpt><trkpt lat="43.722146056386364" lon="10.948252726499883"><ele>29.833333333333332</ele><time>2026-05-01T09:34:11.001Z</time></trkpt><trkpt lat="43.722232794080554" lon="10.948163447683397"><ele>30.0</ele><time>2026-05-01T09:34:13.001Z</time></trkpt><trkpt lat="43.72228993775999" lon="10.948088062780364"><ele>30.0</ele><time>2026-05-01T09:34:15.001Z</time></trkpt><trkpt lat="43.722349965953015" lon="10.948008092771355"><ele>30.0</ele><time>2026-05-01T09:34:17.001Z</time></trkpt><trkpt lat="43.72240998846703" lon="10.947938275488834"><ele>30.0</ele><time>2026-05-01T09:34:19.001Z</time></trkpt><trkpt lat="43.72249996481962" lon="10.947874512074245"><ele>30.0</ele><time>2026-05-01T09:34:21.001Z</time></trkpt><trkpt lat="43.722577239254804" lon="10.947873212421642"><ele>30.0</ele><time>2026-05-01T09:34:22.001Z</time></trkpt><trkpt lat="43.72265186406217" lon="10.947821697198076"><ele>30.0</ele><time>2026-05-01T09:34:23.001Z</time></trkpt><trkpt lat="43.72267894863443" lon="10.94767803574319"><ele>30.0</ele><time>2026-05-01T09:34:24.001Z</time></trkpt><trkpt lat="43.72271745624259" lon="10.94760279195222"><ele>30.0</ele><time>2026-05-01T09:34:25.001Z</time></trkpt><trkpt lat="43.722800502359576" lon="10.947492118135292"><ele>30.0</ele><time>2026-05-01T09:34:27.001Z</time></trkpt><trkpt lat="43.72289733579439" lon="10.947410058259875"><ele>30.0</ele><time>2026-05-01T09:34:29.001Z</time></trkpt><trkpt lat="43.72297249516066" lon="10.94733021026628"><ele>30.0</ele><time>2026-05-01T09:34:31.001Z</time></trkpt><trkpt lat="43.723056702681816" lon="10.947251171484773"><ele>29.8</ele><time>2026-05-01T09:34:33.001Z</time></trkpt><trkpt lat="43.72313848613242" lon="10.947175227008513"><ele>29.6</ele><time>2026-05-01T09:34:35.001Z</time></trkpt><trkpt lat="43.72321447433078" lon="10.947103775993059"><ele>29.4</ele><time>2026-05-01T09:34:36.998Z</time></trkpt><trkpt lat="43.72329384997467" lon="10.9470247200641"><ele>29.2</ele><time>2026-05-01T09:34:38.998Z</time></trkpt><trkpt lat="43.723377704317315" lon="10.946944480410986"><ele>29.0</ele><time>2026-05-01T09:34:40.998Z</time></trkpt><trkpt lat="43.723437901281535" lon="10.946889449978286"><ele>29.0</ele><time>2026-05-01T09:34:42.998Z</time></trkpt><trkpt lat="43.7235154880602" lon="10.946836484953744"><ele>29.0</ele><time>2026-05-01T09:34:45.998Z</time></trkpt><trkpt lat="43.72358596915288" lon="10.946825929769274"><ele>29.0</ele><time>2026-05-01T09:34:47.998Z</time></trkpt><trkpt lat="43.72369184837435" lon="10.946800418965255"><ele>29.0</ele><time>2026-05-01T09:34:49.998Z</time></trkpt><trkpt lat="43.72378388194151" lon="10.946769408541767"><ele>29.0</ele><time>2026-05-01T09:34:51.998Z</time></trkpt><trkpt lat="43.72381998989172" lon="10.946647651357242"><ele>27.833333333333332</ele><time>2026-05-01T09:34:52.998Z</time></trkpt><trkpt lat="43.723867217047605" lon="10.946577320707446"><ele>26.666666666666664</ele><time>2026-05-01T09:34:53.998Z</time></trkpt><trkpt lat="43.723922485367694" lon="10.946505838874288"><ele>25.5</ele><time>2026-05-01T09:34:54.999Z</time></trkpt><trkpt lat="43.72398718134562" lon="10.946441968682942"><ele>24.333333333333332</ele><time>2026-05-01T09:34:55.999Z</time></trkpt><trkpt lat="43.724064368899285" lon="10.946367953076182"><ele>23.166666666666664</ele><time>2026-05-01T09:34:56.999Z</time></trkpt><trkpt lat="43.7241412076731" lon="10.94629620156923"><ele>22.0</ele><time>2026-05-01T09:34:57.999Z</time></trkpt><trkpt lat="43.72421782274744" lon="10.946221830422882"><ele>22.0</ele><time>2026-05-01T09:34:58.999Z</time></trkpt><trkpt lat="43.724289232202494" lon="10.94615051785732"><ele>22.0</ele><time>2026-05-01T09:34:59.999Z</time></trkpt><trkpt lat="43.72441522692895" lon="10.946029275455805"><ele>22.0</ele><time>2026-05-01T09:35:01.999Z</time></trkpt><trkpt lat="43.724467838284255" lon="10.945974333705658"><ele>22.0</ele><time>2026-05-01T09:35:02.999Z</time></trkpt><trkpt lat="43.72452032362583" lon="10.945918735285149"><ele>22.0</ele><time>2026-05-01T09:35:03.999Z</time></trkpt><trkpt lat="43.72457747390568" lon="10.945856572692758"><ele>22.0</ele><time>2026-05-01T09:35:04.999Z</time></trkpt><trkpt lat="43.724647655472424" lon="10.945801555645621"><ele>22.0</ele><time>2026-05-01T09:35:06.999Z</time></trkpt><trkpt lat="43.72470046353888" lon="10.945744521161794"><ele>22.0</ele><time>2026-05-01T09:35:08.999Z</time></trkpt><trkpt lat="43.72477238988905" lon="10.94570467319144"><ele>22.0</ele><time>2026-05-01T09:35:10.999Z</time></trkpt><trkpt lat="43.72486124181652" lon="10.945802422943768"><ele>22.0</ele><time>2026-05-01T09:35:12.999Z</time></trkpt><trkpt lat="43.72490637100314" lon="10.94589865155652"><ele>22.0</ele><time>2026-05-01T09:35:13.999Z</time></trkpt><trkpt lat="43.72495374681212" lon="10.945994251552099"><ele>22.0</ele><time>2026-05-01T09:35:14.999Z</time></trkpt><trkpt lat="43.7250090052205" lon="10.946102585219172"><ele>22.0</ele><time>2026-05-01T09:35:15.999Z</time></trkpt><trkpt lat="43.7250669771423" lon="10.946209581912244"><ele>22.0</ele><time>2026-05-01T09:35:16.999Z</time></trkpt><trkpt lat="43.72512656794467" lon="10.946315897830537"><ele>22.0</ele><time>2026-05-01T09:35:17.999Z</time></trkpt><trkpt lat="43.725183687540316" lon="10.946412751894176"><ele>22.0</ele><time>2026-05-01T09:35:18.999Z</time></trkpt><trkpt lat="43.725233618010314" lon="10.94651015535346"><ele>22.0</ele><time>2026-05-01T09:35:19.999Z</time></trkpt><trkpt lat="43.725289868576134" lon="10.946606094597096"><ele>22.8</ele><time>2026-05-01T09:35:21Z</time></trkpt><trkpt lat="43.725346431453275" lon="10.946709673723616"><ele>23.6</ele><time>2026-05-01T09:35:22Z</time></trkpt><trkpt lat="43.72541280781861" lon="10.946825393921234"><ele>24.400000000000002</ele><time>2026-05-01T09:35:23Z</time></trkpt><trkpt lat="43.725478927018955" lon="10.94694732061535"><ele>25.200000000000003</ele><time>2026-05-01T09:35:24Z</time></trkpt><trkpt lat="43.72554483915885" lon="10.94706691574789"><ele>26.0</ele><time>2026-05-01T09:35:25Z</time></trkpt><trkpt lat="43.7256142082244" lon="10.94719346673276"><ele>26.0</ele><time>2026-05-01T09:35:26Z</time></trkpt><trkpt lat="43.72568271716153" lon="10.947321199900816"><ele>26.0</ele><time>2026-05-01T09:35:27Z</time></trkpt><trkpt lat="43.72575979164462" lon="10.947458399487397"><ele>26.0</ele><time>2026-05-01T09:35:28Z</time></trkpt><trkpt lat="43.72583770866445" lon="10.947603083883587"><ele>26.0</ele><time>2026-05-01T09:35:29Z</time></trkpt><trkpt lat="43.72591867405403" lon="10.947745175848233"><ele>26.4</ele><time>2026-05-01T09:35:30Z</time></trkpt><trkpt lat="43.725994417711476" lon="10.947874668920237"><ele>26.8</ele><time>2026-05-01T09:35:31Z</time></trkpt><trkpt lat="43.72605737773704" lon="10.947984656752952"><ele>27.199999999999996</ele><time>2026-05-01T09:35:32Z</time></trkpt><trkpt lat="43.72610621403912" lon="10.94806860463217"><ele>27.599999999999998</ele><time>2026-05-01T09:35:33Z</time></trkpt><trkpt lat="43.7261442246909" lon="10.948139826735366"><ele>28.0</ele><time>2026-05-01T09:35:34Z</time></trkpt><trkpt lat="43.72620941080769" lon="10.948237698257982"><ele>27.25</ele><time>2026-05-01T09:35:35Z</time></trkpt><trkpt lat="43.726333786023694" lon="10.948379268738874"><ele>26.5</ele><time>2026-05-01T09:35:36Z</time></trkpt><trkpt lat="43.72642749347636" lon="10.948510747993868"><ele>25.75</ele><time>2026-05-01T09:35:37Z</time></trkpt><trkpt lat="43.72650584955934" lon="10.948626132481435"><ele>25.0</ele><time>2026-05-01T09:35:38Z</time></trkpt><trkpt lat="43.72657336415224" lon="10.948722200397498"><ele>25.0</ele><time>2026-05-01T09:35:39Z</time></trkpt><trkpt lat="43.72664510484419" lon="10.948821472498636"><ele>25.0</ele><time>2026-05-01T09:35:40Z</time></trkpt><trkpt lat="43.72671540599514" lon="10.948921163532882"><ele>25.0</ele><time>2026-05-01T09:35:41Z</time></trkpt><trkpt lat="43.72679624470324" lon="10.949036553897418"><ele>25.0</ele><time>2026-05-01T09:35:42Z</time></trkpt><trkpt lat="43.7268913894298" lon="10.949174121412806"><ele>25.75</ele><time>2026-05-01T09:35:43Z</time></trkpt><trkpt lat="43.72698235576799" lon="10.949314935381826"><ele>26.5</ele><time>2026-05-01T09:35:44Z</time></trkpt><trkpt lat="43.727065968089626" lon="10.94943140982023"><ele>27.25</ele><time>2026-05-01T09:35:45Z</time></trkpt><trkpt lat="43.72714418487528" lon="10.949534297400291"><ele>28.0</ele><time>2026-05-01T09:35:46Z</time></trkpt><trkpt lat="43.72722107536406" lon="10.94962323891178"><ele>28.0</ele><time>2026-05-01T09:35:47Z</time></trkpt><trkpt lat="43.727288470644666" lon="10.949717731344611"><ele>27.999999999999996</ele><time>2026-05-01T09:35:48Z</time></trkpt><trkpt lat="43.727361023673545" lon="10.949790963761112"><ele>27.999999999999996</ele><time>2026-05-01T09:35:49Z</time></trkpt><trkpt lat="43.727425653789844" lon="10.949885289147627"><ele>28.0</ele><time>2026-05-01T09:35:50Z</time></trkpt><trkpt lat="43.72749767524585" lon="10.949988739869303"><ele>28.0</ele><time>2026-05-01T09:35:51Z</time></trkpt><trkpt lat="43.72758057854498" lon="10.950084396130602"><ele>27.599999999999998</ele><time>2026-05-01T09:35:52Z</time></trkpt><trkpt lat="43.72765887315546" lon="10.950170616164595"><ele>27.199999999999996</ele><time>2026-05-01T09:35:53Z</time></trkpt><trkpt lat="43.72773503389145" lon="10.95025029814696"><ele>26.8</ele><time>2026-05-01T09:35:54Z</time></trkpt><trkpt lat="43.727801606530114" lon="10.950307204969386"><ele>26.4</ele><time>2026-05-01T09:35:55Z</time></trkpt><trkpt lat="43.727888772685205" lon="10.950357090254755"><ele>26.0</ele><time>2026-05-01T09:35:56Z</time></trkpt><trkpt lat="43.72797069383873" lon="10.95039108537077"><ele>26.0</ele><time>2026-05-01T09:35:57Z</time></trkpt><trkpt lat="43.72806357444686" lon="10.950437843857474"><ele>26.0</ele><time>2026-05-01T09:35:58Z</time></trkpt><trkpt lat="43.72816581947641" lon="10.950475901215807"><ele>26.0</ele><time>2026-05-01T09:35:59Z</time></trkpt><trkpt lat="43.728267996624915" lon="10.950526953930844"><ele>26.0</ele><time>2026-05-01T09:36:00Z</time></trkpt><trkpt lat="43.728383674549555" lon="10.950583556990287"><ele>26.0</ele><time>2026-05-01T09:36:01Z</time></trkpt><trkpt lat="43.72848181891461" lon="10.950637270364684"><ele>25.6</ele><time>2026-05-01T09:36:02Z</time></trkpt><trkpt lat="43.72856807046632" lon="10.950677984251564"><ele>25.200000000000003</ele><time>2026-05-01T09:36:03Z</time></trkpt><trkpt lat="43.72865686409457" lon="10.950721614472437"><ele>24.799999999999997</ele><time>2026-05-01T09:36:04Z</time></trkpt><trkpt lat="43.72876152404147" lon="10.950774336278624"><ele>24.4</ele><time>2026-05-01T09:36:05Z</time></trkpt><trkpt lat="43.72887702195828" lon="10.950833024746682"><ele>24.0</ele><time>2026-05-01T09:36:06Z</time></trkpt><trkpt lat="43.72907408979622" lon="10.950951290897747"><ele>24.0</ele><time>2026-05-01T09:36:08Z</time></trkpt><trkpt lat="43.72915534643786" lon="10.95101480884678"><ele>24.0</ele><time>2026-05-01T09:36:09Z</time></trkpt><trkpt lat="43.729241080889125" lon="10.951085738132162"><ele>24.0</ele><time>2026-05-01T09:36:10Z</time></trkpt><trkpt lat="43.72931659012341" lon="10.951160882211552"><ele>24.0</ele><time>2026-05-01T09:36:11Z</time></trkpt><trkpt lat="43.729380000786335" lon="10.951229146450885"><ele>24.0</ele><time>2026-05-01T09:36:12Z</time></trkpt><trkpt lat="43.729439341842614" lon="10.951290921192165"><ele>24.0</ele><time>2026-05-01T09:36:13Z</time></trkpt><trkpt lat="43.72950196129102" lon="10.951355479536451"><ele>24.0</ele><time>2026-05-01T09:36:14Z</time></trkpt><trkpt lat="43.72957519770114" lon="10.951431825617723"><ele>24.0</ele><time>2026-05-01T09:36:15Z</time></trkpt><trkpt lat="43.72965489976868" lon="10.951516685392255"><ele>24.0</ele><time>2026-05-01T09:36:16.001Z</time></trkpt><trkpt lat="43.72974432066159" lon="10.95161069794328"><ele>24.0</ele><time>2026-05-01T09:36:17.001Z</time></trkpt><trkpt lat="43.72983291404681" lon="10.951705485798849"><ele>24.0</ele><time>2026-05-01T09:36:18.001Z</time></trkpt><trkpt lat="43.729907358290426" lon="10.95178520531874"><ele>24.0</ele><time>2026-05-01T09:36:19.001Z</time></trkpt><trkpt lat="43.72998108220355" lon="10.951864700776477"><ele>24.0</ele><time>2026-05-01T09:36:20.001Z</time></trkpt><trkpt lat="43.730065353607266" lon="10.951954552691976"><ele>24.0</ele><time>2026-05-01T09:36:21.001Z</time></trkpt><trkpt lat="43.73014807487426" lon="10.952036636347078"><ele>24.0</ele><time>2026-05-01T09:36:22.001Z</time></trkpt><trkpt lat="43.7302196790449" lon="10.95210656396644"><ele>24.0</ele><time>2026-05-01T09:36:23.001Z</time></trkpt><trkpt lat="43.73029059081762" lon="10.952176210775871"><ele>24.799999999999997</ele><time>2026-05-01T09:36:24.001Z</time></trkpt><trkpt lat="43.73035915849332" lon="10.9522459584175"><ele>25.599999999999998</ele><time>2026-05-01T09:36:25.001Z</time></trkpt><trkpt lat="43.73040693231251" lon="10.95232038806958"><ele>26.4</ele><time>2026-05-01T09:36:26.001Z</time></trkpt><trkpt lat="43.73048098623906" lon="10.9523973740849"><ele>27.2</ele><time>2026-05-01T09:36:28.001Z</time></trkpt><trkpt lat="43.73055064585117" lon="10.952287958428265"><ele>28.0</ele><time>2026-05-01T09:36:30.001Z</time></trkpt><trkpt lat="43.730451621056304" lon="10.952265379640224"><ele>28.000000000000004</ele><time>2026-05-01T09:36:35.001Z</time></trkpt><trkpt lat="43.730369575037116" lon="10.952242708925715"><ele>28.0</ele><time>2026-05-01T09:36:40.001Z</time></trkpt><trkpt lat="43.73030691178644" lon="10.952172135104515"><ele>28.0</ele><time>2026-05-01T09:36:41.001Z</time></trkpt><trkpt lat="43.73024766914169" lon="10.952098288377464"><ele>28.0</ele><time>2026-05-01T09:36:42.001Z</time></trkpt><trkpt lat="43.73017316483078" lon="10.95202089758618"><ele>28.000000000000004</ele><time>2026-05-01T09:36:42.997Z</time></trkpt><trkpt lat="43.73008730109882" lon="10.951940656847126"><ele>28.0</ele><time>2026-05-01T09:36:43.997Z</time></trkpt><trkpt lat="43.72999810170484" lon="10.95184727782577"><ele>28.75</ele><time>2026-05-01T09:36:44.997Z</time></trkpt><trkpt lat="43.72991099211708" lon="10.95175207599856"><ele>29.5</ele><time>2026-05-01T09:36:45.997Z</time></trkpt><trkpt lat="43.72981094068383" lon="10.951645003323225"><ele>30.25</ele><time>2026-05-01T09:36:46.997Z</time></trkpt><trkpt lat="43.72970775996685" lon="10.951535075947419"><ele>31.0</ele><time>2026-05-01T09:36:47.997Z</time></trkpt><trkpt lat="43.729600239776175" lon="10.951421628046813"><ele>31.0</ele><time>2026-05-01T09:36:48.997Z</time></trkpt><trkpt lat="43.72949144584592" lon="10.951314020296516"><ele>31.0</ele><time>2026-05-01T09:36:49.997Z</time></trkpt><trkpt lat="43.72939399096841" lon="10.951213508861676"><ele>31.0</ele><time>2026-05-01T09:36:50.997Z</time></trkpt><trkpt lat="43.72930556671627" lon="10.951121522589984"><ele>31.0</ele><time>2026-05-01T09:36:51.997Z</time></trkpt><trkpt lat="43.729223616853936" lon="10.951036459534402"><ele>30.666666666666668</ele><time>2026-05-01T09:36:52.997Z</time></trkpt><trkpt lat="43.72914572752818" lon="10.95096548718279"><ele>30.333333333333336</ele><time>2026-05-01T09:36:53.997Z</time></trkpt><trkpt lat="43.729076943784264" lon="10.950902393628445"><ele>30.0</ele><time>2026-05-01T09:36:54.997Z</time></trkpt><trkpt lat="43.72902952877379" lon="10.950844752481617"><ele>29.666666666666664</ele><time>2026-05-01T09:36:55.997Z</time></trkpt><trkpt lat="43.729012778463954" lon="10.950706940273594"><ele>29.333333333333332</ele><time>2026-05-01T09:36:57.998Z</time></trkpt><trkpt lat="43.729044042424405" lon="10.95061768493966"><ele>29.0</ele><time>2026-05-01T09:36:58.998Z</time></trkpt><trkpt lat="43.72908532841356" lon="10.950508241015545"><ele>29.0</ele><time>2026-05-01T09:36:59.998Z</time></trkpt><trkpt lat="43.72913166660455" lon="10.95036535113109"><ele>29.0</ele><time>2026-05-01T09:37:00.998Z</time></trkpt><trkpt lat="43.72917076523394" lon="10.950203883528705"><ele>29.0</ele><time>2026-05-01T09:37:01.998Z</time></trkpt><trkpt lat="43.72919862812279" lon="10.9500429607465"><ele>29.0</ele><time>2026-05-01T09:37:02.998Z</time></trkpt><trkpt lat="43.72922783302236" lon="10.949899385047216"><ele>28.25</ele><time>2026-05-01T09:37:03.998Z</time></trkpt><trkpt lat="43.729258514646396" lon="10.94974347601269"><ele>27.5</ele><time>2026-05-01T09:37:04.998Z</time></trkpt><trkpt lat="43.72928846916075" lon="10.94959906224503"><ele>26.75</ele><time>2026-05-01T09:37:05.998Z</time></trkpt><trkpt lat="43.729322803129776" lon="10.949439349615881"><ele>26.0</ele><time>2026-05-01T09:37:06.998Z</time></trkpt><trkpt lat="43.72935890724826" lon="10.949267242850611"><ele>26.200000000000003</ele><time>2026-05-01T09:37:07.998Z</time></trkpt><trkpt lat="43.72938872100431" lon="10.949110050121684"><ele>26.400000000000002</ele><time>2026-05-01T09:37:08.998Z</time></trkpt><trkpt lat="43.729422636276624" lon="10.948961495676924"><ele>26.6</ele><time>2026-05-01T09:37:09.998Z</time></trkpt><trkpt lat="43.729463979168855" lon="10.948822124286181"><ele>26.8</ele><time>2026-05-01T09:37:10.999Z</time></trkpt><trkpt lat="43.72950372190216" lon="10.948701357298988"><ele>27.0</ele><time>2026-05-01T09:37:11.999Z</time></trkpt><trkpt lat="43.72954720021" lon="10.94858354652153"><ele>27.0</ele><time>2026-05-01T09:37:12.999Z</time></trkpt><trkpt lat="43.72959829753733" lon="10.948478626041236"><ele>27.000000000000004</ele><time>2026-05-01T09:37:13.999Z</time></trkpt><trkpt lat="43.72966074937889" lon="10.948377406333913"><ele>27.000000000000004</ele><time>2026-05-01T09:37:14.999Z</time></trkpt><trkpt lat="43.72971426165627" lon="10.948261492783455"><ele>27.0</ele><time>2026-05-01T09:37:15.999Z</time></trkpt><trkpt lat="43.72977149958966" lon="10.948159979116612"><ele>27.0</ele><time>2026-05-01T09:37:16.999Z</time></trkpt><trkpt lat="43.7298535083577" lon="10.948094705054286"><ele>27.0</ele><time>2026-05-01T09:37:17.999Z</time></trkpt><trkpt lat="43.729916100991424" lon="10.948004337056911"><ele>27.000000000000004</ele><time>2026-05-01T09:37:18.999Z</time></trkpt><trkpt lat="43.72997401885981" lon="10.947929244483106"><ele>27.000000000000004</ele><time>2026-05-01T09:37:19.999Z</time></trkpt><trkpt lat="43.7300410866989" lon="10.947843312448553"><ele>27.0</ele><time>2026-05-01T09:37:20.999Z</time></trkpt><trkpt lat="43.73010915303784" lon="10.947753772089458"><ele>27.0</ele><time>2026-05-01T09:37:21.999Z</time></trkpt><trkpt lat="43.73018224112074" lon="10.947658542371716"><ele>28.0</ele><time>2026-05-01T09:37:22.999Z</time></trkpt><trkpt lat="43.73025969274248" lon="10.947560993986093"><ele>29.0</ele><time>2026-05-01T09:37:23.999Z</time></trkpt><trkpt lat="43.73034408816134" lon="10.947469037515702"><ele>30.0</ele><time>2026-05-01T09:37:24.999Z</time></trkpt><trkpt lat="43.730450985132464" lon="10.947374059801874"><ele>31.0</ele><time>2026-05-01T09:37:25.999Z</time></trkpt><trkpt lat="43.730561291891505" lon="10.947293812808232"><ele>31.0</ele><time>2026-05-01T09:37:26.999Z</time></trkpt><trkpt lat="43.730681860775476" lon="10.947243985550402"><ele>31.0</ele><time>2026-05-01T09:37:27.999Z</time></trkpt><trkpt lat="43.730785575748484" lon="10.947165870408554"><ele>31.0</ele><time>2026-05-01T09:37:28.999Z</time></trkpt><trkpt lat="43.730900155260834" lon="10.947103133127465"><ele>31.0</ele><time>2026-05-01T09:37:29.999Z</time></trkpt><trkpt lat="43.73101648753508" lon="10.947039222001251"><ele>32.0</ele><time>2026-05-01T09:37:30.999Z</time></trkpt><trkpt lat="43.73112657898876" lon="10.94698067020961"><ele>33.0</ele><time>2026-05-01T09:37:31.999Z</time></trkpt><trkpt lat="43.73122612696957" lon="10.946934079174248"><ele>34.0</ele><time>2026-05-01T09:37:32.999Z</time></trkpt><trkpt lat="43.73132930684276" lon="10.946880740598923"><ele>35.0</ele><time>2026-05-01T09:37:33.999Z</time></trkpt><trkpt lat="43.73142928308327" lon="10.946820585922131"><ele>36.0</ele><time>2026-05-01T09:37:35Z</time></trkpt><trkpt lat="43.73153521223459" lon="10.946796325253572"><ele>36.0</ele><time>2026-05-01T09:37:36Z</time></trkpt><trkpt lat="43.73164985403271" lon="10.946761207080927"><ele>36.0</ele><time>2026-05-01T09:37:37Z</time></trkpt><trkpt lat="43.73176655626846" lon="10.94671948232035"><ele>36.0</ele><time>2026-05-01T09:37:38Z</time></trkpt><trkpt lat="43.731878826174835" lon="10.946708470767925"><ele>36.0</ele><time>2026-05-01T09:37:39Z</time></trkpt><trkpt lat="43.73200112237496" lon="10.94670252998862"><ele>34.5</ele><time>2026-05-01T09:37:40Z</time></trkpt><trkpt lat="43.732121862057454" lon="10.946698402991396"><ele>33.0</ele><time>2026-05-01T09:37:41Z</time></trkpt><trkpt lat="43.732240477599305" lon="10.94669591361089"><ele>31.5</ele><time>2026-05-01T09:37:42Z</time></trkpt><trkpt lat="43.73236494697595" lon="10.94669139220216"><ele>30.0</ele><time>2026-05-01T09:37:43Z</time></trkpt><trkpt lat="43.73248804052568" lon="10.946686891951414"><ele>30.0</ele><time>2026-05-01T09:37:44Z</time></trkpt><trkpt lat="43.73261404713053" lon="10.946683052829231"><ele>30.0</ele><time>2026-05-01T09:37:45Z</time></trkpt><trkpt lat="43.73275395229026" lon="10.946680110500242"><ele>30.0</ele><time>2026-05-01T09:37:46Z</time></trkpt><trkpt lat="43.732898752035375" lon="10.94668436725627"><ele>30.0</ele><time>2026-05-01T09:37:47Z</time></trkpt><trkpt lat="43.733029195193744" lon="10.946674569429572"><ele>29.4</ele><time>2026-05-01T09:37:48Z</time></trkpt><trkpt lat="43.73314646571845" lon="10.946673218522285"><ele>28.8</ele><time>2026-05-01T09:37:49Z</time></trkpt><trkpt lat="43.7332495579344" lon="10.946673983752522"><ele>28.200000000000003</ele><time>2026-05-01T09:37:50Z</time></trkpt><trkpt lat="43.733342404909905" lon="10.946673522851258"><ele>27.6</ele><time>2026-05-01T09:37:51Z</time></trkpt><trkpt lat="43.73342312910203" lon="10.946670547624317"><ele>27.0</ele><time>2026-05-01T09:37:52Z</time></trkpt><trkpt lat="43.73350010805796" lon="10.946672419041011"><ele>27.333333333333332</ele><time>2026-05-01T09:37:53Z</time></trkpt><trkpt lat="43.733573714176906" lon="10.946672448706202"><ele>27.666666666666664</ele><time>2026-05-01T09:37:54Z</time></trkpt><trkpt lat="43.733643015221546" lon="10.94668619280823"><ele>28.0</ele><time>2026-05-01T09:37:55Z</time></trkpt><trkpt lat="43.73371742172938" lon="10.946685301577846"><ele>28.333333333333332</ele><time>2026-05-01T09:37:56Z</time></trkpt><trkpt lat="43.73378919065317" lon="10.946671250538653"><ele>28.666666666666664</ele><time>2026-05-01T09:37:57Z</time></trkpt><trkpt lat="43.73390353656871" lon="10.946639662685673"><ele>29.0</ele><time>2026-05-01T09:37:59Z</time></trkpt><trkpt lat="43.73397723118393" lon="10.946612653766882"><ele>28.999999999999996</ele><time>2026-05-01T09:38:01Z</time></trkpt><trkpt lat="43.734027717449976" lon="10.946547085750993"><ele>29.0</ele><time>2026-05-01T09:39:22.999Z</time></trkpt><trkpt lat="43.73408478251703" lon="10.94647412213404"><ele>29.0</ele><time>2026-05-01T09:39:25.999Z</time></trkpt><trkpt lat="43.734168126814275" lon="10.946411268152195"><ele>29.0</ele><time>2026-05-01T09:39:27.999Z</time></trkpt><trkpt lat="43.734289616543464" lon="10.946372131355115"><ele>28.999999999999996</ele><time>2026-05-01T09:39:29.999Z</time></trkpt><trkpt lat="43.734358332261635" lon="10.94637908898178"><ele>29.0</ele><time>2026-05-01T09:39:31Z</time></trkpt><trkpt lat="43.734433818898964" lon="10.946409609538138"><ele>29.0</ele><time>2026-05-01T09:39:32Z</time></trkpt><trkpt lat="43.734510006854" lon="10.946449586420696"><ele>29.0</ele><time>2026-05-01T09:39:33Z</time></trkpt><trkpt lat="43.7345934772083" lon="10.946495240915834"><ele>29.0</ele><time>2026-05-01T09:39:34Z</time></trkpt><trkpt lat="43.734722242381864" lon="10.94657040364036"><ele>29.0</ele><time>2026-05-01T09:39:36Z</time></trkpt><trkpt lat="43.73482540548709" lon="10.946625426227891"><ele>29.0</ele><time>2026-05-01T09:39:37Z</time></trkpt><trkpt lat="43.734926247360455" lon="10.946669447842664"><ele>29.2</ele><time>2026-05-01T09:39:38Z</time></trkpt><trkpt lat="43.735041426847076" lon="10.946720463605821"><ele>29.4</ele><time>2026-05-01T09:39:39Z</time></trkpt><trkpt lat="43.73513846178047" lon="10.946765882562064"><ele>29.6</ele><time>2026-05-01T09:39:40Z</time></trkpt><trkpt lat="43.7352123784121" lon="10.946842527322328"><ele>29.8</ele><time>2026-05-01T09:39:41Z</time></trkpt><trkpt lat="43.735286593980085" lon="10.94691203432231"><ele>30.0</ele><time>2026-05-01T09:39:42Z</time></trkpt><trkpt lat="43.735352418927334" lon="10.9469843938301"><ele>29.4</ele><time>2026-05-01T09:39:43Z</time></trkpt><trkpt lat="43.73542682843201" lon="10.947073662562302"><ele>28.8</ele><time>2026-05-01T09:39:44Z</time></trkpt><trkpt lat="43.73549048057857" lon="10.94715799841719"><ele>28.200000000000003</ele><time>2026-05-01T09:39:45Z</time></trkpt><trkpt lat="43.73555595796821" lon="10.9472592873022"><ele>27.6</ele><time>2026-05-01T09:39:46Z</time></trkpt><trkpt lat="43.73562931037424" lon="10.947379874556248"><ele>27.0</ele><time>2026-05-01T09:39:47Z</time></trkpt><trkpt lat="43.73570583917852" lon="10.947527148854062"><ele>27.200000000000003</ele><time>2026-05-01T09:39:48Z</time></trkpt><trkpt lat="43.73577896621303" lon="10.947670596196616"><ele>27.400000000000002</ele><time>2026-05-01T09:39:49Z</time></trkpt><trkpt lat="43.735838845086704" lon="10.947792502343093"><ele>27.599999999999998</ele><time>2026-05-01T09:39:50Z</time></trkpt><trkpt lat="43.73589618741327" lon="10.947903253770038"><ele>27.799999999999997</ele><time>2026-05-01T09:39:51Z</time></trkpt><trkpt lat="43.73594374733771" lon="10.947978721154582"><ele>28.0</ele><time>2026-05-01T09:39:52Z</time></trkpt><trkpt lat="43.736059282002856" lon="10.947985629134559"><ele>28.25</ele><time>2026-05-01T09:39:54Z</time></trkpt><trkpt lat="43.73614709614318" lon="10.947944858466242"><ele>28.5</ele><time>2026-05-01T09:39:55Z</time></trkpt><trkpt lat="43.73626733118377" lon="10.947881904770327"><ele>28.75</ele><time>2026-05-01T09:39:56Z</time></trkpt><trkpt lat="43.73638825518176" lon="10.947802707455303"><ele>29.0</ele><time>2026-05-01T09:39:57Z</time></trkpt><trkpt lat="43.736498733893654" lon="10.947706755111131"><ele>28.999999999999996</ele><time>2026-05-01T09:39:58Z</time></trkpt><trkpt lat="43.73658558231136" lon="10.94765882846326"><ele>29.0</ele><time>2026-05-01T09:39:59.001Z</time></trkpt><trkpt lat="43.736673506728664" lon="10.947611163533974"><ele>29.0</ele><time>2026-05-01T09:40:00.001Z</time></trkpt><trkpt lat="43.736754301657626" lon="10.947562664250462"><ele>29.0</ele><time>2026-05-01T09:40:01.001Z</time></trkpt><trkpt lat="43.73683117897444" lon="10.947519194570805"><ele>28.999999999999996</ele><time>2026-05-01T09:40:02.001Z</time></trkpt><trkpt lat="43.736906779761014" lon="10.947493038286193"><ele>29.0</ele><time>2026-05-01T09:40:03.001Z</time></trkpt><trkpt lat="43.736974195507216" lon="10.947468481049707"><ele>29.799999999999997</ele><time>2026-05-01T09:40:04.001Z</time></trkpt><trkpt lat="43.73703532469946" lon="10.94744503091511"><ele>30.599999999999998</ele><time>2026-05-01T09:40:05.001Z</time></trkpt><trkpt lat="43.73714871211884" lon="10.947451440490678"><ele>31.4</ele><time>2026-05-01T09:40:07.001Z</time></trkpt><trkpt lat="43.737219391481375" lon="10.947519686793303"><ele>32.199999999999996</ele><time>2026-05-01T09:40:09.001Z</time></trkpt><trkpt lat="43.73729445262379" lon="10.947552754678936"><ele>33.0</ele><time>2026-05-01T09:40:13.001Z</time></trkpt><trkpt lat="43.73719674987985" lon="10.94741184297098"><ele>33.0</ele><time>2026-05-01T09:41:04.999Z</time></trkpt><trkpt lat="43.73712373688767" lon="10.94740434942612"><ele>33.0</ele><time>2026-05-01T09:41:05.999Z</time></trkpt><trkpt lat="43.737051675448306" lon="10.947401934565818"><ele>33.0</ele><time>2026-05-01T09:41:06.999Z</time></trkpt><trkpt lat="43.73697348130845" lon="10.947416847725377"><ele>33.0</ele><time>2026-05-01T09:41:07.999Z</time></trkpt><trkpt lat="43.73690287884431" lon="10.94745382677215"><ele>33.0</ele><time>2026-05-01T09:41:08.999Z</time></trkpt><trkpt lat="43.73683482977779" lon="10.947490292926437"><ele>33.0</ele><time>2026-05-01T09:41:09.999Z</time></trkpt><trkpt lat="43.73677373548963" lon="10.947532360295488"><ele>33.0</ele><time>2026-05-01T09:41:10.999Z</time></trkpt><trkpt lat="43.736710093109515" lon="10.947567284998815"><ele>32.333333333333336</ele><time>2026-05-01T09:41:11.999Z</time></trkpt><trkpt lat="43.736630181581795" lon="10.947609119081047"><ele>31.666666666666664</ele><time>2026-05-01T09:41:12.999Z</time></trkpt><trkpt lat="43.736552392532275" lon="10.947657821798728"><ele>31.0</ele><time>2026-05-01T09:41:14Z</time></trkpt><trkpt lat="43.73648071639632" lon="10.94770638213107"><ele>30.333333333333332</ele><time>2026-05-01T09:41:15Z</time></trkpt><trkpt lat="43.736416043659226" lon="10.947748585143222"><ele>29.666666666666664</ele><time>2026-05-01T09:41:16Z</time></trkpt><trkpt lat="43.73635121735247" lon="10.947785087023108"><ele>29.0</ele><time>2026-05-01T09:41:17Z</time></trkpt><trkpt lat="43.7362908783203" lon="10.94782065497648"><ele>28.999999999999996</ele><time>2026-05-01T09:41:18Z</time></trkpt><trkpt lat="43.73622706430469" lon="10.947853733507367"><ele>29.0</ele><time>2026-05-01T09:41:19Z</time></trkpt><trkpt lat="43.7361652983915" lon="10.947879929810668"><ele>29.0</ele><time>2026-05-01T09:41:20Z</time></trkpt><trkpt lat="43.73606910248927" lon="10.94790714327154"><ele>29.0</ele><time>2026-05-01T09:41:22Z</time></trkpt><trkpt lat="43.73599007931163" lon="10.947916805789394"><ele>28.999999999999996</ele><time>2026-05-01T09:41:24Z</time></trkpt><trkpt lat="43.73589437626746" lon="10.94783436135464"><ele>29.0</ele><time>2026-05-01T09:41:26Z</time></trkpt><trkpt lat="43.73585124570916" lon="10.947764108285861"><ele>28.799999999999997</ele><time>2026-05-01T09:41:27Z</time></trkpt><trkpt lat="43.73578473361757" lon="10.947620684317513"><ele>28.599999999999998</ele><time>2026-05-01T09:41:29Z</time></trkpt><trkpt lat="43.73571944895264" lon="10.947491539261566"><ele>28.4</ele><time>2026-05-01T09:41:31Z</time></trkpt><trkpt lat="43.73568259231868" lon="10.947419632354878"><ele>28.2</ele><time>2026-05-01T09:41:32.001Z</time></trkpt><trkpt lat="43.735638541583654" lon="10.94733377943147"><ele>28.0</ele><time>2026-05-01T09:41:33.001Z</time></trkpt><trkpt lat="43.735596552321944" lon="10.94725017967674"><ele>27.833333333333336</ele><time>2026-05-01T09:41:34.001Z</time></trkpt><trkpt lat="43.735547968324305" lon="10.947172893299644"><ele>27.666666666666668</ele><time>2026-05-01T09:41:35.001Z</time></trkpt><trkpt lat="43.735487521450366" lon="10.947091128530106"><ele>27.5</ele><time>2026-05-01T09:41:36.001Z</time></trkpt><trkpt lat="43.735424651186555" lon="10.947009260091741"><ele>27.333333333333336</ele><time>2026-05-01T09:41:37.001Z</time></trkpt><trkpt lat="43.7353553601767" lon="10.946933022090505"><ele>27.166666666666668</ele><time>2026-05-01T09:41:38.001Z</time></trkpt><trkpt lat="43.735278837876706" lon="10.94685116867205"><ele>27.0</ele><time>2026-05-01T09:41:39.001Z</time></trkpt><trkpt lat="43.73519477396549" lon="10.94677906419813"><ele>27.333333333333332</ele><time>2026-05-01T09:41:40.001Z</time></trkpt><trkpt lat="43.735115661923665" lon="10.946728470081366"><ele>27.666666666666664</ele><time>2026-05-01T09:41:41.001Z</time></trkpt><trkpt lat="43.73503924631602" lon="10.946688749723283"><ele>28.0</ele><time>2026-05-01T09:41:42.001Z</time></trkpt><trkpt lat="43.73495913854632" lon="10.946653206562807"><ele>28.333333333333332</ele><time>2026-05-01T09:41:43.001Z</time></trkpt><trkpt lat="43.73487769559829" lon="10.946624544058338"><ele>28.666666666666664</ele><time>2026-05-01T09:41:44.001Z</time></trkpt><trkpt lat="43.73478862227745" lon="10.946584842459385"><ele>29.0</ele><time>2026-05-01T09:41:45.001Z</time></trkpt><trkpt lat="43.73469108327394" lon="10.946535191517361"><ele>28.999999999999996</ele><time>2026-05-01T09:41:46.001Z</time></trkpt><trkpt lat="43.734605676388256" lon="10.946480445752295"><ele>29.0</ele><time>2026-05-01T09:41:47.001Z</time></trkpt><trkpt lat="43.73452120896611" lon="10.94642387268426"><ele>29.0</ele><time>2026-05-01T09:41:48.001Z</time></trkpt><trkpt lat="43.73443992404432" lon="10.94637373972252"><ele>29.0</ele><time>2026-05-01T09:41:49.001Z</time></trkpt><trkpt lat="43.734366681775086" lon="10.946336363685363"><ele>28.999999999999996</ele><time>2026-05-01T09:41:50.001Z</time></trkpt><trkpt lat="43.734300287860705" lon="10.946312873861583"><ele>29.0</ele><time>2026-05-01T09:41:51.001Z</time></trkpt><trkpt lat="43.734216979109505" lon="10.946316041136834"><ele>29.0</ele><time>2026-05-01T09:41:53.001Z</time></trkpt><trkpt lat="43.73409381435196" lon="10.946414025234642"><ele>29.0</ele><time>2026-05-01T09:47:30Z</time></trkpt><trkpt lat="43.73403048086816" lon="10.94646226746866"><ele>29.0</ele><time>2026-05-01T09:47:32Z</time></trkpt><trkpt lat="43.73396085572034" lon="10.946540858008193"><ele>29.0</ele><time>2026-05-01T09:47:35Z</time></trkpt><trkpt lat="43.733906297164864" lon="10.946589094788713"><ele>29.0</ele><time>2026-05-01T09:47:40Z</time></trkpt><trkpt lat="43.733910750950905" lon="10.946885315317328"><ele>29.999999999999996</ele><time>2026-05-01T09:47:51.001Z</time></trkpt><trkpt lat="43.73391569122286" lon="10.947009390618202"><ele>31.0</ele><time>2026-05-01T09:47:53.001Z</time></trkpt><trkpt lat="43.73391842572553" lon="10.947120443344083"><ele>32.0</ele><time>2026-05-01T09:47:55.001Z</time></trkpt><trkpt lat="43.7339046867288" lon="10.947210055966602"><ele>33.0</ele><time>2026-05-01T09:47:57.001Z</time></trkpt><trkpt lat="43.733871343680136" lon="10.947330467380796"><ele>34.0</ele><time>2026-05-01T09:47:59.001Z</time></trkpt><trkpt lat="43.73382113338868" lon="10.947464520652014"><ele>35.0</ele><time>2026-05-01T09:48:01.001Z</time></trkpt><trkpt lat="43.733789738244035" lon="10.947578907480057"><ele>35.0</ele><time>2026-05-01T09:48:03.001Z</time></trkpt><trkpt lat="43.73378913672947" lon="10.947671800453332"><ele>35.0</ele><time>2026-05-01T09:48:06.001Z</time></trkpt><trkpt lat="43.733767810238106" lon="10.94756485364087"><ele>35.0</ele><time>2026-05-01T09:48:18.001Z</time></trkpt><trkpt lat="43.733749785518654" lon="10.947668223608064"><ele>35.0</ele><time>2026-05-01T09:48:19.001Z</time></trkpt><trkpt lat="43.733894227816386" lon="10.947254091255282"><ele>35.0</ele><time>2026-05-01T09:48:21.001Z</time></trkpt><trkpt lat="43.733917059126185" lon="10.947170551161886"><ele>35.0</ele><time>2026-05-01T09:48:22.001Z</time></trkpt><trkpt lat="43.73393301424002" lon="10.947086255744335"><ele>35.0</ele><time>2026-05-01T09:48:23.001Z</time></trkpt><trkpt lat="43.7339392846898" lon="10.946929500496624"><ele>35.0</ele><time>2026-05-01T09:48:25.001Z</time></trkpt><trkpt lat="43.73392772847337" lon="10.946785414212483"><ele>35.0</ele><time>2026-05-01T09:48:27.001Z</time></trkpt><trkpt lat="43.73393422598878" lon="10.946695255794411"><ele>35.0</ele><time>2026-05-01T09:48:29.001Z</time></trkpt><trkpt lat="43.7339996748494" lon="10.94670166591471"><ele>35.0</ele><time>2026-05-01T09:48:44.002Z</time></trkpt><trkpt lat="43.73406316961819" lon="10.946764784244616"><ele>35.0</ele><time>2026-05-01T09:48:47.002Z</time></trkpt><trkpt lat="43.734115954820425" lon="10.946827986788934"><ele>35.0</ele><time>2026-05-01T09:48:48.002Z</time></trkpt><trkpt lat="43.73416896704815" lon="10.946877250561"><ele>35.0</ele><time>2026-05-01T09:48:49.002Z</time></trkpt><trkpt lat="43.73427615271128" lon="10.946962522573456"><ele>35.0</ele><time>2026-05-01T09:48:51.002Z</time></trkpt><trkpt lat="43.73433164502056" lon="10.947009161156165"><ele>35.0</ele><time>2026-05-01T09:48:52.002Z</time></trkpt><trkpt lat="43.73438819853065" lon="10.94705912076357"><ele>34.166666666666664</ele><time>2026-05-01T09:48:53.002Z</time></trkpt><trkpt lat="43.73444908604843" lon="10.947106480442057"><ele>33.33333333333333</ele><time>2026-05-01T09:48:54.002Z</time></trkpt><trkpt lat="43.734509530212414" lon="10.947151148296099"><ele>32.5</ele><time>2026-05-01T09:48:55.002Z</time></trkpt><trkpt lat="43.73456671268184" lon="10.947198880382981"><ele>31.666666666666664</ele><time>2026-05-01T09:48:56.002Z</time></trkpt><trkpt lat="43.73461577052848" lon="10.947261379900246"><ele>30.833333333333332</ele><time>2026-05-01T09:48:57.002Z</time></trkpt><trkpt lat="43.73467337656242" lon="10.947309073584192"><ele>30.0</ele><time>2026-05-01T09:48:58.002Z</time></trkpt><trkpt lat="43.73477318188303" lon="10.947405849200981"><ele>30.0</ele><time>2026-05-01T09:49:00.002Z</time></trkpt><trkpt lat="43.7348601627322" lon="10.94751149508781"><ele>30.0</ele><time>2026-05-01T09:49:02.002Z</time></trkpt><trkpt lat="43.73494421766111" lon="10.947625400210196"><ele>30.0</ele><time>2026-05-01T09:49:04.002Z</time></trkpt><trkpt lat="43.73500181947504" lon="10.947764895473503"><ele>30.0</ele><time>2026-05-01T09:49:06.002Z</time></trkpt><trkpt lat="43.735038336432126" lon="10.947913949269964"><ele>29.6</ele><time>2026-05-01T09:49:08.002Z</time></trkpt><trkpt lat="43.735104046729056" lon="10.948007097240932"><ele>29.2</ele><time>2026-05-01T09:49:10.002Z</time></trkpt><trkpt lat="43.73519659852241" lon="10.94812016391501"><ele>28.799999999999997</ele><time>2026-05-01T09:49:12.002Z</time></trkpt><trkpt lat="43.73526009756851" lon="10.948169439758892"><ele>28.4</ele><time>2026-05-01T09:49:13.002Z</time></trkpt><trkpt lat="43.73531156822993" lon="10.948231298562558"><ele>28.0</ele><time>2026-05-01T09:49:14.002Z</time></trkpt><trkpt lat="43.73540675791516" lon="10.94834555296435"><ele>29.333333333333336</ele><time>2026-05-01T09:49:16.002Z</time></trkpt><trkpt lat="43.735458020982385" lon="10.948402119447705"><ele>30.666666666666668</ele><time>2026-05-01T09:49:17.002Z</time></trkpt><trkpt lat="43.73550799940594" lon="10.948459675255908"><ele>32.0</ele><time>2026-05-01T09:49:18.002Z</time></trkpt><trkpt lat="43.7355591574227" lon="10.948525605685523"><ele>33.333333333333336</ele><time>2026-05-01T09:49:18.999Z</time></trkpt><trkpt lat="43.73561517029989" lon="10.9485915488865"><ele>34.666666666666664</ele><time>2026-05-01T09:49:19.999Z</time></trkpt><trkpt lat="43.735667766418764" lon="10.94865160065233"><ele>36.0</ele><time>2026-05-01T09:49:20.999Z</time></trkpt><trkpt lat="43.73575728894866" lon="10.948770767867746"><ele>36.00000000000001</ele><time>2026-05-01T09:49:22.999Z</time></trkpt><trkpt lat="43.735799328767115" lon="10.9488443078491"><ele>36.0</ele><time>2026-05-01T09:49:23.999Z</time></trkpt><trkpt lat="43.73584045541263" lon="10.948918169991378"><ele>36.0</ele><time>2026-05-01T09:49:24.999Z</time></trkpt><trkpt lat="43.73587333056649" lon="10.948995557918497"><ele>36.0</ele><time>2026-05-01T09:49:25.999Z</time></trkpt><trkpt lat="43.73591127690176" lon="10.949078543726301"><ele>36.0</ele><time>2026-05-01T09:49:26.999Z</time></trkpt><trkpt lat="43.73594274122089" lon="10.949162154961108"><ele>36.00000000000001</ele><time>2026-05-01T09:49:27.999Z</time></trkpt><trkpt lat="43.73597512999848" lon="10.94924814214817"><ele>36.0</ele><time>2026-05-01T09:49:28.999Z</time></trkpt><trkpt lat="43.736005503549755" lon="10.94933889726476"><ele>36.85714285714286</ele><time>2026-05-01T09:49:29.999Z</time></trkpt><trkpt lat="43.73603346131721" lon="10.949434089800278"><ele>37.714285714285715</ele><time>2026-05-01T09:49:30.999Z</time></trkpt><trkpt lat="43.73606099519588" lon="10.949530064860483"><ele>38.57142857142857</ele><time>2026-05-01T09:49:31.999Z</time></trkpt><trkpt lat="43.7360862977781" lon="10.949622689610344"><ele>39.42857142857143</ele><time>2026-05-01T09:49:32.999Z</time></trkpt><trkpt lat="43.73610923342476" lon="10.949710944907201"><ele>40.285714285714285</ele><time>2026-05-01T09:49:33.999Z</time></trkpt><trkpt lat="43.7361321666465" lon="10.949802665081583"><ele>41.142857142857146</ele><time>2026-05-01T09:49:34.999Z</time></trkpt><trkpt lat="43.73615757085243" lon="10.949885922035698"><ele>42.0</ele><time>2026-05-01T09:49:36Z</time></trkpt><trkpt lat="43.736184498871836" lon="10.949973363048317"><ele>40.166666666666664</ele><time>2026-05-01T09:49:37Z</time></trkpt><trkpt lat="43.7362141165829" lon="10.950063463276358"><ele>38.333333333333336</ele><time>2026-05-01T09:49:38Z</time></trkpt><trkpt lat="43.73624336339425" lon="10.95015834458739"><ele>36.5</ele><time>2026-05-01T09:49:39Z</time></trkpt><trkpt lat="43.73627455721579" lon="10.950260564965433"><ele>34.66666666666667</ele><time>2026-05-01T09:49:40Z</time></trkpt><trkpt lat="43.73630804168594" lon="10.950373672970308"><ele>32.833333333333336</ele><time>2026-05-01T09:49:41Z</time></trkpt><trkpt lat="43.73633695436738" lon="10.95047371070818"><ele>31.0</ele><time>2026-05-01T09:49:42Z</time></trkpt><trkpt lat="43.736364929471875" lon="10.95055823602004"><ele>31.0</ele><time>2026-05-01T09:49:43Z</time></trkpt><trkpt lat="43.736390581598364" lon="10.950647026563368"><ele>31.000000000000004</ele><time>2026-05-01T09:49:44Z</time></trkpt><trkpt lat="43.73641536154758" lon="10.950744823190469"><ele>31.0</ele><time>2026-05-01T09:49:45Z</time></trkpt><trkpt lat="43.73643760633693" lon="10.950840961942383"><ele>31.0</ele><time>2026-05-01T09:49:46Z</time></trkpt><trkpt lat="43.736457471080826" lon="10.950944493786874"><ele>31.000000000000004</ele><time>2026-05-01T09:49:47Z</time></trkpt><trkpt lat="43.73647364688404" lon="10.95103926834694"><ele>31.0</ele><time>2026-05-01T09:49:48Z</time></trkpt><trkpt lat="43.73648446994627" lon="10.951130674049766"><ele>31.0</ele><time>2026-05-01T09:49:49Z</time></trkpt><trkpt lat="43.736489425601945" lon="10.951228573479819"><ele>31.0</ele><time>2026-05-01T09:49:50Z</time></trkpt><trkpt lat="43.73648099313554" lon="10.951363764154888"><ele>31.0</ele><time>2026-05-01T09:49:52Z</time></trkpt><trkpt lat="43.736480845995395" lon="10.951492217260975"><ele>31.0</ele><time>2026-05-01T09:49:54Z</time></trkpt><trkpt lat="43.73646389797316" lon="10.95162319266562"><ele>31.0</ele><time>2026-05-01T09:49:56Z</time></trkpt><trkpt lat="43.7364570203533" lon="10.951762440009244"><ele>31.0</ele><time>2026-05-01T09:49:58Z</time></trkpt><trkpt lat="43.736452161141415" lon="10.951930209396425"><ele>31.0</ele><time>2026-05-01T09:50:00Z</time></trkpt><trkpt lat="43.73644434569962" lon="10.952029853996638"><ele>31.0</ele><time>2026-05-01T09:50:01Z</time></trkpt><trkpt lat="43.73644097447548" lon="10.952205772115194"><ele>31.0</ele><time>2026-05-01T09:50:03Z</time></trkpt><trkpt lat="43.73650705189858" lon="10.952330406538739"><ele>31.0</ele><time>2026-05-01T09:50:05Z</time></trkpt><trkpt lat="43.73661572862553" lon="10.952391702782894"><ele>31.0</ele><time>2026-05-01T09:50:07.001Z</time></trkpt><trkpt lat="43.73673327417412" lon="10.952423776525325"><ele>31.0</ele><time>2026-05-01T09:50:09.001Z</time></trkpt><trkpt lat="43.73679897991392" lon="10.952428083613066"><ele>31.000000000000004</ele><time>2026-05-01T09:50:10.001Z</time></trkpt><trkpt lat="43.736868935891785" lon="10.952447921291938"><ele>31.0</ele><time>2026-05-01T09:50:11.001Z</time></trkpt><trkpt lat="43.736938463755436" lon="10.952470008601825"><ele>31.0</ele><time>2026-05-01T09:50:12.001Z</time></trkpt><trkpt lat="43.737003927563606" lon="10.952493600900658"><ele>31.000000000000004</ele><time>2026-05-01T09:50:13.001Z</time></trkpt><trkpt lat="43.73706458780407" lon="10.952520368474952"><ele>31.0</ele><time>2026-05-01T09:50:14.001Z</time></trkpt><trkpt lat="43.73715739595154" lon="10.952554175118058"><ele>31.0</ele><time>2026-05-01T09:50:16.001Z</time></trkpt><trkpt lat="43.73725237420321" lon="10.9525494138418"><ele>30.8</ele><time>2026-05-01T09:50:19.001Z</time></trkpt><trkpt lat="43.73735103965304" lon="10.952543143185144"><ele>30.6</ele><time>2026-05-01T09:50:21.001Z</time></trkpt><trkpt lat="43.73743910910786" lon="10.952489326088273"><ele>30.4</ele><time>2026-05-01T09:50:23.001Z</time></trkpt><trkpt lat="43.737540865616864" lon="10.952490356963837"><ele>30.2</ele><time>2026-05-01T09:50:25.001Z</time></trkpt><trkpt lat="43.73763024410286" lon="10.95249491369428"><ele>30.0</ele><time>2026-05-01T09:50:27.001Z</time></trkpt><trkpt lat="43.737719278253" lon="10.952531431564093"><ele>30.0</ele><time>2026-05-01T09:50:29.001Z</time></trkpt><trkpt lat="43.73781266871116" lon="10.952562575996337"><ele>30.0</ele><time>2026-05-01T09:50:31.001Z</time></trkpt><trkpt lat="43.737890180520964" lon="10.952565863271548"><ele>30.0</ele><time>2026-05-01T09:50:33.001Z</time></trkpt><trkpt lat="43.73797113169981" lon="10.952458865708039"><ele>30.0</ele><time>2026-05-01T09:50:35.001Z</time></trkpt><trkpt lat="43.73798047390417" lon="10.952360862578294"><ele>30.0</ele><time>2026-05-01T09:50:36.001Z</time></trkpt><trkpt lat="43.73801984046978" lon="10.952291159844354"><ele>30.0</ele><time>2026-05-01T09:50:37.001Z</time></trkpt><trkpt lat="43.73805126648061" lon="10.95220259896744"><ele>30.0</ele><time>2026-05-01T09:50:38.001Z</time></trkpt><trkpt lat="43.73808806535202" lon="10.952107117452272"><ele>30.0</ele><time>2026-05-01T09:50:39.001Z</time></trkpt><trkpt lat="43.738132829953315" lon="10.952017096606744"><ele>30.0</ele><time>2026-05-01T09:50:40.001Z</time></trkpt><trkpt lat="43.738229616163586" lon="10.951849272701331"><ele>30.0</ele><time>2026-05-01T09:50:42.001Z</time></trkpt><trkpt lat="43.73828385602539" lon="10.951736573362595"><ele>30.0</ele><time>2026-05-01T09:50:43.001Z</time></trkpt><trkpt lat="43.73835469736933" lon="10.95163647394068"><ele>29.8</ele><time>2026-05-01T09:50:44.001Z</time></trkpt><trkpt lat="43.73842304296621" lon="10.951534275063405"><ele>29.6</ele><time>2026-05-01T09:50:45.002Z</time></trkpt><trkpt lat="43.738490677429105" lon="10.951432662069168"><ele>29.4</ele><time>2026-05-01T09:50:46.002Z</time></trkpt><trkpt lat="43.73856374881367" lon="10.951330979560653"><ele>29.2</ele><time>2026-05-01T09:50:47.002Z</time></trkpt><trkpt lat="43.738623289334896" lon="10.951228530979584"><ele>29.0</ele><time>2026-05-01T09:50:48.002Z</time></trkpt><trkpt lat="43.738675123639126" lon="10.951144502599671"><ele>29.4</ele><time>2026-05-01T09:50:49.002Z</time></trkpt><trkpt lat="43.738747920058785" lon="10.951041539773508"><ele>29.799999999999997</ele><time>2026-05-01T09:50:51.002Z</time></trkpt><trkpt lat="43.738871824046925" lon="10.951113651243835"><ele>30.200000000000003</ele><time>2026-05-01T09:50:56.002Z</time></trkpt><trkpt lat="43.738919741021796" lon="10.951220810069172"><ele>30.6</ele><time>2026-05-01T09:50:57.002Z</time></trkpt><trkpt lat="43.73898331870823" lon="10.951332662964768"><ele>31.0</ele><time>2026-05-01T09:50:58.002Z</time></trkpt><trkpt lat="43.73904862382678" lon="10.951450245182698"><ele>31.0</ele><time>2026-05-01T09:50:59.002Z</time></trkpt><trkpt lat="43.73911643916677" lon="10.951572276767621"><ele>31.0</ele><time>2026-05-01T09:51:00.002Z</time></trkpt><trkpt lat="43.739197422047525" lon="10.951675214969342"><ele>31.0</ele><time>2026-05-01T09:51:01.002Z</time></trkpt><trkpt lat="43.73926850424558" lon="10.951753745355"><ele>31.0</ele><time>2026-05-01T09:51:02.002Z</time></trkpt><trkpt lat="43.73933361320459" lon="10.951820779652188"><ele>31.0</ele><time>2026-05-01T09:51:03.002Z</time></trkpt><trkpt lat="43.73939784498074" lon="10.951872670283704"><ele>31.0</ele><time>2026-05-01T09:51:04.002Z</time></trkpt><trkpt lat="43.73945584520215" lon="10.951918129395366"><ele>31.0</ele><time>2026-05-01T09:51:05.002Z</time></trkpt><trkpt lat="43.73955977201887" lon="10.951997678083481"><ele>31.0</ele><time>2026-05-01T09:51:07.002Z</time></trkpt><trkpt lat="43.73967698057838" lon="10.952086657128307"><ele>31.0</ele><time>2026-05-01T09:51:09.002Z</time></trkpt><trkpt lat="43.73974905701858" lon="10.952140694874608"><ele>31.0</ele><time>2026-05-01T09:51:10.002Z</time></trkpt><trkpt lat="43.739829870027584" lon="10.952196981426196"><ele>31.000000000000004</ele><time>2026-05-01T09:51:11.002Z</time></trkpt><trkpt lat="43.73991487630279" lon="10.952254194825901"><ele>31.0</ele><time>2026-05-01T09:51:12.002Z</time></trkpt><trkpt lat="43.73999316298347" lon="10.952309353568038"><ele>31.0</ele><time>2026-05-01T09:51:13.002Z</time></trkpt><trkpt lat="43.7400681187938" lon="10.952361129340536"><ele>31.0</ele><time>2026-05-01T09:51:14.002Z</time></trkpt><trkpt lat="43.74014592832947" lon="10.952425591582866"><ele>31.000000000000004</ele><time>2026-05-01T09:51:15.002Z</time></trkpt><trkpt lat="43.74022675382192" lon="10.952481811541498"><ele>31.0</ele><time>2026-05-01T09:51:16.002Z</time></trkpt><trkpt lat="43.7403054123066" lon="10.95251397987321"><ele>30.8</ele><time>2026-05-01T09:51:17.002Z</time></trkpt><trkpt lat="43.740383566549404" lon="10.952538879672364"><ele>30.6</ele><time>2026-05-01T09:51:18.002Z</time></trkpt><trkpt lat="43.740465024139" lon="10.952546734385999"><ele>30.4</ele><time>2026-05-01T09:51:19.002Z</time></trkpt><trkpt lat="43.740557557873565" lon="10.95253923610298"><ele>30.2</ele><time>2026-05-01T09:51:20.002Z</time></trkpt><trkpt lat="43.740661165643864" lon="10.952535583348114"><ele>30.0</ele><time>2026-05-01T09:51:21.002Z</time></trkpt><trkpt lat="43.7407719488158" lon="10.952535021257853"><ele>30.6</ele><time>2026-05-01T09:51:22.002Z</time></trkpt><trkpt lat="43.74088578252218" lon="10.95250967999144"><ele>31.2</ele><time>2026-05-01T09:51:23.002Z</time></trkpt><trkpt lat="43.74098465832432" lon="10.952467606192386"><ele>31.799999999999997</ele><time>2026-05-01T09:51:24.002Z</time></trkpt><trkpt lat="43.741076454863304" lon="10.95242482053672"><ele>32.4</ele><time>2026-05-01T09:51:24.999Z</time></trkpt><trkpt lat="43.74116079967266" lon="10.952403671754295"><ele>33.0</ele><time>2026-05-01T09:51:25.999Z</time></trkpt><trkpt lat="43.74122886146684" lon="10.952427312929183"><ele>33.0</ele><time>2026-05-01T09:51:26.999Z</time></trkpt><trkpt lat="43.7412874335338" lon="10.952487651659895"><ele>33.0</ele><time>2026-05-01T09:51:27.999Z</time></trkpt><trkpt lat="43.741326920604806" lon="10.952575658602676"><ele>33.0</ele><time>2026-05-01T09:51:28.999Z</time></trkpt><trkpt lat="43.74132664726683" lon="10.952693862961429"><ele>33.0</ele><time>2026-05-01T09:51:29.999Z</time></trkpt><trkpt lat="43.74134749156036" lon="10.95281917384269"><ele>33.0</ele><time>2026-05-01T09:51:30.999Z</time></trkpt><trkpt lat="43.74138121176155" lon="10.95296295578773"><ele>33.0</ele><time>2026-05-01T09:51:31.999Z</time></trkpt><trkpt lat="43.74141006958485" lon="10.953120032844803"><ele>32.8</ele><time>2026-05-01T09:51:32.999Z</time></trkpt><trkpt lat="43.741429721778005" lon="10.953268073804278"><ele>32.599999999999994</ele><time>2026-05-01T09:51:33.999Z</time></trkpt><trkpt lat="43.74145367253955" lon="10.953392139720924"><ele>32.400000000000006</ele><time>2026-05-01T09:51:34.999Z</time></trkpt><trkpt lat="43.74147351233837" lon="10.953514290858227"><ele>32.2</ele><time>2026-05-01T09:51:35.999Z</time></trkpt><trkpt lat="43.741495659112886" lon="10.953635521129314"><ele>32.0</ele><time>2026-05-01T09:51:36.999Z</time></trkpt><trkpt lat="43.74151273284468" lon="10.953744383631152"><ele>32.285714285714285</ele><time>2026-05-01T09:51:37.999Z</time></trkpt><trkpt lat="43.741528874946894" lon="10.953847036875656"><ele>32.57142857142857</ele><time>2026-05-01T09:51:38.999Z</time></trkpt><trkpt lat="43.74153442838164" lon="10.953944421502367"><ele>32.857142857142854</ele><time>2026-05-01T09:51:39.999Z</time></trkpt><trkpt lat="43.741529490534354" lon="10.954049753014582"><ele>33.14285714285714</ele><time>2026-05-01T09:51:40.999Z</time></trkpt><trkpt lat="43.74151135441559" lon="10.954155004517162"><ele>33.42857142857143</ele><time>2026-05-01T09:51:41.999Z</time></trkpt><trkpt lat="43.741493929345594" lon="10.954253830395626"><ele>33.71428571428571</ele><time>2026-05-01T09:51:42.999Z</time></trkpt><trkpt lat="43.741489995505646" lon="10.954346955693278"><ele>34.0</ele><time>2026-05-01T09:51:43.999Z</time></trkpt><trkpt lat="43.74146378015988" lon="10.954514670359588"><ele>34.16666666666667</ele><time>2026-05-01T09:51:45.999Z</time></trkpt><trkpt lat="43.74145601765739" lon="10.954603454867707"><ele>34.333333333333336</ele><time>2026-05-01T09:51:46.999Z</time></trkpt><trkpt lat="43.74146658472941" lon="10.954694921428743"><ele>34.5</ele><time>2026-05-01T09:51:47.999Z</time></trkpt><trkpt lat="43.74148137053038" lon="10.954784199634735"><ele>34.666666666666664</ele><time>2026-05-01T09:51:49Z</time></trkpt><trkpt lat="43.74152523101194" lon="10.9548653384501"><ele>34.83333333333333</ele><time>2026-05-01T09:51:50Z</time></trkpt><trkpt lat="43.741567211240685" lon="10.954987746835418"><ele>35.0</ele><time>2026-05-01T09:51:51Z</time></trkpt><trkpt lat="43.741608061172386" lon="10.95512197796926"><ele>35.0</ele><time>2026-05-01T09:51:52Z</time></trkpt><trkpt lat="43.74165584404083" lon="10.955256164526249"><ele>35.0</ele><time>2026-05-01T09:51:53Z</time></trkpt><trkpt lat="43.74170219344023" lon="10.955378533143577"><ele>35.0</ele><time>2026-05-01T09:51:54Z</time></trkpt><trkpt lat="43.74174360895846" lon="10.955473828910689"><ele>35.0</ele><time>2026-05-01T09:51:55Z</time></trkpt><trkpt lat="43.74178018506425" lon="10.955583369092524"><ele>35.0</ele><time>2026-05-01T09:51:56Z</time></trkpt><trkpt lat="43.7418296971193" lon="10.95570205183046"><ele>36.0</ele><time>2026-05-01T09:51:57Z</time></trkpt><trkpt lat="43.74188549749174" lon="10.955832068815363"><ele>37.0</ele><time>2026-05-01T09:51:58Z</time></trkpt><trkpt lat="43.741940975914055" lon="10.955966116708565"><ele>38.0</ele><time>2026-05-01T09:51:59Z</time></trkpt><trkpt lat="43.74199165262188" lon="10.956095291929966"><ele>39.0</ele><time>2026-05-01T09:52:00Z</time></trkpt><trkpt lat="43.74204609152749" lon="10.956230046660497"><ele>40.0</ele><time>2026-05-01T09:52:01Z</time></trkpt><trkpt lat="43.742097824686205" lon="10.956365529269068"><ele>40.0</ele><time>2026-05-01T09:52:02Z</time></trkpt><trkpt lat="43.74215011884093" lon="10.956502765072448"><ele>40.0</ele><time>2026-05-01T09:52:03Z</time></trkpt><trkpt lat="43.74220976953237" lon="10.956637551691037"><ele>40.0</ele><time>2026-05-01T09:52:04Z</time></trkpt><trkpt lat="43.7422650237624" lon="10.956760328236241"><ele>40.0</ele><time>2026-05-01T09:52:05Z</time></trkpt><trkpt lat="43.7423176847651" lon="10.956880426496356"><ele>40.0</ele><time>2026-05-01T09:52:06Z</time></trkpt><trkpt lat="43.74236772516421" lon="10.956990285150527"><ele>40.0</ele><time>2026-05-01T09:52:07Z</time></trkpt><trkpt lat="43.742410954627026" lon="10.95709073248056"><ele>40.0</ele><time>2026-05-01T09:52:08Z</time></trkpt><trkpt lat="43.74244914242529" lon="10.957178950825925"><ele>40.0</ele><time>2026-05-01T09:52:09Z</time></trkpt><trkpt lat="43.74251968764087" lon="10.957318924447051"><ele>40.0</ele><time>2026-05-01T09:52:11Z</time></trkpt><trkpt lat="43.74263626710951" lon="10.957437745307178"><ele>40.0</ele><time>2026-05-01T09:52:12Z</time></trkpt><trkpt lat="43.74272497837239" lon="10.957523738253936"><ele>38.5</ele><time>2026-05-01T09:52:13Z</time></trkpt><trkpt lat="43.74282312326656" lon="10.957620567827073"><ele>37.0</ele><time>2026-05-01T09:52:14Z</time></trkpt><trkpt lat="43.742932499904036" lon="10.957724861071057"><ele>35.5</ele><time>2026-05-01T09:52:15Z</time></trkpt><trkpt lat="43.74303737041337" lon="10.957822175683868"><ele>34.0</ele><time>2026-05-01T09:52:16.001Z</time></trkpt><trkpt lat="43.74313161492873" lon="10.957919081188587"><ele>34.0</ele><time>2026-05-01T09:52:17.001Z</time></trkpt><trkpt lat="43.74322283204212" lon="10.958011365201296"><ele>34.0</ele><time>2026-05-01T09:52:18.001Z</time></trkpt><trkpt lat="43.743309152320975" lon="10.958096210551588"><ele>34.0</ele><time>2026-05-01T09:52:19.001Z</time></trkpt><trkpt lat="43.74339454319075" lon="10.958169591361596"><ele>34.0</ele><time>2026-05-01T09:52:20.001Z</time></trkpt><trkpt lat="43.74346787832356" lon="10.958244823849665"><ele>34.0</ele><time>2026-05-01T09:52:21.001Z</time></trkpt><trkpt lat="43.743528242634454" lon="10.958323579260774"><ele>34.4</ele><time>2026-05-01T09:52:22.001Z</time></trkpt><trkpt lat="43.74358628740673" lon="10.95841026154749"><ele>34.8</ele><time>2026-05-01T09:52:23.001Z</time></trkpt><trkpt lat="43.743641116543756" lon="10.95852808995725"><ele>35.2</ele><time>2026-05-01T09:52:24.001Z</time></trkpt><trkpt lat="43.74369286038691" lon="10.958661599010808"><ele>35.6</ele><time>2026-05-01T09:52:25.001Z</time></trkpt><trkpt lat="43.74374115235023" lon="10.958807968429975"><ele>36.0</ele><time>2026-05-01T09:52:26.001Z</time></trkpt><trkpt lat="43.743782551221294" lon="10.958948960041296"><ele>36.0</ele><time>2026-05-01T09:52:27.001Z</time></trkpt><trkpt lat="43.7438195283353" lon="10.95907128355198"><ele>36.0</ele><time>2026-05-01T09:52:28.001Z</time></trkpt><trkpt lat="43.743848249726724" lon="10.959173465057551"><ele>36.0</ele><time>2026-05-01T09:52:29.001Z</time></trkpt><trkpt lat="43.743868864214015" lon="10.959327166122323"><ele>36.0</ele><time>2026-05-01T09:52:31.001Z</time></trkpt><trkpt lat="43.743809201124925" lon="10.959434086258032"><ele>36.0</ele><time>2026-05-01T09:52:33.001Z</time></trkpt><trkpt lat="43.743740545281455" lon="10.959472002360785"><ele>37.4</ele><time>2026-05-01T09:52:34.001Z</time></trkpt><trkpt lat="43.743670879976385" lon="10.959511157176848"><ele>38.8</ele><time>2026-05-01T09:52:35.001Z</time></trkpt><trkpt lat="43.74359949409496" lon="10.959660041411516"><ele>40.199999999999996</ele><time>2026-05-01T09:52:37.001Z</time></trkpt><trkpt lat="43.74357648635123" lon="10.959772955907674"><ele>41.6</ele><time>2026-05-01T09:52:38.001Z</time></trkpt><trkpt lat="43.74357336573309" lon="10.959899356489126"><ele>43.0</ele><time>2026-05-01T09:52:39.001Z</time></trkpt><trkpt lat="43.743577521383386" lon="10.960004760816284"><ele>42.0</ele><time>2026-05-01T09:52:40.001Z</time></trkpt><trkpt lat="43.74363301678893" lon="10.96018127350985"><ele>41.0</ele><time>2026-05-01T09:52:42.001Z</time></trkpt><trkpt lat="43.74369449100564" lon="10.96026917618065"><ele>40.0</ele><time>2026-05-01T09:52:43.001Z</time></trkpt><trkpt lat="43.743735059143134" lon="10.96035623109671"><ele>39.0</ele><time>2026-05-01T09:52:44.001Z</time></trkpt><trkpt lat="43.74379161193434" lon="10.960417109743574"><ele>38.0</ele><time>2026-05-01T09:52:45.001Z</time></trkpt><trkpt lat="43.743839778235994" lon="10.960492979855148"><ele>37.0</ele><time>2026-05-01T09:52:46.001Z</time></trkpt><trkpt lat="43.74389467273821" lon="10.960572066816134"><ele>37.0</ele><time>2026-05-01T09:52:47.001Z</time></trkpt><trkpt lat="43.743947334023495" lon="10.96064953962093"><ele>37.0</ele><time>2026-05-01T09:52:48.001Z</time></trkpt><trkpt lat="43.744004846923126" lon="10.960718909495085"><ele>37.0</ele><time>2026-05-01T09:52:49.001Z</time></trkpt><trkpt lat="43.74406963368142" lon="10.960791849953033"><ele>37.0</ele><time>2026-05-01T09:52:50.002Z</time></trkpt><trkpt lat="43.74413953843898" lon="10.96087686271129"><ele>37.0</ele><time>2026-05-01T09:52:51.002Z</time></trkpt><trkpt lat="43.744210025954025" lon="10.960984025102652"><ele>37.0</ele><time>2026-05-01T09:52:52.002Z</time></trkpt><trkpt lat="43.744278237100524" lon="10.961102991422386"><ele>37.75</ele><time>2026-05-01T09:52:53.002Z</time></trkpt><trkpt lat="43.744347814863794" lon="10.961230462983877"><ele>38.5</ele><time>2026-05-01T09:52:54.002Z</time></trkpt><trkpt lat="43.74441873495499" lon="10.961363062308068"><ele>39.25</ele><time>2026-05-01T09:52:55.002Z</time></trkpt><trkpt lat="43.744494829763674" lon="10.961495713184712"><ele>40.0</ele><time>2026-05-01T09:52:56.002Z</time></trkpt><trkpt lat="43.74457510873692" lon="10.961630780586637"><ele>38.5</ele><time>2026-05-01T09:52:57.002Z</time></trkpt><trkpt lat="43.7446614578155" lon="10.961761794087105"><ele>37.0</ele><time>2026-05-01T09:52:58.002Z</time></trkpt><trkpt lat="43.744765258795546" lon="10.96188969929998"><ele>35.5</ele><time>2026-05-01T09:52:59.002Z</time></trkpt><trkpt lat="43.74488565240982" lon="10.962013699273186"><ele>34.0</ele><time>2026-05-01T09:53:00.002Z</time></trkpt><trkpt lat="43.74501071702996" lon="10.96214229641529"><ele>34.0</ele><time>2026-05-01T09:53:01.002Z</time></trkpt><trkpt lat="43.74513704851745" lon="10.962269183231077"><ele>34.0</ele><time>2026-05-01T09:53:02.002Z</time></trkpt><trkpt lat="43.74524981521914" lon="10.96239001113763"><ele>34.0</ele><time>2026-05-01T09:53:03.002Z</time></trkpt><trkpt lat="43.74535204393212" lon="10.962499269210829"><ele>34.0</ele><time>2026-05-01T09:53:04.002Z</time></trkpt><trkpt lat="43.745449299470714" lon="10.962603900420293"><ele>34.5</ele><time>2026-05-01T09:53:05.002Z</time></trkpt><trkpt lat="43.74555365576141" lon="10.962711027032595"><ele>35.0</ele><time>2026-05-01T09:53:06.002Z</time></trkpt><trkpt lat="43.745660138392836" lon="10.962823079373008"><ele>35.5</ele><time>2026-05-01T09:53:07.002Z</time></trkpt><trkpt lat="43.745762280387964" lon="10.96293950047053"><ele>36.0</ele><time>2026-05-01T09:53:08.002Z</time></trkpt><trkpt lat="43.74584738123571" lon="10.96305281392099"><ele>36.0</ele><time>2026-05-01T09:53:09.002Z</time></trkpt><trkpt lat="43.74592586218348" lon="10.963189385430857"><ele>36.0</ele><time>2026-05-01T09:53:10.002Z</time></trkpt><trkpt lat="43.7460005487064" lon="10.963335145077606"><ele>36.0</ele><time>2026-05-01T09:53:11.002Z</time></trkpt><trkpt lat="43.74607126791679" lon="10.963478272267754"><ele>36.0</ele><time>2026-05-01T09:53:12.002Z</time></trkpt><trkpt lat="43.74613601618019" lon="10.963607168406968"><ele>36.0</ele><time>2026-05-01T09:53:13.002Z</time></trkpt><trkpt lat="43.74618797829015" lon="10.963713149399668"><ele>36.0</ele><time>2026-05-01T09:53:14.002Z</time></trkpt><trkpt lat="43.74623966949106" lon="10.963803427752945"><ele>36.0</ele><time>2026-05-01T09:53:15.002Z</time></trkpt><trkpt lat="43.74630502514082" lon="10.963870742646922"><ele>36.0</ele><time>2026-05-01T09:53:16.002Z</time></trkpt><trkpt lat="43.74639698543266" lon="10.963907579550813"><ele>36.0</ele><time>2026-05-01T09:53:17.002Z</time></trkpt><trkpt lat="43.74651089717683" lon="10.963928200594928"><ele>36.0</ele><time>2026-05-01T09:53:18.002Z</time></trkpt><trkpt lat="43.74665786353032" lon="10.963955486818605"><ele>36.0</ele><time>2026-05-01T09:53:19.002Z</time></trkpt><trkpt lat="43.74683424843586" lon="10.963995950949636"><ele>36.0</ele><time>2026-05-01T09:53:20.002Z</time></trkpt><trkpt lat="43.74701734206699" lon="10.964041470480943"><ele>37.0</ele><time>2026-05-01T09:53:21.002Z</time></trkpt><trkpt lat="43.747175751258744" lon="10.964092137498094"><ele>38.0</ele><time>2026-05-01T09:53:22.002Z</time></trkpt><trkpt lat="43.747323842335156" lon="10.964129221026102"><ele>39.0</ele><time>2026-05-01T09:53:23.002Z</time></trkpt><trkpt lat="43.747457473779086" lon="10.964173121843894"><ele>39.0</ele><time>2026-05-01T09:53:24.002Z</time></trkpt><trkpt lat="43.74756651298283" lon="10.964193896165153"><ele>39.0</ele><time>2026-05-01T09:53:25.003Z</time></trkpt><trkpt lat="43.74764250479513" lon="10.964222221977142"><ele>39.0</ele><time>2026-05-01T09:53:26.003Z</time></trkpt><trkpt lat="43.74770481791733" lon="10.96433305268832"><ele>39.0</ele><time>2026-05-01T09:53:28.003Z</time></trkpt><trkpt lat="43.74762147697499" lon="10.964518524756343"><ele>39.0</ele><time>2026-05-01T09:53:30.003Z</time></trkpt><trkpt lat="43.747584122006415" lon="10.964632812460552"><ele>38.5</ele><time>2026-05-01T09:53:30.999Z</time></trkpt><trkpt lat="43.74751274537072" lon="10.96473897141402"><ele>38.0</ele><time>2026-05-01T09:53:31.999Z</time></trkpt><trkpt lat="43.74744402941477" lon="10.96488610998972"><ele>37.5</ele><time>2026-05-01T09:53:32.999Z</time></trkpt><trkpt lat="43.747395390928844" lon="10.965057721346634"><ele>37.0</ele><time>2026-05-01T09:53:33.999Z</time></trkpt><trkpt lat="43.747348354658804" lon="10.965225570833873"><ele>37.0</ele><time>2026-05-01T09:53:34.999Z</time></trkpt><trkpt lat="43.74730221135526" lon="10.965404848650332"><ele>37.0</ele><time>2026-05-01T09:53:35.999Z</time></trkpt><trkpt lat="43.74727089132553" lon="10.965563718374245"><ele>37.0</ele><time>2026-05-01T09:53:36.999Z</time></trkpt><trkpt lat="43.74724001378485" lon="10.96569803882188"><ele>37.0</ele><time>2026-05-01T09:53:37.999Z</time></trkpt><trkpt lat="43.747223308014796" lon="10.965816959755804"><ele>37.0</ele><time>2026-05-01T09:53:38.999Z</time></trkpt><trkpt lat="43.74721007295931" lon="10.965907311450804"><ele>37.6</ele><time>2026-05-01T09:53:39.999Z</time></trkpt><trkpt lat="43.74719803215837" lon="10.966008766625349"><ele>38.2</ele><time>2026-05-01T09:53:41.999Z</time></trkpt><trkpt lat="43.74730074204989" lon="10.966071131781788"><ele>38.8</ele><time>2026-05-01T09:53:43.999Z</time></trkpt><trkpt lat="43.7474186272797" lon="10.966152571395794"><ele>39.4</ele><time>2026-05-01T09:53:45.999Z</time></trkpt><trkpt lat="43.74750132356315" lon="10.966216415598385"><ele>40.0</ele><time>2026-05-01T09:53:46.999Z</time></trkpt><trkpt lat="43.747595134460866" lon="10.966300595464562"><ele>40.0</ele><time>2026-05-01T09:53:47.999Z</time></trkpt><trkpt lat="43.74769361133123" lon="10.966393404910626"><ele>40.0</ele><time>2026-05-01T09:53:48.999Z</time></trkpt><trkpt lat="43.7478010125763" lon="10.966493354232764"><ele>40.0</ele><time>2026-05-01T09:53:49.999Z</time></trkpt><trkpt lat="43.74788860927284" lon="10.966572624452201"><ele>40.0</ele><time>2026-05-01T09:53:50.999Z</time></trkpt><trkpt lat="43.74796208154215" lon="10.966643820646384"><ele>40.0</ele><time>2026-05-01T09:53:51.999Z</time></trkpt><trkpt lat="43.74802649924912" lon="10.966711041740224"><ele>41.5</ele><time>2026-05-01T09:53:53Z</time></trkpt><trkpt lat="43.748089770734566" lon="10.966766131999618"><ele>43.0</ele><time>2026-05-01T09:53:54Z</time></trkpt><trkpt lat="43.74816744384673" lon="10.96683914685445"><ele>44.5</ele><time>2026-05-01T09:53:56Z</time></trkpt><trkpt lat="43.7482084561428" lon="10.966947322229098"><ele>46.0</ele><time>2026-05-01T09:53:58Z</time></trkpt><trkpt lat="43.74822182392592" lon="10.96705328629333"><ele>47.49999999999999</ele><time>2026-05-01T09:54:00Z</time></trkpt><trkpt lat="43.74830040837501" lon="10.967123207255998"><ele>49.0</ele><time>2026-05-01T09:54:02Z</time></trkpt><trkpt lat="43.74836228081686" lon="10.96714849113443"><ele>49.0</ele><time>2026-05-01T09:54:03Z</time></trkpt><trkpt lat="43.748440128525175" lon="10.96717748610245"><ele>49.0</ele><time>2026-05-01T09:54:04Z</time></trkpt><trkpt lat="43.74853011074978" lon="10.967194759173243"><ele>49.0</ele><time>2026-05-01T09:54:05Z</time></trkpt><trkpt lat="43.74861540563701" lon="10.967240296434406"><ele>49.0</ele><time>2026-05-01T09:54:06Z</time></trkpt><trkpt lat="43.74871634306208" lon="10.967251180091427"><ele>49.0</ele><time>2026-05-01T09:54:07Z</time></trkpt><trkpt lat="43.74881672761987" lon="10.96729391238493"><ele>49.75</ele><time>2026-05-01T09:54:08Z</time></trkpt><trkpt lat="43.74892133371345" lon="10.967367965041554"><ele>50.5</ele><time>2026-05-01T09:54:09Z</time></trkpt><trkpt lat="43.749035643365694" lon="10.967402228643989"><ele>51.25</ele><time>2026-05-01T09:54:10Z</time></trkpt><trkpt lat="43.74914511976508" lon="10.967456526584911"><ele>52.0</ele><time>2026-05-01T09:54:11Z</time></trkpt><trkpt lat="43.74925370174749" lon="10.967513348630822"><ele>51.5</ele><time>2026-05-01T09:54:12Z</time></trkpt><trkpt lat="43.74936947593119" lon="10.967564183214106"><ele>51.0</ele><time>2026-05-01T09:54:13Z</time></trkpt><trkpt lat="43.74947936644835" lon="10.9676256021105"><ele>50.5</ele><time>2026-05-01T09:54:14Z</time></trkpt><trkpt lat="43.7495867727127" lon="10.967684715391595"><ele>50.0</ele><time>2026-05-01T09:54:15Z</time></trkpt><trkpt lat="43.74969395949925" lon="10.967743878179272"><ele>50.0</ele><time>2026-05-01T09:54:16Z</time></trkpt><trkpt lat="43.74980620302601" lon="10.967797179883897"><ele>50.0</ele><time>2026-05-01T09:54:17Z</time></trkpt><trkpt lat="43.74991733572579" lon="10.967847132987067"><ele>50.0</ele><time>2026-05-01T09:54:18.001Z</time></trkpt><trkpt lat="43.75002897810237" lon="10.967902919324349"><ele>50.0</ele><time>2026-05-01T09:54:19.001Z</time></trkpt><trkpt lat="43.750141912539476" lon="10.967957655125186"><ele>52.5</ele><time>2026-05-01T09:54:20.001Z</time></trkpt><trkpt lat="43.75026027682961" lon="10.968013880467925"><ele>55.0</ele><time>2026-05-01T09:54:21.001Z</time></trkpt><trkpt lat="43.750381494923865" lon="10.968074078016366"><ele>57.5</ele><time>2026-05-01T09:54:22.001Z</time></trkpt><trkpt lat="43.75051091999011" lon="10.968142521413775"><ele>60.0</ele><time>2026-05-01T09:54:23.001Z</time></trkpt><trkpt lat="43.750645269774246" lon="10.968206139185424"><ele>60.0</ele><time>2026-05-01T09:54:24.001Z</time></trkpt><trkpt lat="43.750775816724904" lon="10.968275165568969"><ele>60.0</ele><time>2026-05-01T09:54:25.001Z</time></trkpt><trkpt lat="43.75090899059189" lon="10.968338414404636"><ele>60.0</ele><time>2026-05-01T09:54:26.001Z</time></trkpt><trkpt lat="43.75102986627083" lon="10.968397293230854"><ele>60.0</ele><time>2026-05-01T09:54:27.001Z</time></trkpt><trkpt lat="43.751156841391925" lon="10.968460420336882"><ele>62.0</ele><time>2026-05-01T09:54:28.001Z</time></trkpt><trkpt lat="43.751282006083976" lon="10.968519337969749"><ele>64.0</ele><time>2026-05-01T09:54:29.001Z</time></trkpt><trkpt lat="43.75139679764376" lon="10.968570917103635"><ele>66.0</ele><time>2026-05-01T09:54:30.001Z</time></trkpt><trkpt lat="43.75148803877625" lon="10.968627375503008"><ele>68.0</ele><time>2026-05-01T09:54:31.001Z</time></trkpt><trkpt lat="43.7515859496104" lon="10.968679629319757"><ele>68.0</ele><time>2026-05-01T09:54:32.001Z</time></trkpt><trkpt lat="43.75168984231889" lon="10.968727889670811"><ele>68.0</ele><time>2026-05-01T09:54:33.001Z</time></trkpt><trkpt lat="43.75178671877077" lon="10.968774729579906"><ele>68.0</ele><time>2026-05-01T09:54:34.001Z</time></trkpt><trkpt lat="43.751880461039555" lon="10.96881954301881"><ele>68.0</ele><time>2026-05-01T09:54:35.001Z</time></trkpt><trkpt lat="43.75196609911207" lon="10.968861290012404"><ele>68.0</ele><time>2026-05-01T09:54:36.001Z</time></trkpt><trkpt lat="43.752039486626735" lon="10.968902099656264"><ele>69.2</ele><time>2026-05-01T09:54:37.001Z</time></trkpt><trkpt lat="43.75210402127263" lon="10.968958623186225"><ele>70.4</ele><time>2026-05-01T09:54:38.001Z</time></trkpt><trkpt lat="43.75214872796745" lon="10.969048253100869"><ele>71.60000000000001</ele><time>2026-05-01T09:54:39.001Z</time></trkpt><trkpt lat="43.75221878127929" lon="10.969115370861271"><ele>72.8</ele><time>2026-05-01T09:54:40.001Z</time></trkpt><trkpt lat="43.75228425499076" lon="10.969215676750075"><ele>74.0</ele><time>2026-05-01T09:54:41.001Z</time></trkpt><trkpt lat="43.75236349180394" lon="10.969325536325746"><ele>74.5</ele><time>2026-05-01T09:54:42.001Z</time></trkpt><trkpt lat="43.75244846974378" lon="10.9694398075704"><ele>75.0</ele><time>2026-05-01T09:54:43.001Z</time></trkpt><trkpt lat="43.75253076600713" lon="10.969555565013211"><ele>75.5</ele><time>2026-05-01T09:54:44.001Z</time></trkpt><trkpt lat="43.75260750229749" lon="10.969659661166173"><ele>76.0</ele><time>2026-05-01T09:54:45.001Z</time></trkpt><trkpt lat="43.75268027224802" lon="10.969768787128215"><ele>77.19999999999999</ele><time>2026-05-01T09:54:46.001Z</time></trkpt><trkpt lat="43.752760237664845" lon="10.969873672680754"><ele>78.39999999999999</ele><time>2026-05-01T09:54:47.001Z</time></trkpt><trkpt lat="43.75283869811381" lon="10.969983351698527"><ele>79.6</ele><time>2026-05-01T09:54:48.001Z</time></trkpt><trkpt lat="43.752918510906525" lon="10.970091838351475"><ele>80.8</ele><time>2026-05-01T09:54:49.001Z</time></trkpt><trkpt lat="43.75299573201119" lon="10.970201999089626"><ele>82.0</ele><time>2026-05-01T09:54:50.002Z</time></trkpt><trkpt lat="43.7530721083455" lon="10.97031270101009"><ele>82.83333333333333</ele><time>2026-05-01T09:54:51.002Z</time></trkpt><trkpt lat="43.75314795929959" lon="10.970418162058353"><ele>83.66666666666666</ele><time>2026-05-01T09:54:52.002Z</time></trkpt><trkpt lat="43.753220240389126" lon="10.97051467990788"><ele>84.5</ele><time>2026-05-01T09:54:53.002Z</time></trkpt><trkpt lat="43.753280608928286" lon="10.97060041530963"><ele>85.33333333333333</ele><time>2026-05-01T09:54:54.002Z</time></trkpt><trkpt lat="43.75333054722122" lon="10.970678714279392"><ele>86.16666666666667</ele><time>2026-05-01T09:54:55.002Z</time></trkpt><trkpt lat="43.753382179998454" lon="10.970756294597681"><ele>87.0</ele><time>2026-05-01T09:54:56.002Z</time></trkpt><trkpt lat="43.75343767442083" lon="10.97083318739385"><ele>87.33333333333333</ele><time>2026-05-01T09:54:57.002Z</time></trkpt><trkpt lat="43.753486136992976" lon="10.970894830148405"><ele>87.66666666666667</ele><time>2026-05-01T09:54:58.002Z</time></trkpt><trkpt lat="43.753536838345624" lon="10.97097713970293"><ele>88.0</ele><time>2026-05-01T09:55:00.002Z</time></trkpt><trkpt lat="43.75352010524516" lon="10.971062518160629"><ele>88.33333333333334</ele><time>2026-05-01T09:55:02.002Z</time></trkpt><trkpt lat="43.7534495862667" lon="10.97112123983542"><ele>88.66666666666667</ele><time>2026-05-01T09:55:04.002Z</time></trkpt><trkpt lat="43.75344746948835" lon="10.971234482463064"><ele>89.0</ele><time>2026-05-01T09:55:06.002Z</time></trkpt><trkpt lat="43.75353134522752" lon="10.971301650163735"><ele>89.6</ele><time>2026-05-01T09:55:08.002Z</time></trkpt><trkpt lat="43.753617849333125" lon="10.971345457866377"><ele>90.2</ele><time>2026-05-01T09:55:10.002Z</time></trkpt><trkpt lat="43.75372225815052" lon="10.971371288360773"><ele>90.8</ele><time>2026-05-01T09:55:12.002Z</time></trkpt><trkpt lat="43.75379897136538" lon="10.97149247813991"><ele>91.39999999999999</ele><time>2026-05-01T09:55:14.002Z</time></trkpt><trkpt lat="43.753857893865735" lon="10.971558796658345"><ele>92.0</ele><time>2026-05-01T09:55:15.002Z</time></trkpt><trkpt lat="43.7539037272945" lon="10.971637102685772"><ele>92.16666666666667</ele><time>2026-05-01T09:55:16.002Z</time></trkpt><trkpt lat="43.753951310796936" lon="10.971728018179443"><ele>92.33333333333334</ele><time>2026-05-01T09:55:17.002Z</time></trkpt><trkpt lat="43.75400224097712" lon="10.971819413315552"><ele>92.5</ele><time>2026-05-01T09:55:18.002Z</time></trkpt><trkpt lat="43.75404500918593" lon="10.971932515633839"><ele>92.66666666666667</ele><time>2026-05-01T09:55:19.002Z</time></trkpt><trkpt lat="43.75410558599935" lon="10.972013962606704"><ele>92.83333333333333</ele><time>2026-05-01T09:55:20.002Z</time></trkpt><trkpt lat="43.75415198392208" lon="10.972115724439828"><ele>93.0</ele><time>2026-05-01T09:55:21.002Z</time></trkpt><trkpt lat="43.754207618908076" lon="10.972219330679353"><ele>93.0</ele><time>2026-05-01T09:55:22.002Z</time></trkpt><trkpt lat="43.75426319967757" lon="10.972315465135441"><ele>93.0</ele><time>2026-05-01T09:55:23.003Z</time></trkpt><trkpt lat="43.754318109343416" lon="10.972416164828035"><ele>93.0</ele><time>2026-05-01T09:55:24.003Z</time></trkpt><trkpt lat="43.75437133131448" lon="10.972524552319543"><ele>93.0</ele><time>2026-05-01T09:55:25.003Z</time></trkpt><trkpt lat="43.75442498160768" lon="10.972628773271152"><ele>93.0</ele><time>2026-05-01T09:55:26.003Z</time></trkpt><trkpt lat="43.7544645953812" lon="10.972722657308077"><ele>93.0</ele><time>2026-05-01T09:55:27.003Z</time></trkpt><trkpt lat="43.75451642775445" lon="10.972832619110342"><ele>95.0</ele><time>2026-05-01T09:55:28.003Z</time></trkpt><trkpt lat="43.75457021224073" lon="10.972933339317624"><ele>97.0</ele><time>2026-05-01T09:55:29.003Z</time></trkpt><trkpt lat="43.75462361817723" lon="10.97303209808123"><ele>99.0</ele><time>2026-05-01T09:55:30.003Z</time></trkpt><trkpt lat="43.75467772958814" lon="10.973128389323376"><ele>101.0</ele><time>2026-05-01T09:55:31.003Z</time></trkpt><trkpt lat="43.75472962153989" lon="10.973191077733448"><ele>103.0</ele><time>2026-05-01T09:55:32.003Z</time></trkpt><trkpt lat="43.75478439761652" lon="10.97326643734461"><ele>105.0</ele><time>2026-05-01T09:55:33.003Z</time></trkpt><trkpt lat="43.75484477455757" lon="10.973328566630787"><ele>104.33333333333333</ele><time>2026-05-01T09:55:34.003Z</time></trkpt><trkpt lat="43.7549055217701" lon="10.973397185474902"><ele>103.66666666666666</ele><time>2026-05-01T09:55:35.003Z</time></trkpt><trkpt lat="43.75495905488022" lon="10.973467006383483"><ele>103.0</ele><time>2026-05-01T09:55:36.003Z</time></trkpt><trkpt lat="43.75500740682049" lon="10.97353491472782"><ele>102.33333333333333</ele><time>2026-05-01T09:55:36.999Z</time></trkpt><trkpt lat="43.755066654311804" lon="10.973607442614869"><ele>101.66666666666666</ele><time>2026-05-01T09:55:37.999Z</time></trkpt><trkpt lat="43.75513317395049" lon="10.973680968516796"><ele>101.0</ele><time>2026-05-01T09:55:38.999Z</time></trkpt><trkpt lat="43.75520817215228" lon="10.973766137171674"><ele>102.83333333333333</ele><time>2026-05-01T09:55:39.999Z</time></trkpt><trkpt lat="43.75525953350168" lon="10.97384201127929"><ele>104.66666666666666</ele><time>2026-05-01T09:55:40.999Z</time></trkpt><trkpt lat="43.75531188394668" lon="10.973903907724814"><ele>106.5</ele><time>2026-05-01T09:55:41.999Z</time></trkpt><trkpt lat="43.75536536348703" lon="10.973969800755059"><ele>108.33333333333334</ele><time>2026-05-01T09:55:42.999Z</time></trkpt><trkpt lat="43.755423341698574" lon="10.974034010061851"><ele>110.16666666666667</ele><time>2026-05-01T09:55:43.999Z</time></trkpt><trkpt lat="43.755478146772326" lon="10.974089279784517"><ele>112.0</ele><time>2026-05-01T09:55:44.999Z</time></trkpt><trkpt lat="43.75559599722435" lon="10.974223018933422"><ele>112.16666666666667</ele><time>2026-05-01T09:55:46.999Z</time></trkpt><trkpt lat="43.75565842351917" lon="10.974288603841819"><ele>112.33333333333334</ele><time>2026-05-01T09:55:47.999Z</time></trkpt><trkpt lat="43.75572745229442" lon="10.974355359098329"><ele>112.5</ele><time>2026-05-01T09:55:48.999Z</time></trkpt><trkpt lat="43.755790360434055" lon="10.974420644849845"><ele>112.66666666666666</ele><time>2026-05-01T09:55:49.999Z</time></trkpt><trkpt lat="43.755854069336095" lon="10.974478353427426"><ele>112.83333333333333</ele><time>2026-05-01T09:55:51Z</time></trkpt><trkpt lat="43.75592824836864" lon="10.974545480107318"><ele>113.0</ele><time>2026-05-01T09:55:52Z</time></trkpt><trkpt lat="43.75598573757829" lon="10.974607147494636"><ele>113.49999999999999</ele><time>2026-05-01T09:55:53Z</time></trkpt><trkpt lat="43.756090450581446" lon="10.974707484533242"><ele>114.0</ele><time>2026-05-01T09:55:55Z</time></trkpt><trkpt lat="43.756131335489265" lon="10.974784001780089"><ele>114.5</ele><time>2026-05-01T09:55:56Z</time></trkpt><trkpt lat="43.75618639264239" lon="10.974834335142884"><ele>115.0</ele><time>2026-05-01T09:55:57Z</time></trkpt><trkpt lat="43.756217915387715" lon="10.97492189794057"><ele>115.49999999999999</ele><time>2026-05-01T09:55:58Z</time></trkpt><trkpt lat="43.756254911932054" lon="10.975026241495462"><ele>116.0</ele><time>2026-05-01T09:55:59Z</time></trkpt><trkpt lat="43.756288706568355" lon="10.975144875573708"><ele>116.99999999999999</ele><time>2026-05-01T09:56:00Z</time></trkpt><trkpt lat="43.75632599797935" lon="10.975255062631764"><ele>118.0</ele><time>2026-05-01T09:56:01Z</time></trkpt><trkpt lat="43.75636059763065" lon="10.975341143683401"><ele>119.0</ele><time>2026-05-01T09:56:02Z</time></trkpt><trkpt lat="43.75639796535269" lon="10.975429943626196"><ele>120.0</ele><time>2026-05-01T09:56:03Z</time></trkpt><trkpt lat="43.75643239014007" lon="10.975511180533402"><ele>120.99999999999999</ele><time>2026-05-01T09:56:04Z</time></trkpt><trkpt lat="43.756467623413734" lon="10.97559226406566"><ele>122.0</ele><time>2026-05-01T09:56:05Z</time></trkpt><trkpt lat="43.75652992679378" lon="10.975724553207657"><ele>121.99999999999999</ele><time>2026-05-01T09:56:07Z</time></trkpt><trkpt lat="43.756564769868966" lon="10.975826890233588"><ele>122.0</ele><time>2026-05-01T09:56:08Z</time></trkpt><trkpt lat="43.75660451612463" lon="10.975898558359857"><ele>122.0</ele><time>2026-05-01T09:56:09Z</time></trkpt><trkpt lat="43.75665551098643" lon="10.97596047015234"><ele>122.0</ele><time>2026-05-01T09:56:10Z</time></trkpt><trkpt lat="43.75672341269203" lon="10.976015374581465"><ele>121.99999999999999</ele><time>2026-05-01T09:56:11Z</time></trkpt><trkpt lat="43.75679068430683" lon="10.976128383900019"><ele>122.0</ele><time>2026-05-01T09:56:12.001Z</time></trkpt><trkpt lat="43.75687063260482" lon="10.976213979359704"><ele>123.6</ele><time>2026-05-01T09:56:13.001Z</time></trkpt><trkpt lat="43.75694989915548" lon="10.976298502233284"><ele>125.19999999999999</ele><time>2026-05-01T09:56:14.001Z</time></trkpt><trkpt lat="43.75702662740757" lon="10.976390516219038"><ele>126.8</ele><time>2026-05-01T09:56:15.001Z</time></trkpt><trkpt lat="43.757095976938224" lon="10.976466402945828"><ele>128.4</ele><time>2026-05-01T09:56:16.001Z</time></trkpt><trkpt lat="43.75716888526683" lon="10.976558815962893"><ele>130.0</ele><time>2026-05-01T09:56:17.001Z</time></trkpt><trkpt lat="43.757246562556524" lon="10.976653375449784"><ele>130.5</ele><time>2026-05-01T09:56:18.001Z</time></trkpt><trkpt lat="43.757317223141925" lon="10.97673417786187"><ele>131.0</ele><time>2026-05-01T09:56:19.001Z</time></trkpt><trkpt lat="43.7573831071186" lon="10.976810168786136"><ele>131.5</ele><time>2026-05-01T09:56:20.001Z</time></trkpt><trkpt lat="43.757447143074096" lon="10.97688583949897"><ele>132.0</ele><time>2026-05-01T09:56:21.001Z</time></trkpt><trkpt lat="43.75750956424169" lon="10.976963485710781"><ele>132.5</ele><time>2026-05-01T09:56:22.001Z</time></trkpt><trkpt lat="43.75757367050882" lon="10.977034103118902"><ele>133.0</ele><time>2026-05-01T09:56:23.001Z</time></trkpt><trkpt lat="43.75762893475331" lon="10.977091270898022"><ele>133.0</ele><time>2026-05-01T09:56:24.001Z</time></trkpt><trkpt lat="43.75766371289064" lon="10.977172809702374"><ele>133.0</ele><time>2026-05-01T09:56:25.001Z</time></trkpt><trkpt lat="43.757743074640835" lon="10.977314454740922"><ele>133.0</ele><time>2026-05-01T09:56:27.001Z</time></trkpt><trkpt lat="43.757816780741976" lon="10.977475538389868"><ele>133.0</ele><time>2026-05-01T09:56:29.001Z</time></trkpt><trkpt lat="43.75784326763827" lon="10.977574834802438"><ele>133.0</ele><time>2026-05-01T09:56:30.001Z</time></trkpt><trkpt lat="43.75787247535137" lon="10.977657017896624"><ele>134.8</ele><time>2026-05-01T09:56:31.001Z</time></trkpt><trkpt lat="43.75791483369019" lon="10.977730922053249"><ele>136.60000000000002</ele><time>2026-05-01T09:56:33.001Z</time></trkpt><trkpt lat="43.758123708840365" lon="10.977702335913076"><ele>138.39999999999998</ele><time>2026-05-01T09:56:39.001Z</time></trkpt><trkpt lat="43.758203493535184" lon="10.977656707804094"><ele>140.2</ele><time>2026-05-01T09:56:40.001Z</time></trkpt><trkpt lat="43.758268481417005" lon="10.977618642083746"><ele>142.0</ele><time>2026-05-01T09:56:41.002Z</time></trkpt><trkpt lat="43.75832668117312" lon="10.977571826219133"><ele>142.2</ele><time>2026-05-01T09:56:42.002Z</time></trkpt><trkpt lat="43.75838914512302" lon="10.977431305057749"><ele>142.39999999999998</ele><time>2026-05-01T09:56:44.002Z</time></trkpt><trkpt lat="43.758392119712695" lon="10.977325738828705"><ele>142.60000000000002</ele><time>2026-05-01T09:56:45.002Z</time></trkpt><trkpt lat="43.75835263737853" lon="10.977207879822133"><ele>142.8</ele><time>2026-05-01T09:56:46.002Z</time></trkpt><trkpt lat="43.75836115015246" lon="10.977096481622237"><ele>143.0</ele><time>2026-05-01T09:56:47.002Z</time></trkpt><trkpt lat="43.7584072533097" lon="10.97697733787337"><ele>143.0</ele><time>2026-05-01T09:56:49.002Z</time></trkpt><trkpt lat="43.75849788804685" lon="10.97692194912582"><ele>143.0</ele><time>2026-05-01T09:56:51.002Z</time></trkpt><trkpt lat="43.75861657399101" lon="10.976967446480188"><ele>143.0</ele><time>2026-05-01T09:56:53.002Z</time></trkpt><trkpt lat="43.75865962462162" lon="10.977048486541607"><ele>143.0</ele><time>2026-05-01T09:56:54.002Z</time></trkpt><trkpt lat="43.75868815466838" lon="10.977128175838411"><ele>143.0</ele><time>2026-05-01T09:56:55.002Z</time></trkpt><trkpt lat="43.75873160681835" lon="10.97720984630167"><ele>143.0</ele><time>2026-05-01T09:56:56.002Z</time></trkpt><trkpt lat="43.75879997887353" lon="10.977298586781217"><ele>145.0</ele><time>2026-05-01T09:56:57.002Z</time></trkpt><trkpt lat="43.758913557439506" lon="10.977383289944948"><ele>147.0</ele><time>2026-05-01T09:56:58.002Z</time></trkpt><trkpt lat="43.75900711024219" lon="10.977457771052372"><ele>149.0</ele><time>2026-05-01T09:56:59.002Z</time></trkpt><trkpt lat="43.75906694458101" lon="10.977515721632571"><ele>151.0</ele><time>2026-05-01T09:57:00.002Z</time></trkpt><trkpt lat="43.75917875500069" lon="10.977574073183659"><ele>153.0</ele><time>2026-05-01T09:57:02.002Z</time></trkpt><trkpt lat="43.759253437765025" lon="10.977563106573077"><ele>153.0</ele><time>2026-05-01T09:57:03.002Z</time></trkpt><trkpt lat="43.75934119163451" lon="10.977525327648635"><ele>153.0</ele><time>2026-05-01T09:57:04.002Z</time></trkpt><trkpt lat="43.75942092637194" lon="10.977494795472731"><ele>153.0</ele><time>2026-05-01T09:57:05.002Z</time></trkpt><trkpt lat="43.759489675033855" lon="10.97748070833028"><ele>153.0</ele><time>2026-05-01T09:57:06.002Z</time></trkpt><trkpt lat="43.759605539188975" lon="10.977452118024427"><ele>153.0</ele><time>2026-05-01T09:57:08.002Z</time></trkpt><trkpt lat="43.75971050940953" lon="10.977433154364771"><ele>155.60000000000002</ele><time>2026-05-01T09:57:10.002Z</time></trkpt><trkpt lat="43.75981580609537" lon="10.977420019944347"><ele>158.20000000000002</ele><time>2026-05-01T09:57:12.002Z</time></trkpt><trkpt lat="43.759880123513256" lon="10.977408524720188"><ele>160.8</ele><time>2026-05-01T09:57:13.002Z</time></trkpt><trkpt lat="43.759969117165696" lon="10.977399723245775"><ele>163.4</ele><time>2026-05-01T09:57:14.003Z</time></trkpt><trkpt lat="43.7600699314615" lon="10.97738645412894"><ele>166.0</ele><time>2026-05-01T09:57:15.003Z</time></trkpt><trkpt lat="43.76018425232221" lon="10.977365973150645"><ele>165.66666666666669</ele><time>2026-05-01T09:57:16.003Z</time></trkpt><trkpt lat="43.760297450893425" lon="10.977348015740846"><ele>165.33333333333334</ele><time>2026-05-01T09:57:17.003Z</time></trkpt><trkpt lat="43.760382817542364" lon="10.977340343304276"><ele>165.0</ele><time>2026-05-01T09:57:18.003Z</time></trkpt><trkpt lat="43.76046237846577" lon="10.977322145648667"><ele>164.66666666666666</ele><time>2026-05-01T09:57:19.003Z</time></trkpt><trkpt lat="43.760531087174115" lon="10.977303974811024"><ele>164.33333333333331</ele><time>2026-05-01T09:57:20.003Z</time></trkpt><trkpt lat="43.760590794535915" lon="10.977257059253597"><ele>164.0</ele><time>2026-05-01T09:57:21.003Z</time></trkpt><trkpt lat="43.76063934705661" lon="10.977176702592999"><ele>164.0</ele><time>2026-05-01T09:57:22.003Z</time></trkpt><trkpt lat="43.760687597439805" lon="10.97705580865339"><ele>164.0</ele><time>2026-05-01T09:57:23.003Z</time></trkpt><trkpt lat="43.760732350778035" lon="10.976926038140698"><ele>164.0</ele><time>2026-05-01T09:57:24.003Z</time></trkpt><trkpt lat="43.76078831413503" lon="10.976768797895211"><ele>164.0</ele><time>2026-05-01T09:57:25.003Z</time></trkpt><trkpt lat="43.76085008186465" lon="10.976618254940597"><ele>163.6</ele><time>2026-05-01T09:57:26.003Z</time></trkpt><trkpt lat="43.760917034337986" lon="10.976474469247021"><ele>163.2</ele><time>2026-05-01T09:57:27.003Z</time></trkpt><trkpt lat="43.760967816573874" lon="10.976345795375723"><ele>162.79999999999998</ele><time>2026-05-01T09:57:28.003Z</time></trkpt><trkpt lat="43.7610218058479" lon="10.976234025026603"><ele>162.39999999999998</ele><time>2026-05-01T09:57:29.003Z</time></trkpt><trkpt lat="43.76107285647631" lon="10.976124854741888"><ele>162.0</ele><time>2026-05-01T09:57:30.003Z</time></trkpt><trkpt lat="43.76112211779008" lon="10.976031732864339"><ele>162.2</ele><time>2026-05-01T09:57:31.003Z</time></trkpt><trkpt lat="43.76117976423558" lon="10.975960768045685"><ele>162.39999999999998</ele><time>2026-05-01T09:57:32.003Z</time></trkpt><trkpt lat="43.7613142312238" lon="10.97592851220733"><ele>162.60000000000002</ele><time>2026-05-01T09:57:34.003Z</time></trkpt><trkpt lat="43.76140553536193" lon="10.975892840950014"><ele>162.8</ele><time>2026-05-01T09:57:35.003Z</time></trkpt><trkpt lat="43.761505657672785" lon="10.975854079003687"><ele>163.0</ele><time>2026-05-01T09:57:36.003Z</time></trkpt><trkpt lat="43.76160740939156" lon="10.97581246254483"><ele>163.0</ele><time>2026-05-01T09:57:37.003Z</time></trkpt><trkpt lat="43.76170328735283" lon="10.97574989423296"><ele>163.0</ele><time>2026-05-01T09:57:38.003Z</time></trkpt><trkpt lat="43.761797831273576" lon="10.975721584522592"><ele>163.0</ele><time>2026-05-01T09:57:39.003Z</time></trkpt><trkpt lat="43.76189488127624" lon="10.975690249599591"><ele>163.0</ele><time>2026-05-01T09:57:40.003Z</time></trkpt><trkpt lat="43.762003664006286" lon="10.97565280892786"><ele>163.0</ele><time>2026-05-01T09:57:41.003Z</time></trkpt><trkpt lat="43.76210432919415" lon="10.975601585841666"><ele>164.0</ele><time>2026-05-01T09:57:42.003Z</time></trkpt><trkpt lat="43.7622050514312" lon="10.975566513766005"><ele>165.0</ele><time>2026-05-01T09:57:42.999Z</time></trkpt><trkpt lat="43.76231646447229" lon="10.975545735847097"><ele>166.0</ele><time>2026-05-01T09:57:43.999Z</time></trkpt><trkpt lat="43.76242971548853" lon="10.975529602689695"><ele>167.0</ele><time>2026-05-01T09:57:44.999Z</time></trkpt><trkpt lat="43.76255344735236" lon="10.975512807264403"><ele>167.0</ele><time>2026-05-01T09:57:45.999Z</time></trkpt><trkpt lat="43.76268083118305" lon="10.975501435496104"><ele>167.0</ele><time>2026-05-01T09:57:46.999Z</time></trkpt><trkpt lat="43.76279987349785" lon="10.975502102495636"><ele>167.0</ele><time>2026-05-01T09:57:47.999Z</time></trkpt><trkpt lat="43.76290784992074" lon="10.975481665806956"><ele>167.0</ele><time>2026-05-01T09:57:48.999Z</time></trkpt><trkpt lat="43.76301023074954" lon="10.975459522486345"><ele>167.0</ele><time>2026-05-01T09:57:49.999Z</time></trkpt><trkpt lat="43.7631196436763" lon="10.975440128821372"><ele>167.0</ele><time>2026-05-01T09:57:50.999Z</time></trkpt><trkpt lat="43.76322925266693" lon="10.97541829929806"><ele>167.0</ele><time>2026-05-01T09:57:51.999Z</time></trkpt><trkpt lat="43.7633362854111" lon="10.975394886666201"><ele>167.0</ele><time>2026-05-01T09:57:52.999Z</time></trkpt><trkpt lat="43.76344351047598" lon="10.975361791000084"><ele>167.0</ele><time>2026-05-01T09:57:53.999Z</time></trkpt><trkpt lat="43.76354055618364" lon="10.975314058742502"><ele>170.0</ele><time>2026-05-01T09:57:54.999Z</time></trkpt><trkpt lat="43.763646992916755" lon="10.975261861419682"><ele>173.0</ele><time>2026-05-01T09:57:55.999Z</time></trkpt><trkpt lat="43.763758654675925" lon="10.975260978978934"><ele>176.0</ele><time>2026-05-01T09:57:57Z</time></trkpt><trkpt lat="43.76386295815793" lon="10.975222575561324"><ele>179.0</ele><time>2026-05-01T09:57:58Z</time></trkpt><trkpt lat="43.76398185374791" lon="10.975208099531576"><ele>179.0</ele><time>2026-05-01T09:57:59Z</time></trkpt><trkpt lat="43.7640962629824" lon="10.975199327826479"><ele>179.0</ele><time>2026-05-01T09:58:00Z</time></trkpt><trkpt lat="43.764201144310185" lon="10.9751829955482"><ele>179.0</ele><time>2026-05-01T09:58:01Z</time></trkpt><trkpt lat="43.76430835952519" lon="10.97516066512116"><ele>179.0</ele><time>2026-05-01T09:58:02Z</time></trkpt><trkpt lat="43.764424983663716" lon="10.975138736363114"><ele>179.0</ele><time>2026-05-01T09:58:03Z</time></trkpt><trkpt lat="43.76453123702155" lon="10.975125542116901"><ele>183.25</ele><time>2026-05-01T09:58:04Z</time></trkpt><trkpt lat="43.76463184333902" lon="10.97512809676992"><ele>187.5</ele><time>2026-05-01T09:58:05Z</time></trkpt><trkpt lat="43.76474837620969" lon="10.975108744166047"><ele>191.75</ele><time>2026-05-01T09:58:06Z</time></trkpt><trkpt lat="43.76486576861428" lon="10.97508924884528"><ele>196.0</ele><time>2026-05-01T09:58:07Z</time></trkpt><trkpt lat="43.764984753873144" lon="10.97507031070423"><ele>196.0</ele><time>2026-05-01T09:58:08Z</time></trkpt><trkpt lat="43.76509263672212" lon="10.975033069119068"><ele>196.0</ele><time>2026-05-01T09:58:09Z</time></trkpt><trkpt lat="43.76519938111029" lon="10.975019580029024"><ele>196.0</ele><time>2026-05-01T09:58:10Z</time></trkpt><trkpt lat="43.76530351787535" lon="10.975008834251234"><ele>196.0</ele><time>2026-05-01T09:58:11Z</time></trkpt><trkpt lat="43.76541179888674" lon="10.974988235766174"><ele>196.0</ele><time>2026-05-01T09:58:12Z</time></trkpt><trkpt lat="43.76551806856932" lon="10.974964022839984"><ele>196.60000000000002</ele><time>2026-05-01T09:58:13Z</time></trkpt><trkpt lat="43.76562098196679" lon="10.97493673178721"><ele>197.2</ele><time>2026-05-01T09:58:14Z</time></trkpt><trkpt lat="43.76572667416375" lon="10.974905712856254"><ele>197.8</ele><time>2026-05-01T09:58:15Z</time></trkpt><trkpt lat="43.76582680701941" lon="10.974876579300096"><ele>198.39999999999998</ele><time>2026-05-01T09:58:16Z</time></trkpt><trkpt lat="43.765924404090235" lon="10.974869547591403"><ele>199.0</ele><time>2026-05-01T09:58:17.001Z</time></trkpt><trkpt lat="43.7660127889093" lon="10.974872446291831"><ele>199.99999999999997</ele><time>2026-05-01T09:58:18.001Z</time></trkpt><trkpt lat="43.76610381683331" lon="10.974843668237597"><ele>201.0</ele><time>2026-05-01T09:58:19.001Z</time></trkpt><trkpt lat="43.76617264193141" lon="10.974827779121407"><ele>202.0</ele><time>2026-05-01T09:58:20.001Z</time></trkpt><trkpt lat="43.766254254510464" lon="10.974815524395677"><ele>203.0</ele><time>2026-05-01T09:58:21.001Z</time></trkpt><trkpt lat="43.76635098166098" lon="10.974807892190857"><ele>203.99999999999997</ele><time>2026-05-01T09:58:22.001Z</time></trkpt><trkpt lat="43.76645785418136" lon="10.974810356658526"><ele>205.0</ele><time>2026-05-01T09:58:23.001Z</time></trkpt><trkpt lat="43.76655863545765" lon="10.974827018725785"><ele>205.0</ele><time>2026-05-01T09:58:24.001Z</time></trkpt><trkpt lat="43.76665082719848" lon="10.974871791509553"><ele>205.0</ele><time>2026-05-01T09:58:25.001Z</time></trkpt><trkpt lat="43.76675097570029" lon="10.974918990915379"><ele>205.0</ele><time>2026-05-01T09:58:26.001Z</time></trkpt><trkpt lat="43.76685148747464" lon="10.97495167815195"><ele>205.0</ele><time>2026-05-01T09:58:27.001Z</time></trkpt><trkpt lat="43.766951150277855" lon="10.975003095499936"><ele>205.0</ele><time>2026-05-01T09:58:28.001Z</time></trkpt><trkpt lat="43.767046377997495" lon="10.97504335992574"><ele>206.8</ele><time>2026-05-01T09:58:29.001Z</time></trkpt><trkpt lat="43.76713593910647" lon="10.975112877798338"><ele>208.6</ele><time>2026-05-01T09:58:30.001Z</time></trkpt><trkpt lat="43.767239990167724" lon="10.975148096092946"><ele>210.39999999999998</ele><time>2026-05-01T09:58:31.001Z</time></trkpt><trkpt lat="43.767337827363065" lon="10.975198776854654"><ele>212.2</ele><time>2026-05-01T09:58:32.001Z</time></trkpt><trkpt lat="43.76743258589127" lon="10.975252842764984"><ele>214.0</ele><time>2026-05-01T09:58:33.001Z</time></trkpt><trkpt lat="43.76753225679499" lon="10.975295671865279"><ele>214.0</ele><time>2026-05-01T09:58:34.001Z</time></trkpt><trkpt lat="43.76763354930841" lon="10.975353034390258"><ele>213.99999999999997</ele><time>2026-05-01T09:58:35.001Z</time></trkpt><trkpt lat="43.767737035666286" lon="10.975400588867892"><ele>213.99999999999997</ele><time>2026-05-01T09:58:36.001Z</time></trkpt><trkpt lat="43.767833922034555" lon="10.97545287238869"><ele>214.0</ele><time>2026-05-01T09:58:37.001Z</time></trkpt><trkpt lat="43.76793306191473" lon="10.975507687560745"><ele>214.0</ele><time>2026-05-01T09:58:38.001Z</time></trkpt><trkpt lat="43.768030118322216" lon="10.975553725264938"><ele>214.6</ele><time>2026-05-01T09:58:39.001Z</time></trkpt><trkpt lat="43.768115801606115" lon="10.975623376623997"><ele>215.2</ele><time>2026-05-01T09:58:40.001Z</time></trkpt><trkpt lat="43.76820468317827" lon="10.975692305952164"><ele>215.79999999999998</ele><time>2026-05-01T09:58:41.001Z</time></trkpt><trkpt lat="43.768281425875685" lon="10.975761445485004"><ele>216.39999999999998</ele><time>2026-05-01T09:58:42.001Z</time></trkpt><trkpt lat="43.768362993375675" lon="10.975812248606934"><ele>217.0</ele><time>2026-05-01T09:58:43.001Z</time></trkpt><trkpt lat="43.76844323834225" lon="10.975891587486535"><ele>216.0</ele><time>2026-05-01T09:58:44.001Z</time></trkpt><trkpt lat="43.76852961398414" lon="10.975982908288135"><ele>215.0</ele><time>2026-05-01T09:58:45.001Z</time></trkpt><trkpt lat="43.768619922115285" lon="10.976064168571959"><ele>214.0</ele><time>2026-05-01T09:58:46.002Z</time></trkpt><trkpt lat="43.768693667432565" lon="10.976116713369551"><ele>213.0</ele><time>2026-05-01T09:58:47.002Z</time></trkpt><trkpt lat="43.76877341711074" lon="10.976150857471103"><ele>212.0</ele><time>2026-05-01T09:58:48.002Z</time></trkpt><trkpt lat="43.76885514417486" lon="10.976152977811198"><ele>212.0</ele><time>2026-05-01T09:58:49.002Z</time></trkpt><trkpt lat="43.76895778844204" lon="10.976147905860822"><ele>212.0</ele><time>2026-05-01T09:58:50.002Z</time></trkpt><trkpt lat="43.769060184742365" lon="10.976177875294754"><ele>212.0</ele><time>2026-05-01T09:58:51.002Z</time></trkpt><trkpt lat="43.769160376407385" lon="10.976187056795974"><ele>212.0</ele><time>2026-05-01T09:58:52.002Z</time></trkpt><trkpt lat="43.769253471243516" lon="10.976195587943273"><ele>212.0</ele><time>2026-05-01T09:58:53.002Z</time></trkpt><trkpt lat="43.76934606426811" lon="10.976183369440012"><ele>213.50000000000003</ele><time>2026-05-01T09:58:54.002Z</time></trkpt><trkpt lat="43.769432054042426" lon="10.976192608308892"><ele>215.0</ele><time>2026-05-01T09:58:55.002Z</time></trkpt><trkpt lat="43.769520560558476" lon="10.976205516155611"><ele>216.5</ele><time>2026-05-01T09:58:56.002Z</time></trkpt><trkpt lat="43.76961152144643" lon="10.976214173301086"><ele>218.0</ele><time>2026-05-01T09:58:57.002Z</time></trkpt><trkpt lat="43.769701037518736" lon="10.976221948147728"><ele>219.50000000000003</ele><time>2026-05-01T09:58:58.002Z</time></trkpt><trkpt lat="43.76978999693416" lon="10.976235639760965"><ele>221.0</ele><time>2026-05-01T09:58:59.002Z</time></trkpt><trkpt lat="43.76989529303004" lon="10.976269232100732"><ele>221.0</ele><time>2026-05-01T09:59:00.002Z</time></trkpt><trkpt lat="43.76998870155319" lon="10.976279911915306"><ele>221.00000000000003</ele><time>2026-05-01T09:59:01.002Z</time></trkpt><trkpt lat="43.770076495860266" lon="10.976270376256284"><ele>221.00000000000003</ele><time>2026-05-01T09:59:02.002Z</time></trkpt><trkpt lat="43.77017112688487" lon="10.976286220063898"><ele>221.0</ele><time>2026-05-01T09:59:03.002Z</time></trkpt><trkpt lat="43.77026234460351" lon="10.976303255660872"><ele>221.0</ele><time>2026-05-01T09:59:04.002Z</time></trkpt><trkpt lat="43.77034925034381" lon="10.976323708573679"><ele>222.66666666666669</ele><time>2026-05-01T09:59:05.002Z</time></trkpt><trkpt lat="43.77043517564476" lon="10.976349105404895"><ele>224.33333333333334</ele><time>2026-05-01T09:59:06.002Z</time></trkpt><trkpt lat="43.77051829591654" lon="10.976365606150472"><ele>226.0</ele><time>2026-05-01T09:59:07.002Z</time></trkpt><trkpt lat="43.770610319827284" lon="10.976361215421813"><ele>227.66666666666669</ele><time>2026-05-01T09:59:08.002Z</time></trkpt><trkpt lat="43.770701288509464" lon="10.976383024530666"><ele>229.33333333333334</ele><time>2026-05-01T09:59:09.002Z</time></trkpt><trkpt lat="43.77078391285614" lon="10.976393811029656"><ele>231.0</ele><time>2026-05-01T09:59:10.002Z</time></trkpt><trkpt lat="43.77086352208331" lon="10.97640146793466"><ele>231.0</ele><time>2026-05-01T09:59:11.002Z</time></trkpt><trkpt lat="43.77094820116536" lon="10.976382497930457"><ele>231.0</ele><time>2026-05-01T09:59:12.002Z</time></trkpt><trkpt lat="43.771043992836105" lon="10.976381082017612"><ele>231.0</ele><time>2026-05-01T09:59:13.002Z</time></trkpt><trkpt lat="43.77113786488057" lon="10.97640747479385"><ele>231.0</ele><time>2026-05-01T09:59:14.002Z</time></trkpt><trkpt lat="43.77121504468192" lon="10.976428224744744"><ele>231.0</ele><time>2026-05-01T09:59:15.002Z</time></trkpt><trkpt lat="43.77128825646322" lon="10.976449916100087"><ele>231.0</ele><time>2026-05-01T09:59:16.002Z</time></trkpt><trkpt lat="43.77137038945391" lon="10.976476127491303"><ele>232.66666666666666</ele><time>2026-05-01T09:59:17.002Z</time></trkpt><trkpt lat="43.77145982576156" lon="10.976498282122103"><ele>234.33333333333331</ele><time>2026-05-01T09:59:18.003Z</time></trkpt><trkpt lat="43.77154791459445" lon="10.976486879895951"><ele>236.0</ele><time>2026-05-01T09:59:19.003Z</time></trkpt><trkpt lat="43.771641392219315" lon="10.976501843482513"><ele>237.66666666666666</ele><time>2026-05-01T09:59:20.003Z</time></trkpt><trkpt lat="43.77172481713383" lon="10.976508128424904"><ele>239.33333333333331</ele><time>2026-05-01T09:59:21.003Z</time></trkpt><trkpt lat="43.7717981789211" lon="10.976512172951713"><ele>241.0</ele><time>2026-05-01T09:59:22.003Z</time></trkpt><trkpt lat="43.7718612324124" lon="10.976511113421257"><ele>242.8</ele><time>2026-05-01T09:59:23.003Z</time></trkpt><trkpt lat="43.771960853096836" lon="10.976480203868952"><ele>244.60000000000002</ele><time>2026-05-01T09:59:25.003Z</time></trkpt><trkpt lat="43.77201163011081" lon="10.976390809121485"><ele>246.4</ele><time>2026-05-01T09:59:27.003Z</time></trkpt><trkpt lat="43.77200806587226" lon="10.976250367806573"><ele>248.2</ele><time>2026-05-01T09:59:29.003Z</time></trkpt><trkpt lat="43.77196680520627" lon="10.976114058683924"><ele>250.0</ele><time>2026-05-01T09:59:31.003Z</time></trkpt><trkpt lat="43.77187737649405" lon="10.97604189484942"><ele>250.2</ele><time>2026-05-01T09:59:33.003Z</time></trkpt><trkpt lat="43.77181487492869" lon="10.975936086314096"><ele>250.4</ele><time>2026-05-01T09:59:35.003Z</time></trkpt><trkpt lat="43.77181674696196" lon="10.975830387793234"><ele>250.60000000000002</ele><time>2026-05-01T09:59:38.003Z</time></trkpt><trkpt lat="43.771837576943874" lon="10.975704374831826"><ele>250.8</ele><time>2026-05-01T09:59:40.003Z</time></trkpt><trkpt lat="43.77187202390616" lon="10.975525233614096"><ele>251.0</ele><time>2026-05-01T09:59:42.003Z</time></trkpt><trkpt lat="43.77191159410952" lon="10.975407188496993"><ele>252.83333333333334</ele><time>2026-05-01T09:59:43.003Z</time></trkpt><trkpt lat="43.7719462274647" lon="10.975294345441041"><ele>254.66666666666669</ele><time>2026-05-01T09:59:44.003Z</time></trkpt><trkpt lat="43.77196712977334" lon="10.975209120599144"><ele>256.5</ele><time>2026-05-01T09:59:45.003Z</time></trkpt><trkpt lat="43.77200038529122" lon="10.975076117215059"><ele>258.3333333333333</ele><time>2026-05-01T09:59:47.003Z</time></trkpt><trkpt lat="43.77202636039207" lon="10.974991931524833"><ele>260.16666666666663</ele><time>2026-05-01T09:59:48.999Z</time></trkpt><trkpt lat="43.77207696783332" lon="10.974933549786671"><ele>262.0</ele><time>2026-05-01T09:59:53Z</time></trkpt><trkpt lat="43.77213585544775" lon="10.974899897288044"><ele>262.0</ele><time>2026-05-01T09:59:56Z</time></trkpt><trkpt lat="43.772209266789844" lon="10.974942012522193"><ele>262.0</ele><time>2026-05-01T10:00:04Z</time></trkpt><trkpt lat="43.772293593590526" lon="10.974967534709094"><ele>262.0</ele><time>2026-05-01T10:00:07Z</time></trkpt><trkpt lat="43.77239477122927" lon="10.97497889638062"><ele>262.0</ele><time>2026-05-01T10:00:09Z</time></trkpt><trkpt lat="43.772510109190364" lon="10.975010850567207"><ele>262.0</ele><time>2026-05-01T10:00:11Z</time></trkpt><trkpt lat="43.772607989062664" lon="10.975023600376815"><ele>263.5</ele><time>2026-05-01T10:00:13Z</time></trkpt><trkpt lat="43.77271034788219" lon="10.975029929492237"><ele>265.0</ele><time>2026-05-01T10:00:15Z</time></trkpt><trkpt lat="43.77278059332256" lon="10.975040730141568"><ele>266.5</ele><time>2026-05-01T10:00:16Z</time></trkpt><trkpt lat="43.77286614515372" lon="10.97505764733515"><ele>268.0</ele><time>2026-05-01T10:00:17Z</time></trkpt><trkpt lat="43.772936821124276" lon="10.975066105716502"><ele>269.5</ele><time>2026-05-01T10:00:18Z</time></trkpt><trkpt lat="43.77300577783681" lon="10.975060938852495"><ele>271.0</ele><time>2026-05-01T10:00:19Z</time></trkpt><trkpt lat="43.77308487983403" lon="10.975060910269798"><ele>271.0</ele><time>2026-05-01T10:00:20Z</time></trkpt><trkpt lat="43.77316119627425" lon="10.975059225646321"><ele>271.0</ele><time>2026-05-01T10:00:21Z</time></trkpt><trkpt lat="43.77326115565136" lon="10.975060902385234"><ele>271.0</ele><time>2026-05-01T10:00:22.001Z</time></trkpt><trkpt lat="43.77337113382508" lon="10.975061123790963"><ele>271.0</ele><time>2026-05-01T10:00:23.001Z</time></trkpt><trkpt lat="43.77347035389465" lon="10.97506891687431"><ele>271.0</ele><time>2026-05-01T10:00:24.001Z</time></trkpt><trkpt lat="43.77356396995335" lon="10.975070951487735"><ele>272.3333333333333</ele><time>2026-05-01T10:00:25.001Z</time></trkpt><trkpt lat="43.77364137166992" lon="10.975053239111329"><ele>273.66666666666663</ele><time>2026-05-01T10:00:26.001Z</time></trkpt><trkpt lat="43.77371022465673" lon="10.975069625997973"><ele>275.0</ele><time>2026-05-01T10:00:27.001Z</time></trkpt><trkpt lat="43.773776934085625" lon="10.975073596347192"><ele>276.3333333333333</ele><time>2026-05-01T10:00:28.001Z</time></trkpt><trkpt lat="43.77384447960774" lon="10.975089796157286"><ele>277.6666666666667</ele><time>2026-05-01T10:00:29.001Z</time></trkpt><trkpt lat="43.77392032424697" lon="10.97511746014307"><ele>279.0</ele><time>2026-05-01T10:00:30.001Z</time></trkpt><trkpt lat="43.77401789648164" lon="10.975153325843895"><ele>279.0</ele><time>2026-05-01T10:00:31.001Z</time></trkpt><trkpt lat="43.774117123033214" lon="10.97519034172492"><ele>279.0</ele><time>2026-05-01T10:00:32.001Z</time></trkpt><trkpt lat="43.774215174376174" lon="10.975228410634173"><ele>279.0</ele><time>2026-05-01T10:00:33.001Z</time></trkpt><trkpt lat="43.774309242094375" lon="10.975244389722777"><ele>279.0</ele><time>2026-05-01T10:00:34.001Z</time></trkpt><trkpt lat="43.774388487579536" lon="10.975289271036715"><ele>279.0</ele><time>2026-05-01T10:00:35.001Z</time></trkpt><trkpt lat="43.77446564785329" lon="10.9753203396329"><ele>281.2</ele><time>2026-05-01T10:00:36.001Z</time></trkpt><trkpt lat="43.77456261751654" lon="10.975355795704822"><ele>283.4</ele><time>2026-05-01T10:00:37.001Z</time></trkpt><trkpt lat="43.7746581831952" lon="10.975391121318001"><ele>285.6</ele><time>2026-05-01T10:00:38.001Z</time></trkpt><trkpt lat="43.77474681565739" lon="10.97541785050075"><ele>287.8</ele><time>2026-05-01T10:00:39.001Z</time></trkpt><trkpt lat="43.77482412352635" lon="10.975465522945669"><ele>290.0</ele><time>2026-05-01T10:00:40.001Z</time></trkpt><trkpt lat="43.77491158672142" lon="10.97549735009634"><ele>290.0</ele><time>2026-05-01T10:00:41.001Z</time></trkpt><trkpt lat="43.77499650228235" lon="10.975500245132666"><ele>290.0</ele><time>2026-05-01T10:00:42.001Z</time></trkpt><trkpt lat="43.77508000491573" lon="10.975525812799571"><ele>290.0</ele><time>2026-05-01T10:00:43.001Z</time></trkpt><trkpt lat="43.77516296156969" lon="10.975554653261739"><ele>290.0</ele><time>2026-05-01T10:00:44.001Z</time></trkpt><trkpt lat="43.77524695197314" lon="10.975573789060784"><ele>290.0</ele><time>2026-05-01T10:00:45.001Z</time></trkpt><trkpt lat="43.775323432895185" lon="10.975590952964959"><ele>290.0</ele><time>2026-05-01T10:00:46.001Z</time></trkpt><trkpt lat="43.77540149500009" lon="10.975631331303909"><ele>292.0</ele><time>2026-05-01T10:00:47.001Z</time></trkpt><trkpt lat="43.77548591923993" lon="10.975655742166168"><ele>294.0</ele><time>2026-05-01T10:00:48.001Z</time></trkpt><trkpt lat="43.77556958503534" lon="10.975656671731539"><ele>296.0</ele><time>2026-05-01T10:00:49.001Z</time></trkpt><trkpt lat="43.77564510438552" lon="10.975701769785365"><ele>298.0</ele><time>2026-05-01T10:00:50.001Z</time></trkpt><trkpt lat="43.77571433744089" lon="10.975721788186883"><ele>300.0</ele><time>2026-05-01T10:00:51.001Z</time></trkpt><trkpt lat="43.77579481065998" lon="10.975745056633961"><ele>302.0</ele><time>2026-05-01T10:00:52.001Z</time></trkpt><trkpt lat="43.775876638779" lon="10.975768879367884"><ele>302.0</ele><time>2026-05-01T10:00:53.002Z</time></trkpt><trkpt lat="43.77594917906994" lon="10.975790572538335"><ele>302.0</ele><time>2026-05-01T10:00:54.002Z</time></trkpt><trkpt lat="43.776030558581795" lon="10.975810577188412"><ele>302.0</ele><time>2026-05-01T10:00:55.002Z</time></trkpt><trkpt lat="43.77611068506664" lon="10.975839380626896"><ele>302.0</ele><time>2026-05-01T10:00:56.002Z</time></trkpt><trkpt lat="43.77618313638408" lon="10.975861346932476"><ele>302.0</ele><time>2026-05-01T10:00:57.002Z</time></trkpt><trkpt lat="43.776275377839504" lon="10.97586711902867"><ele>302.0</ele><time>2026-05-01T10:00:58.002Z</time></trkpt><trkpt lat="43.77635661127709" lon="10.975901436792409"><ele>303.6666666666667</ele><time>2026-05-01T10:00:59.002Z</time></trkpt><trkpt lat="43.77643288441772" lon="10.975897902752001"><ele>305.33333333333337</ele><time>2026-05-01T10:01:00.002Z</time></trkpt><trkpt lat="43.776512909669314" lon="10.975944579634577"><ele>307.0</ele><time>2026-05-01T10:01:01.002Z</time></trkpt><trkpt lat="43.77658727088925" lon="10.975969242221417"><ele>308.6666666666667</ele><time>2026-05-01T10:01:02.002Z</time></trkpt><trkpt lat="43.77667662576404" lon="10.975981381230406"><ele>310.3333333333333</ele><time>2026-05-01T10:01:03.002Z</time></trkpt><trkpt lat="43.77674300132047" lon="10.976045599026795"><ele>312.0</ele><time>2026-05-01T10:01:04.002Z</time></trkpt><trkpt lat="43.77682252607365" lon="10.976078575281896"><ele>314.0</ele><time>2026-05-01T10:01:05.002Z</time></trkpt><trkpt lat="43.77689321246997" lon="10.97613101165293"><ele>316.0</ele><time>2026-05-01T10:01:06.002Z</time></trkpt><trkpt lat="43.777011648212536" lon="10.976177059704376"><ele>318.0</ele><time>2026-05-01T10:01:08.002Z</time></trkpt><trkpt lat="43.777080320072734" lon="10.9761514659159"><ele>320.0</ele><time>2026-05-01T10:01:09.002Z</time></trkpt><trkpt lat="43.77717478282286" lon="10.976112198350558"><ele>322.0</ele><time>2026-05-01T10:01:10.002Z</time></trkpt><trkpt lat="43.777268086925865" lon="10.976058377537878"><ele>322.0</ele><time>2026-05-01T10:01:11.002Z</time></trkpt><trkpt lat="43.7773591549445" lon="10.97599134462696"><ele>322.0</ele><time>2026-05-01T10:01:12.002Z</time></trkpt><trkpt lat="43.7774554764099" lon="10.975947175454344"><ele>322.0</ele><time>2026-05-01T10:01:13.002Z</time></trkpt><trkpt lat="43.777553230220796" lon="10.975891199618106"><ele>322.0</ele><time>2026-05-01T10:01:14.002Z</time></trkpt><trkpt lat="43.77764749019603" lon="10.975827145902569"><ele>322.0</ele><time>2026-05-01T10:01:15.002Z</time></trkpt><trkpt lat="43.77774503864897" lon="10.975762575328266"><ele>325.20000000000005</ele><time>2026-05-01T10:01:16.002Z</time></trkpt><trkpt lat="43.77784126082064" lon="10.97570812040997"><ele>328.4</ele><time>2026-05-01T10:01:17.002Z</time></trkpt><trkpt lat="43.777921376684105" lon="10.975659890051286"><ele>331.6</ele><time>2026-05-01T10:01:18.002Z</time></trkpt><trkpt lat="43.7780169107135" lon="10.975620976129484"><ele>334.79999999999995</ele><time>2026-05-01T10:01:19.002Z</time></trkpt><trkpt lat="43.77812009654513" lon="10.97556852406623"><ele>338.0</ele><time>2026-05-01T10:01:20.002Z</time></trkpt><trkpt lat="43.778222084784844" lon="10.975523533393696"><ele>338.0</ele><time>2026-05-01T10:01:21.002Z</time></trkpt><trkpt lat="43.77831346773451" lon="10.975485204079916"><ele>338.0</ele><time>2026-05-01T10:01:22.002Z</time></trkpt><trkpt lat="43.778395806403935" lon="10.975451775203494"><ele>338.0</ele><time>2026-05-01T10:01:23.002Z</time></trkpt><trkpt lat="43.77847383957867" lon="10.975413770708956"><ele>338.0</ele><time>2026-05-01T10:01:24.002Z</time></trkpt><trkpt lat="43.778551469096726" lon="10.975376515006243"><ele>338.0</ele><time>2026-05-01T10:01:25.002Z</time></trkpt><trkpt lat="43.77862392331098" lon="10.975333791547259"><ele>338.0</ele><time>2026-05-01T10:01:26.003Z</time></trkpt><trkpt lat="43.77870165691034" lon="10.975301011617002"><ele>338.33333333333337</ele><time>2026-05-01T10:01:27.003Z</time></trkpt><trkpt lat="43.77877064416248" lon="10.975259547652842"><ele>338.6666666666667</ele><time>2026-05-01T10:01:28.003Z</time></trkpt><trkpt lat="43.778840985035266" lon="10.975212474715656"><ele>339.0</ele><time>2026-05-01T10:01:29.003Z</time></trkpt><trkpt lat="43.77891505199761" lon="10.975172994269744"><ele>339.3333333333333</ele><time>2026-05-01T10:01:30.003Z</time></trkpt><trkpt lat="43.77898611504872" lon="10.97511718569122"><ele>339.66666666666663</ele><time>2026-05-01T10:01:31.003Z</time></trkpt><trkpt lat="43.77904503129783" lon="10.975035945869907"><ele>340.0</ele><time>2026-05-01T10:01:32.003Z</time></trkpt><trkpt lat="43.7790896657571" lon="10.974935396116244"><ele>340.0</ele><time>2026-05-01T10:01:33.003Z</time></trkpt><trkpt lat="43.77912923883783" lon="10.974847120255012"><ele>340.0</ele><time>2026-05-01T10:01:34.003Z</time></trkpt><trkpt lat="43.77918396441734" lon="10.974773054596408"><ele>340.0</ele><time>2026-05-01T10:01:35.003Z</time></trkpt><trkpt lat="43.77924302449134" lon="10.974713054072994"><ele>340.0</ele><time>2026-05-01T10:01:36.003Z</time></trkpt><trkpt lat="43.77931640537346" lon="10.974641182641474"><ele>340.0</ele><time>2026-05-01T10:01:37.003Z</time></trkpt><trkpt lat="43.779381169798384" lon="10.9745853188435"><ele>340.0</ele><time>2026-05-01T10:01:38.003Z</time></trkpt><trkpt lat="43.77944743017147" lon="10.974534145960849"><ele>342.0</ele><time>2026-05-01T10:01:39.003Z</time></trkpt><trkpt lat="43.77951289557425" lon="10.974502982472039"><ele>344.0</ele><time>2026-05-01T10:01:40.003Z</time></trkpt><trkpt lat="43.7795883744567" lon="10.97451227247865"><ele>346.0</ele><time>2026-05-01T10:01:41.003Z</time></trkpt><trkpt lat="43.77966474104337" lon="10.974505755495096"><ele>348.0</ele><time>2026-05-01T10:01:42.003Z</time></trkpt><trkpt lat="43.77973560806547" lon="10.974499548840127"><ele>350.0</ele><time>2026-05-01T10:01:43.003Z</time></trkpt><trkpt lat="43.77981664429206" lon="10.974469845374683"><ele>352.0</ele><time>2026-05-01T10:01:44.003Z</time></trkpt><trkpt lat="43.77990812578518" lon="10.974473129423531"><ele>352.0</ele><time>2026-05-01T10:01:45.003Z</time></trkpt><trkpt lat="43.77999019228864" lon="10.974471368598012"><ele>352.0</ele><time>2026-05-01T10:01:46.003Z</time></trkpt><trkpt lat="43.78005707349343" lon="10.974459989500682"><ele>352.0</ele><time>2026-05-01T10:01:47.003Z</time></trkpt><trkpt lat="43.780126235468266" lon="10.974428001129477"><ele>352.0</ele><time>2026-05-01T10:01:48.003Z</time></trkpt><trkpt lat="43.78020042448903" lon="10.974369806023773"><ele>352.0</ele><time>2026-05-01T10:01:49.003Z</time></trkpt><trkpt lat="43.7802691439855" lon="10.974314334048563"><ele>352.0</ele><time>2026-05-01T10:01:50.003Z</time></trkpt><trkpt lat="43.78032744989013" lon="10.97427699438449"><ele>350.40000000000003</ele><time>2026-05-01T10:01:51.003Z</time></trkpt><trkpt lat="43.78042128187317" lon="10.974239043777485"><ele>348.8</ele><time>2026-05-01T10:01:53.003Z</time></trkpt><trkpt lat="43.780487427857416" lon="10.974219821771182"><ele>347.2</ele><time>2026-05-01T10:01:55.999Z</time></trkpt><trkpt lat="43.78061237662231" lon="10.974057992014979"><ele>345.6</ele><time>2026-05-01T10:01:57.999Z</time></trkpt><trkpt lat="43.780681880915154" lon="10.973934838759641"><ele>344.0</ele><time>2026-05-01T10:01:58.999Z</time></trkpt><trkpt lat="43.78076006968478" lon="10.973801539884395"><ele>344.0</ele><time>2026-05-01T10:01:59.999Z</time></trkpt><trkpt lat="43.78085860170287" lon="10.973661063120973"><ele>344.0</ele><time>2026-05-01T10:02:00.999Z</time></trkpt><trkpt lat="43.78096046053561" lon="10.97351891793804"><ele>344.0</ele><time>2026-05-01T10:02:01.999Z</time></trkpt><trkpt lat="43.78104372238997" lon="10.973389933309575"><ele>344.0</ele><time>2026-05-01T10:02:03Z</time></trkpt><trkpt lat="43.781123952163725" lon="10.973285952213946"><ele>343.5</ele><time>2026-05-01T10:02:04Z</time></trkpt><trkpt lat="43.78120010626711" lon="10.973214023818784"><ele>343.0</ele><time>2026-05-01T10:02:05Z</time></trkpt><trkpt lat="43.781281779518665" lon="10.973165805489604"><ele>342.5</ele><time>2026-05-01T10:02:06Z</time></trkpt><trkpt lat="43.781366280331916" lon="10.973143004740434"><ele>342.0</ele><time>2026-05-01T10:02:07Z</time></trkpt><trkpt lat="43.78144605725126" lon="10.973125032236936"><ele>341.5</ele><time>2026-05-01T10:02:08Z</time></trkpt><trkpt lat="43.781525519269266" lon="10.973113655654846"><ele>341.0</ele><time>2026-05-01T10:02:09Z</time></trkpt><trkpt lat="43.781611124273894" lon="10.973105714697844"><ele>341.0</ele><time>2026-05-01T10:02:10Z</time></trkpt><trkpt lat="43.78168853762988" lon="10.973083735725213"><ele>341.0</ele><time>2026-05-01T10:02:11Z</time></trkpt><trkpt lat="43.78176005452937" lon="10.973036164688834"><ele>341.0</ele><time>2026-05-01T10:02:12Z</time></trkpt><trkpt lat="43.781822130101304" lon="10.972977042073955"><ele>341.0</ele><time>2026-05-01T10:02:13Z</time></trkpt><trkpt lat="43.78187912881844" lon="10.972906477082272"><ele>341.0</ele><time>2026-05-01T10:02:14Z</time></trkpt><trkpt lat="43.78192370791891" lon="10.972821038622447"><ele>341.0</ele><time>2026-05-01T10:02:15Z</time></trkpt><trkpt lat="43.78195887809682" lon="10.97271441295142"><ele>342.6</ele><time>2026-05-01T10:02:16Z</time></trkpt><trkpt lat="43.78197918563454" lon="10.972599443832662"><ele>344.20000000000005</ele><time>2026-05-01T10:02:17Z</time></trkpt><trkpt lat="43.781982655175696" lon="10.972473872905255"><ele>345.79999999999995</ele><time>2026-05-01T10:02:18Z</time></trkpt><trkpt lat="43.78196506533412" lon="10.972354879472864"><ele>347.4</ele><time>2026-05-01T10:02:19Z</time></trkpt><trkpt lat="43.78193854591685" lon="10.972225389504995"><ele>349.0</ele><time>2026-05-01T10:02:20Z</time></trkpt><trkpt lat="43.781905710531866" lon="10.972068293129627"><ele>349.0</ele><time>2026-05-01T10:02:21Z</time></trkpt><trkpt lat="43.781858049749175" lon="10.97187905641718"><ele>349.0</ele><time>2026-05-01T10:02:22Z</time></trkpt><trkpt lat="43.78181960976958" lon="10.971714790760691"><ele>349.0</ele><time>2026-05-01T10:02:23Z</time></trkpt><trkpt lat="43.78177554979163" lon="10.971558984350427"><ele>349.0</ele><time>2026-05-01T10:02:24Z</time></trkpt><trkpt lat="43.781720098273254" lon="10.971424134561664"><ele>344.4</ele><time>2026-05-01T10:02:25Z</time></trkpt><trkpt lat="43.78164463047472" lon="10.971321308013383"><ele>339.79999999999995</ele><time>2026-05-01T10:02:26Z</time></trkpt><trkpt lat="43.781552248617054" lon="10.971250411337506"><ele>335.20000000000005</ele><time>2026-05-01T10:02:27Z</time></trkpt><trkpt lat="43.781460491456386" lon="10.971203848626196"><ele>330.6</ele><time>2026-05-01T10:02:28Z</time></trkpt><trkpt lat="43.781383916368895" lon="10.971154411472595"><ele>326.0</ele><time>2026-05-01T10:02:29Z</time></trkpt><trkpt lat="43.781311928466785" lon="10.971085221742552"><ele>326.0</ele><time>2026-05-01T10:02:30.001Z</time></trkpt><trkpt lat="43.78123456609083" lon="10.970961646636475"><ele>326.0</ele><time>2026-05-01T10:02:31.001Z</time></trkpt><trkpt lat="43.78114631252582" lon="10.970816955675224"><ele>326.0</ele><time>2026-05-01T10:02:32.001Z</time></trkpt><trkpt lat="43.78106183006266" lon="10.970660539763657"><ele>326.0</ele><time>2026-05-01T10:02:33.001Z</time></trkpt><trkpt lat="43.78097489287362" lon="10.970512931551218"><ele>322.0</ele><time>2026-05-01T10:02:34.001Z</time></trkpt><trkpt lat="43.78088924059965" lon="10.970368734798608"><ele>318.0</ele><time>2026-05-01T10:02:35.001Z</time></trkpt><trkpt lat="43.780799603614334" lon="10.970245516832973"><ele>314.0</ele><time>2026-05-01T10:02:36.001Z</time></trkpt><trkpt lat="43.78070202540571" lon="10.970164887434679"><ele>310.0</ele><time>2026-05-01T10:02:37.001Z</time></trkpt><trkpt lat="43.780593812113814" lon="10.970113651000196"><ele>310.0</ele><time>2026-05-01T10:02:38.001Z</time></trkpt><trkpt lat="43.78049591796742" lon="10.970072573925806"><ele>310.0</ele><time>2026-05-01T10:02:39.001Z</time></trkpt><trkpt lat="43.780438160921335" lon="10.970028726815508"><ele>310.0</ele><time>2026-05-01T10:02:40.001Z</time></trkpt><trkpt lat="43.78038629277645" lon="10.969961286377558"><ele>310.0</ele><time>2026-05-01T10:02:41.001Z</time></trkpt><trkpt lat="43.780350792807326" lon="10.96987773337487"><ele>310.0</ele><time>2026-05-01T10:02:42.001Z</time></trkpt><trkpt lat="43.78033707586621" lon="10.969775766953006"><ele>310.0</ele><time>2026-05-01T10:02:43.001Z</time></trkpt><trkpt lat="43.780355727384574" lon="10.969671712053094"><ele>311.8</ele><time>2026-05-01T10:02:44.001Z</time></trkpt><trkpt lat="43.78040360900879" lon="10.96957818536427"><ele>313.6</ele><time>2026-05-01T10:02:45.001Z</time></trkpt><trkpt lat="43.78047327113327" lon="10.969515629407056"><ele>315.4</ele><time>2026-05-01T10:02:46.001Z</time></trkpt><trkpt lat="43.78057059442908" lon="10.969452608067353"><ele>317.2</ele><time>2026-05-01T10:02:47.001Z</time></trkpt><trkpt lat="43.7806987880086" lon="10.969385148323179"><ele>319.0</ele><time>2026-05-01T10:02:48.001Z</time></trkpt><trkpt lat="43.78084513862183" lon="10.96930776110785"><ele>319.0</ele><time>2026-05-01T10:02:49.001Z</time></trkpt><trkpt lat="43.78100376262752" lon="10.969215969017174"><ele>319.0</ele><time>2026-05-01T10:02:50.001Z</time></trkpt><trkpt lat="43.78113924633336" lon="10.969140126195407"><ele>319.0</ele><time>2026-05-01T10:02:51.001Z</time></trkpt><trkpt lat="43.78127024635193" lon="10.96906493573974"><ele>319.5</ele><time>2026-05-01T10:02:52.001Z</time></trkpt><trkpt lat="43.781381413268804" lon="10.96899936763169"><ele>320.0</ele><time>2026-05-01T10:02:53.001Z</time></trkpt><trkpt lat="43.78146687190571" lon="10.968940864016876"><ele>320.5</ele><time>2026-05-01T10:02:54.001Z</time></trkpt><trkpt lat="43.781536127973595" lon="10.968855077307845"><ele>321.0</ele><time>2026-05-01T10:02:55.001Z</time></trkpt><trkpt lat="43.781599923001174" lon="10.968671191500572"><ele>321.0</ele><time>2026-05-01T10:02:57.001Z</time></trkpt><trkpt lat="43.78157977780123" lon="10.968564478774518"><ele>321.0</ele><time>2026-05-01T10:02:58.001Z</time></trkpt><trkpt lat="43.78154841694645" lon="10.968477209271953"><ele>321.0</ele><time>2026-05-01T10:02:59.001Z</time></trkpt><trkpt lat="43.78149744506281" lon="10.968403016677902"><ele>321.0</ele><time>2026-05-01T10:03:00.001Z</time></trkpt><trkpt lat="43.781430771669676" lon="10.968333472801957"><ele>321.0</ele><time>2026-05-01T10:03:01.002Z</time></trkpt><trkpt lat="43.78135455954051" lon="10.968283658983795"><ele>321.0</ele><time>2026-05-01T10:03:02.002Z</time></trkpt><trkpt lat="43.7812646898471" lon="10.968225376858967"><ele>319.25</ele><time>2026-05-01T10:03:03.002Z</time></trkpt><trkpt lat="43.7811686654527" lon="10.968161223965065"><ele>317.5</ele><time>2026-05-01T10:03:04.002Z</time></trkpt><trkpt lat="43.781069928425005" lon="10.968083356939001"><ele>315.75</ele><time>2026-05-01T10:03:05.002Z</time></trkpt><trkpt lat="43.78094801722074" lon="10.967980933277563"><ele>314.0</ele><time>2026-05-01T10:03:06.002Z</time></trkpt><trkpt lat="43.780819269693495" lon="10.967858296852667"><ele>311.0</ele><time>2026-05-01T10:03:07.002Z</time></trkpt><trkpt lat="43.780680125262535" lon="10.967726264944698"><ele>308.0</ele><time>2026-05-01T10:03:08.002Z</time></trkpt><trkpt lat="43.78055779984712" lon="10.967609582143337"><ele>305.0</ele><time>2026-05-01T10:03:09.002Z</time></trkpt><trkpt lat="43.78044973397653" lon="10.967474269776968"><ele>305.0</ele><time>2026-05-01T10:03:10.002Z</time></trkpt><trkpt lat="43.78033200094176" lon="10.967380269052049"><ele>305.0</ele><time>2026-05-01T10:03:11.002Z</time></trkpt><trkpt lat="43.78024097554891" lon="10.967285410672686"><ele>305.0</ele><time>2026-05-01T10:03:12.002Z</time></trkpt><trkpt lat="43.7801584898171" lon="10.967198954321857"><ele>305.0</ele><time>2026-05-01T10:03:13.002Z</time></trkpt><trkpt lat="43.780092315034985" lon="10.967117460693045"><ele>305.0</ele><time>2026-05-01T10:03:14.002Z</time></trkpt><trkpt lat="43.78005059404054" lon="10.967025123080573"><ele>305.83333333333337</ele><time>2026-05-01T10:03:15.002Z</time></trkpt><trkpt lat="43.780021393061816" lon="10.96691449189514"><ele>306.6666666666667</ele><time>2026-05-01T10:03:16.002Z</time></trkpt><trkpt lat="43.78001615971223" lon="10.966803279156219"><ele>307.5</ele><time>2026-05-01T10:03:17.002Z</time></trkpt><trkpt lat="43.78003210457953" lon="10.966690294128215"><ele>308.3333333333333</ele><time>2026-05-01T10:03:18.002Z</time></trkpt><trkpt lat="43.780069734583" lon="10.966577323686936"><ele>309.16666666666663</ele><time>2026-05-01T10:03:19.002Z</time></trkpt><trkpt lat="43.78013236260524" lon="10.966451468949357"><ele>310.0</ele><time>2026-05-01T10:03:20.002Z</time></trkpt><trkpt lat="43.78020084559869" lon="10.96632997828343"><ele>310.0</ele><time>2026-05-01T10:03:21.002Z</time></trkpt><trkpt lat="43.78027684179932" lon="10.966198007570076"><ele>310.0</ele><time>2026-05-01T10:03:22.002Z</time></trkpt><trkpt lat="43.78034867545415" lon="10.966073327747374"><ele>310.0</ele><time>2026-05-01T10:03:23.002Z</time></trkpt><trkpt lat="43.78041629184701" lon="10.96595011875499"><ele>310.0</ele><time>2026-05-01T10:03:24.002Z</time></trkpt><trkpt lat="43.78048601535193" lon="10.965838146733947"><ele>308.16666666666663</ele><time>2026-05-01T10:03:25.002Z</time></trkpt><trkpt lat="43.78053639950881" lon="10.96574164369158"><ele>306.3333333333333</ele><time>2026-05-01T10:03:26.002Z</time></trkpt><trkpt lat="43.7805582283036" lon="10.965650662872418"><ele>304.5</ele><time>2026-05-01T10:03:27.002Z</time></trkpt><trkpt lat="43.78054684569527" lon="10.96555101949221"><ele>302.6666666666667</ele><time>2026-05-01T10:03:28.002Z</time></trkpt><trkpt lat="43.780500327545994" lon="10.96546943182532"><ele>300.83333333333337</ele><time>2026-05-01T10:03:29.002Z</time></trkpt><trkpt lat="43.78042810823763" lon="10.96542146567362"><ele>299.0</ele><time>2026-05-01T10:03:30.002Z</time></trkpt><trkpt lat="43.7803336450332" lon="10.965403172344"><ele>299.0</ele><time>2026-05-01T10:03:31.002Z</time></trkpt><trkpt lat="43.78021506024098" lon="10.965416277921229"><ele>299.0</ele><time>2026-05-01T10:03:32.002Z</time></trkpt><trkpt lat="43.78008539372497" lon="10.96543743907172"><ele>299.0</ele><time>2026-05-01T10:03:33.002Z</time></trkpt><trkpt lat="43.77996440907583" lon="10.965446190360089"><ele>299.0</ele><time>2026-05-01T10:03:34.003Z</time></trkpt><trkpt lat="43.77986950828818" lon="10.965446674112039"><ele>294.8</ele><time>2026-05-01T10:03:35.003Z</time></trkpt><trkpt lat="43.77979107490234" lon="10.965411257825643"><ele>290.59999999999997</ele><time>2026-05-01T10:03:36.003Z</time></trkpt><trkpt lat="43.77971714848502" lon="10.965365631712992"><ele>286.4</ele><time>2026-05-01T10:03:37.003Z</time></trkpt><trkpt lat="43.779630639812765" lon="10.96528856316129"><ele>282.2</ele><time>2026-05-01T10:03:38.003Z</time></trkpt><trkpt lat="43.77956067880114" lon="10.965182297986901"><ele>278.0</ele><time>2026-05-01T10:03:39.003Z</time></trkpt><trkpt lat="43.77951792069408" lon="10.965067069296191"><ele>278.75</ele><time>2026-05-01T10:03:40.003Z</time></trkpt><trkpt lat="43.779492732081124" lon="10.964932705730886"><ele>279.5</ele><time>2026-05-01T10:03:41.003Z</time></trkpt><trkpt lat="43.779471620366664" lon="10.964761075625331"><ele>280.25</ele><time>2026-05-01T10:03:42.003Z</time></trkpt><trkpt lat="43.77944768186545" lon="10.964551760991057"><ele>281.0</ele><time>2026-05-01T10:03:43.003Z</time></trkpt><trkpt lat="43.77942466152284" lon="10.964355824243619"><ele>279.33333333333337</ele><time>2026-05-01T10:03:44.003Z</time></trkpt><trkpt lat="43.77940286338502" lon="10.964186330133453"><ele>277.6666666666667</ele><time>2026-05-01T10:03:45.003Z</time></trkpt><trkpt lat="43.77938865465223" lon="10.96405253652708"><ele>276.0</ele><time>2026-05-01T10:03:46.003Z</time></trkpt><trkpt lat="43.779374853603926" lon="10.963942105658074"><ele>274.3333333333333</ele><time>2026-05-01T10:03:47.003Z</time></trkpt><trkpt lat="43.7793658036799" lon="10.963845625538587"><ele>272.66666666666663</ele><time>2026-05-01T10:03:48.003Z</time></trkpt><trkpt lat="43.77937309104699" lon="10.963752374293648"><ele>271.0</ele><time>2026-05-01T10:03:49.003Z</time></trkpt><trkpt lat="43.77940432812037" lon="10.963665901609875"><ele>271.0</ele><time>2026-05-01T10:03:50.003Z</time></trkpt><trkpt lat="43.77945545699066" lon="10.96359359755891"><ele>271.0</ele><time>2026-05-01T10:03:51.003Z</time></trkpt><trkpt lat="43.779518306953946" lon="10.963546056048306"><ele>271.0</ele><time>2026-05-01T10:03:52.003Z</time></trkpt><trkpt lat="43.779594648904684" lon="10.963524905275817"><ele>271.0</ele><time>2026-05-01T10:03:53.003Z</time></trkpt><trkpt lat="43.77967363955816" lon="10.963541320717303"><ele>271.0</ele><time>2026-05-01T10:03:54.003Z</time></trkpt><trkpt lat="43.77974117414228" lon="10.963594504084039"><ele>271.0</ele><time>2026-05-01T10:03:55.003Z</time></trkpt><trkpt lat="43.77979833036125" lon="10.963656392168993"><ele>271.0</ele><time>2026-05-01T10:03:56.003Z</time></trkpt><trkpt lat="43.77985294008879" lon="10.96371507896651"><ele>271.0</ele><time>2026-05-01T10:03:57.003Z</time></trkpt><trkpt lat="43.7799075787183" lon="10.963773126036944"><ele>271.0</ele><time>2026-05-01T10:03:58.003Z</time></trkpt><trkpt lat="43.77996687553283" lon="10.963825002441965"><ele>271.0</ele><time>2026-05-01T10:03:59.003Z</time></trkpt><trkpt lat="43.78002609982434" lon="10.963874514716242"><ele>271.0</ele><time>2026-05-01T10:04:00.003Z</time></trkpt><trkpt lat="43.78008773780549" lon="10.963907834880683"><ele>271.0</ele><time>2026-05-01T10:04:00.999Z</time></trkpt><trkpt lat="43.78015401934457" lon="10.963908333377786"><ele>271.0</ele><time>2026-05-01T10:04:01.999Z</time></trkpt><trkpt lat="43.78021590267572" lon="10.963891402854468"><ele>270.8</ele><time>2026-05-01T10:04:02.999Z</time></trkpt><trkpt lat="43.780257207026644" lon="10.963783760472955"><ele>270.6</ele><time>2026-05-01T10:04:03.999Z</time></trkpt><trkpt lat="43.78027800528245" lon="10.963669093817389"><ele>270.4</ele><time>2026-05-01T10:04:04.999Z</time></trkpt><trkpt lat="43.780274370007135" lon="10.963531745236217"><ele>270.2</ele><time>2026-05-01T10:04:05.999Z</time></trkpt><trkpt lat="43.78026621316717" lon="10.963391129947814"><ele>270.0</ele><time>2026-05-01T10:04:06.999Z</time></trkpt><trkpt lat="43.78027915274397" lon="10.96326734578702"><ele>270.0</ele><time>2026-05-01T10:04:07.999Z</time></trkpt><trkpt lat="43.780322555057325" lon="10.963110094380314"><ele>270.0</ele><time>2026-05-01T10:04:08.999Z</time></trkpt><trkpt lat="43.780379700975345" lon="10.962950025857905"><ele>270.0</ele><time>2026-05-01T10:04:09.999Z</time></trkpt><trkpt lat="43.78042420931866" lon="10.962805411410482"><ele>270.0</ele><time>2026-05-01T10:04:10.999Z</time></trkpt><trkpt lat="43.7804417662764" lon="10.962650420849872"><ele>267.0</ele><time>2026-05-01T10:04:12Z</time></trkpt><trkpt lat="43.78042422208605" lon="10.96248063292416"><ele>264.0</ele><time>2026-05-01T10:04:13Z</time></trkpt><trkpt lat="43.78038845372809" lon="10.962280682057708"><ele>261.0</ele><time>2026-05-01T10:04:14Z</time></trkpt><trkpt lat="43.780355980507316" lon="10.962109383392868"><ele>258.0</ele><time>2026-05-01T10:04:15Z</time></trkpt><trkpt lat="43.78034093457173" lon="10.961953046224085"><ele>258.0</ele><time>2026-05-01T10:04:16Z</time></trkpt><trkpt lat="43.780340929658976" lon="10.961793106090925"><ele>258.0</ele><time>2026-05-01T10:04:17Z</time></trkpt><trkpt lat="43.78035538866143" lon="10.961640452636432"><ele>258.0</ele><time>2026-05-01T10:04:18Z</time></trkpt><trkpt lat="43.78037764127588" lon="10.961500606234331"><ele>258.0</ele><time>2026-05-01T10:04:19Z</time></trkpt><trkpt lat="43.78041486394768" lon="10.961368440228911"><ele>258.0</ele><time>2026-05-01T10:04:20Z</time></trkpt><trkpt lat="43.78047284921946" lon="10.961252659611585"><ele>256.5</ele><time>2026-05-01T10:04:21Z</time></trkpt><trkpt lat="43.780535885373595" lon="10.961140932448334"><ele>255.0</ele><time>2026-05-01T10:04:22Z</time></trkpt><trkpt lat="43.78058531829077" lon="10.961035860360672"><ele>253.5</ele><time>2026-05-01T10:04:23Z</time></trkpt><trkpt lat="43.78061820365696" lon="10.96094472929604"><ele>252.0</ele><time>2026-05-01T10:04:24Z</time></trkpt><trkpt lat="43.78064430709908" lon="10.960852700566598"><ele>250.5</ele><time>2026-05-01T10:04:25Z</time></trkpt><trkpt lat="43.78064745489096" lon="10.960745820465771"><ele>249.0</ele><time>2026-05-01T10:04:26Z</time></trkpt><trkpt lat="43.78063286458724" lon="10.960637191144283"><ele>246.6</ele><time>2026-05-01T10:04:27Z</time></trkpt><trkpt lat="43.780605550917336" lon="10.960532481749974"><ele>244.2</ele><time>2026-05-01T10:04:28Z</time></trkpt><trkpt lat="43.78056020748901" lon="10.96042361944969"><ele>241.79999999999998</ele><time>2026-05-01T10:04:29Z</time></trkpt><trkpt lat="43.78049031165232" lon="10.96031525179037"><ele>239.39999999999998</ele><time>2026-05-01T10:04:30Z</time></trkpt><trkpt lat="43.78040250140236" lon="10.960212658168738"><ele>237.0</ele><time>2026-05-01T10:04:31Z</time></trkpt><trkpt lat="43.78030318507982" lon="10.960100614556032"><ele>235.5</ele><time>2026-05-01T10:04:32Z</time></trkpt><trkpt lat="43.78020792450984" lon="10.959986711004001"><ele>234.0</ele><time>2026-05-01T10:04:33Z</time></trkpt><trkpt lat="43.780117971516574" lon="10.959874499129352"><ele>232.5</ele><time>2026-05-01T10:04:34Z</time></trkpt><trkpt lat="43.78002997694254" lon="10.959762659356505"><ele>231.0</ele><time>2026-05-01T10:04:35Z</time></trkpt><trkpt lat="43.779940871663236" lon="10.959652673115556"><ele>231.0</ele><time>2026-05-01T10:04:36Z</time></trkpt><trkpt lat="43.77984745132324" lon="10.959531762045357"><ele>231.0</ele><time>2026-05-01T10:04:37Z</time></trkpt><trkpt lat="43.779754801366614" lon="10.95942775140573"><ele>231.0</ele><time>2026-05-01T10:04:38.001Z</time></trkpt><trkpt lat="43.77965699245513" lon="10.959347010322979"><ele>231.0</ele><time>2026-05-01T10:04:39.001Z</time></trkpt><trkpt lat="43.77954873944364" lon="10.959290215915392"><ele>231.0</ele><time>2026-05-01T10:04:40.001Z</time></trkpt><trkpt lat="43.77942376473314" lon="10.959253091555059"><ele>231.0</ele><time>2026-05-01T10:04:41.001Z</time></trkpt><trkpt lat="43.7792959399657" lon="10.959240726150945"><ele>231.0</ele><time>2026-05-01T10:04:42.001Z</time></trkpt><trkpt lat="43.7791611859335" lon="10.959238055480522"><ele>231.0</ele><time>2026-05-01T10:04:43.001Z</time></trkpt><trkpt lat="43.77901145730423" lon="10.959233958442475"><ele>228.0</ele><time>2026-05-01T10:04:44.001Z</time></trkpt><trkpt lat="43.77885130356836" lon="10.95922549995141"><ele>225.0</ele><time>2026-05-01T10:04:45.001Z</time></trkpt><trkpt lat="43.7786954458214" lon="10.959224791493888"><ele>222.0</ele><time>2026-05-01T10:04:46.001Z</time></trkpt><trkpt lat="43.778551258964654" lon="10.959226969009235"><ele>222.0</ele><time>2026-05-01T10:04:47.001Z</time></trkpt><trkpt lat="43.77841893454922" lon="10.95921901734353"><ele>222.0</ele><time>2026-05-01T10:04:48.001Z</time></trkpt><trkpt lat="43.77829790627559" lon="10.95920042037037"><ele>222.0</ele><time>2026-05-01T10:04:49.001Z</time></trkpt><trkpt lat="43.778179613412036" lon="10.959164568728678"><ele>222.0</ele><time>2026-05-01T10:04:50.001Z</time></trkpt><trkpt lat="43.77807520229669" lon="10.959107801417497"><ele>222.0</ele><time>2026-05-01T10:04:51.001Z</time></trkpt><trkpt lat="43.777971034734" lon="10.959044270130457"><ele>222.0</ele><time>2026-05-01T10:04:52.001Z</time></trkpt><trkpt lat="43.77786917039892" lon="10.95898234856728"><ele>222.0</ele><time>2026-05-01T10:04:53.001Z</time></trkpt><trkpt lat="43.777766979758205" lon="10.958953222569985"><ele>222.0</ele><time>2026-05-01T10:04:54.001Z</time></trkpt><trkpt lat="43.77767443013302" lon="10.958973404751925"><ele>222.0</ele><time>2026-05-01T10:04:55.001Z</time></trkpt><trkpt lat="43.77758984709141" lon="10.959036728326014"><ele>220.8</ele><time>2026-05-01T10:04:56.001Z</time></trkpt><trkpt lat="43.77751837798343" lon="10.959130693878317"><ele>219.6</ele><time>2026-05-01T10:04:57.001Z</time></trkpt><trkpt lat="43.777462578132024" lon="10.959242259632155"><ele>218.40000000000003</ele><time>2026-05-01T10:04:58.001Z</time></trkpt><trkpt lat="43.777402616186414" lon="10.959321215197283"><ele>217.20000000000002</ele><time>2026-05-01T10:04:59.001Z</time></trkpt><trkpt lat="43.77731914701182" lon="10.959369432043491"><ele>216.0</ele><time>2026-05-01T10:05:00.001Z</time></trkpt><trkpt lat="43.77722969264146" lon="10.959382904076982"><ele>216.0</ele><time>2026-05-01T10:05:01.001Z</time></trkpt><trkpt lat="43.7771457041824" lon="10.959344042089628"><ele>216.0</ele><time>2026-05-01T10:05:02.001Z</time></trkpt><trkpt lat="43.77706903029607" lon="10.959272284413105"><ele>216.0</ele><time>2026-05-01T10:05:03.001Z</time></trkpt><trkpt lat="43.77701969116687" lon="10.959169500129446"><ele>216.0</ele><time>2026-05-01T10:05:04.001Z</time></trkpt><trkpt lat="43.77699182267145" lon="10.959062506441873"><ele>216.0</ele><time>2026-05-01T10:05:05.001Z</time></trkpt><trkpt lat="43.77699504956858" lon="10.958948986662913"><ele>216.0</ele><time>2026-05-01T10:05:06.001Z</time></trkpt><trkpt lat="43.77702323639071" lon="10.958828877243151"><ele>216.0</ele><time>2026-05-01T10:05:07.001Z</time></trkpt><trkpt lat="43.77708143567926" lon="10.958688613750775"><ele>216.0</ele><time>2026-05-01T10:05:08.001Z</time></trkpt><trkpt lat="43.77715705170985" lon="10.958535058028462"><ele>216.0</ele><time>2026-05-01T10:05:09.002Z</time></trkpt><trkpt lat="43.777219903501425" lon="10.958397936337033"><ele>216.0</ele><time>2026-05-01T10:05:10.002Z</time></trkpt><trkpt lat="43.777279122825455" lon="10.958261426967505"><ele>215.4</ele><time>2026-05-01T10:05:11.002Z</time></trkpt><trkpt lat="43.77734220963439" lon="10.958137241960891"><ele>214.8</ele><time>2026-05-01T10:05:12.002Z</time></trkpt><trkpt lat="43.77740041140945" lon="10.958019831772683"><ele>214.20000000000002</ele><time>2026-05-01T10:05:13.002Z</time></trkpt><trkpt lat="43.77745871088425" lon="10.957909872020238"><ele>213.60000000000002</ele><time>2026-05-01T10:05:14.002Z</time></trkpt><trkpt lat="43.777534421192826" lon="10.957794857561424"><ele>213.0</ele><time>2026-05-01T10:05:15.002Z</time></trkpt><trkpt lat="43.77763354777378" lon="10.957686635196318"><ele>214.0</ele><time>2026-05-01T10:05:16.002Z</time></trkpt><trkpt lat="43.7777372150222" lon="10.957609646440112"><ele>215.0</ele><time>2026-05-01T10:05:17.002Z</time></trkpt><trkpt lat="43.777840071919826" lon="10.957556389290277"><ele>216.0</ele><time>2026-05-01T10:05:18.002Z</time></trkpt><trkpt lat="43.777945042197025" lon="10.957513892702691"><ele>217.0</ele><time>2026-05-01T10:05:19.002Z</time></trkpt><trkpt lat="43.77806675579557" lon="10.957462111816707"><ele>213.5</ele><time>2026-05-01T10:05:20.002Z</time></trkpt><trkpt lat="43.778197665372105" lon="10.957419272300177"><ele>210.0</ele><time>2026-05-01T10:05:21.002Z</time></trkpt><trkpt lat="43.7783279126138" lon="10.957394418676438"><ele>206.5</ele><time>2026-05-01T10:05:22.002Z</time></trkpt><trkpt lat="43.77845427518674" lon="10.957373332669171"><ele>203.0</ele><time>2026-05-01T10:05:23.002Z</time></trkpt><trkpt lat="43.778574972028736" lon="10.957351614133389"><ele>202.25</ele><time>2026-05-01T10:05:24.002Z</time></trkpt><trkpt lat="43.7786943240289" lon="10.95732712103667"><ele>201.5</ele><time>2026-05-01T10:05:25.002Z</time></trkpt><trkpt lat="43.77881398198354" lon="10.957301571853279"><ele>200.75</ele><time>2026-05-01T10:05:26.002Z</time></trkpt><trkpt lat="43.77893580043432" lon="10.957274799275055"><ele>200.0</ele><time>2026-05-01T10:05:27.002Z</time></trkpt><trkpt lat="43.779063300435496" lon="10.957268645338601"><ele>200.0</ele><time>2026-05-01T10:05:28.002Z</time></trkpt><trkpt lat="43.7791846646383" lon="10.957227413161291"><ele>200.0</ele><time>2026-05-01T10:05:29.002Z</time></trkpt><trkpt lat="43.779295782266516" lon="10.957220546309099"><ele>200.0</ele><time>2026-05-01T10:05:30.002Z</time></trkpt><trkpt lat="43.77940065922104" lon="10.95722167678821"><ele>200.0</ele><time>2026-05-01T10:05:31.002Z</time></trkpt><trkpt lat="43.77951448526159" lon="10.957227108306627"><ele>199.0</ele><time>2026-05-01T10:05:32.002Z</time></trkpt><trkpt lat="43.77963137158705" lon="10.95729198426035"><ele>198.0</ele><time>2026-05-01T10:05:33.002Z</time></trkpt><trkpt lat="43.77978132525393" lon="10.957369059255011"><ele>197.0</ele><time>2026-05-01T10:05:34.002Z</time></trkpt><trkpt lat="43.779844669626826" lon="10.957406890599966"><ele>196.0</ele><time>2026-05-01T10:05:35.002Z</time></trkpt><trkpt lat="43.77996359177358" lon="10.957475761509155"><ele>196.0</ele><time>2026-05-01T10:05:36.002Z</time></trkpt><trkpt lat="43.78006258933875" lon="10.957535127868573"><ele>196.0</ele><time>2026-05-01T10:05:37.002Z</time></trkpt><trkpt lat="43.780140933205885" lon="10.957564087713331"><ele>196.0</ele><time>2026-05-01T10:05:38.002Z</time></trkpt><trkpt lat="43.78025003956135" lon="10.957517197337785"><ele>196.0</ele><time>2026-05-01T10:05:40.002Z</time></trkpt><trkpt lat="43.78027790163639" lon="10.957430000651474"><ele>196.0</ele><time>2026-05-01T10:05:41.002Z</time></trkpt><trkpt lat="43.78028475995955" lon="10.957315532611643"><ele>196.66666666666666</ele><time>2026-05-01T10:05:42.003Z</time></trkpt><trkpt lat="43.78026804706091" lon="10.957178164545098"><ele>197.33333333333331</ele><time>2026-05-01T10:05:43.003Z</time></trkpt><trkpt lat="43.78025775463615" lon="10.957069519780772"><ele>198.0</ele><time>2026-05-01T10:05:44.003Z</time></trkpt><trkpt lat="43.780267800718946" lon="10.956975367083052"><ele>198.66666666666669</ele><time>2026-05-01T10:05:45.003Z</time></trkpt><trkpt lat="43.78030045973638" lon="10.956891466950848"><ele>199.33333333333334</ele><time>2026-05-01T10:05:46.003Z</time></trkpt><trkpt lat="43.78038058416019" lon="10.95688253675901"><ele>200.0</ele><time>2026-05-01T10:05:47.003Z</time></trkpt><trkpt lat="43.78044386449228" lon="10.956855500231189"><ele>200.0</ele><time>2026-05-01T10:05:48.003Z</time></trkpt><trkpt lat="43.78051219739884" lon="10.956811642690832"><ele>200.0</ele><time>2026-05-01T10:05:49.003Z</time></trkpt><trkpt lat="43.780581122513134" lon="10.956946656753544"><ele>200.0</ele><time>2026-05-01T10:05:50.003Z</time></trkpt><trkpt lat="43.78069326727907" lon="10.957012678388708"><ele>200.0</ele><time>2026-05-01T10:05:51.003Z</time></trkpt><trkpt lat="43.78079927564912" lon="10.957056356181992"><ele>200.0</ele><time>2026-05-01T10:05:52.003Z</time></trkpt><trkpt lat="43.780898044226205" lon="10.957099607787354"><ele>200.0</ele><time>2026-05-01T10:05:53.003Z</time></trkpt><trkpt lat="43.781009591695174" lon="10.957151602331214"><ele>200.0</ele><time>2026-05-01T10:05:54.003Z</time></trkpt><trkpt lat="43.78110136695649" lon="10.957217655758686"><ele>200.0</ele><time>2026-05-01T10:05:55.003Z</time></trkpt><trkpt lat="43.78118855023195" lon="10.957291350748871"><ele>200.0</ele><time>2026-05-01T10:05:56.003Z</time></trkpt><trkpt lat="43.7812320196977" lon="10.957413996881252"><ele>200.0</ele><time>2026-05-01T10:05:57.003Z</time></trkpt><trkpt lat="43.781323421935646" lon="10.95749145666715"><ele>198.00000000000003</ele><time>2026-05-01T10:05:59.003Z</time></trkpt><trkpt lat="43.78139965897984" lon="10.957463585432437"><ele>196.0</ele><time>2026-05-01T10:06:00.003Z</time></trkpt><trkpt lat="43.78148499720264" lon="10.957401518578985"><ele>194.0</ele><time>2026-05-01T10:06:01.003Z</time></trkpt><trkpt lat="43.78157407467235" lon="10.957336119447403"><ele>192.0</ele><time>2026-05-01T10:06:02.003Z</time></trkpt><trkpt lat="43.78164161319364" lon="10.957270441886095"><ele>190.0</ele><time>2026-05-01T10:06:03.003Z</time></trkpt><trkpt lat="43.781681254115334" lon="10.957195869441692"><ele>188.0</ele><time>2026-05-01T10:06:04.003Z</time></trkpt><trkpt lat="43.781696650019704" lon="10.957021195534235"><ele>188.0</ele><time>2026-05-01T10:06:06.003Z</time></trkpt><trkpt lat="43.78162397664274" lon="10.956933035913645"><ele>188.0</ele><time>2026-05-01T10:06:06.999Z</time></trkpt><trkpt lat="43.78154191874785" lon="10.956836951694923"><ele>188.0</ele><time>2026-05-01T10:06:07.999Z</time></trkpt><trkpt lat="43.781440140426085" lon="10.956732418995847"><ele>188.0</ele><time>2026-05-01T10:06:08.999Z</time></trkpt><trkpt lat="43.78134097141423" lon="10.956624943819927"><ele>188.2</ele><time>2026-05-01T10:06:09.999Z</time></trkpt><trkpt lat="43.78125535602929" lon="10.956523389270721"><ele>188.4</ele><time>2026-05-01T10:06:10.999Z</time></trkpt><trkpt lat="43.7811792866189" lon="10.956435219461534"><ele>188.6</ele><time>2026-05-01T10:06:11.999Z</time></trkpt><trkpt lat="43.78109758610896" lon="10.956339485010702"><ele>188.79999999999998</ele><time>2026-05-01T10:06:12.999Z</time></trkpt><trkpt lat="43.78103286916183" lon="10.956253093117965"><ele>189.0</ele><time>2026-05-01T10:06:13.999Z</time></trkpt><trkpt lat="43.781002252923905" lon="10.95614792632846"><ele>188.79999999999998</ele><time>2026-05-01T10:06:14.999Z</time></trkpt><trkpt lat="43.780939426036134" lon="10.956061059242126"><ele>188.6</ele><time>2026-05-01T10:06:15.999Z</time></trkpt><trkpt lat="43.780850938966104" lon="10.955987079821499"><ele>188.4</ele><time>2026-05-01T10:06:16.999Z</time></trkpt><trkpt lat="43.78078641701693" lon="10.955884232825696"><ele>188.2</ele><time>2026-05-01T10:06:18Z</time></trkpt><trkpt lat="43.78073291983378" lon="10.955782047494464"><ele>188.0</ele><time>2026-05-01T10:06:19Z</time></trkpt><trkpt lat="43.78068921749465" lon="10.95568375717392"><ele>188.0</ele><time>2026-05-01T10:06:20Z</time></trkpt><trkpt lat="43.78066034134163" lon="10.95560479574926"><ele>188.0</ele><time>2026-05-01T10:06:21Z</time></trkpt><trkpt lat="43.780635169853376" lon="10.95547913340273"><ele>188.0</ele><time>2026-05-01T10:06:23Z</time></trkpt><trkpt lat="43.780587536050525" lon="10.955360352136346"><ele>188.0</ele><time>2026-05-01T10:06:25Z</time></trkpt><trkpt lat="43.780467476168155" lon="10.955339554158286"><ele>188.0</ele><time>2026-05-01T10:06:27Z</time></trkpt><trkpt lat="43.78039253717599" lon="10.95533687847343"><ele>188.0</ele><time>2026-05-01T10:06:28Z</time></trkpt><trkpt lat="43.78030984973796" lon="10.955325287350334"><ele>188.0</ele><time>2026-05-01T10:06:29Z</time></trkpt><trkpt lat="43.78022754094455" lon="10.955315019831747"><ele>188.0</ele><time>2026-05-01T10:06:30Z</time></trkpt><trkpt lat="43.78013953659842" lon="10.955298395073973"><ele>188.0</ele><time>2026-05-01T10:06:31Z</time></trkpt><trkpt lat="43.780047702991375" lon="10.955287654645316"><ele>188.0</ele><time>2026-05-01T10:06:32Z</time></trkpt><trkpt lat="43.77995430555473" lon="10.955270055390931"><ele>188.0</ele><time>2026-05-01T10:06:33Z</time></trkpt><trkpt lat="43.77986028664394" lon="10.955254102732162"><ele>185.8</ele><time>2026-05-01T10:06:34Z</time></trkpt><trkpt lat="43.77975173081794" lon="10.955237974841898"><ele>183.60000000000002</ele><time>2026-05-01T10:06:35Z</time></trkpt><trkpt lat="43.779644005870566" lon="10.955216212565707"><ele>181.39999999999998</ele><time>2026-05-01T10:06:36Z</time></trkpt><trkpt lat="43.779551214737786" lon="10.955188135898052"><ele>179.2</ele><time>2026-05-01T10:06:37Z</time></trkpt><trkpt lat="43.77945603497231" lon="10.955154537151637"><ele>177.0</ele><time>2026-05-01T10:06:38Z</time></trkpt><trkpt lat="43.77936615666124" lon="10.955134736613251"><ele>175.6</ele><time>2026-05-01T10:06:39Z</time></trkpt><trkpt lat="43.77927206730608" lon="10.955100669738215"><ele>174.2</ele><time>2026-05-01T10:06:40.001Z</time></trkpt><trkpt lat="43.779173816619185" lon="10.955067082962183"><ele>172.8</ele><time>2026-05-01T10:06:41.001Z</time></trkpt><trkpt lat="43.77907676683351" lon="10.95503707257676"><ele>171.4</ele><time>2026-05-01T10:06:42.001Z</time></trkpt><trkpt lat="43.77896237253545" lon="10.955003573066065"><ele>170.0</ele><time>2026-05-01T10:06:43.001Z</time></trkpt><trkpt lat="43.77886337639949" lon="10.954963589111319"><ele>172.0</ele><time>2026-05-01T10:06:44.001Z</time></trkpt><trkpt lat="43.778773883012875" lon="10.95492754179636"><ele>174.0</ele><time>2026-05-01T10:06:45.001Z</time></trkpt><trkpt lat="43.7786907442365" lon="10.954895329763389"><ele>176.0</ele><time>2026-05-01T10:06:46.001Z</time></trkpt><trkpt lat="43.77861499334561" lon="10.954870166638853"><ele>178.0</ele><time>2026-05-01T10:06:47.001Z</time></trkpt><trkpt lat="43.778541267160044" lon="10.954841238241317"><ele>180.0</ele><time>2026-05-01T10:06:48.001Z</time></trkpt><trkpt lat="43.77845547404699" lon="10.954817698438376"><ele>182.0</ele><time>2026-05-01T10:06:49.001Z</time></trkpt><trkpt lat="43.77835910751686" lon="10.954792597406987"><ele>182.0</ele><time>2026-05-01T10:06:50.001Z</time></trkpt><trkpt lat="43.77826458767593" lon="10.954763930635874"><ele>182.0</ele><time>2026-05-01T10:06:51.001Z</time></trkpt><trkpt lat="43.7781791317015" lon="10.954726335378945"><ele>182.0</ele><time>2026-05-01T10:06:52.001Z</time></trkpt><trkpt lat="43.778096458582596" lon="10.954676634704674"><ele>182.0</ele><time>2026-05-01T10:06:53.001Z</time></trkpt><trkpt lat="43.77802084981502" lon="10.954607582421959"><ele>182.0</ele><time>2026-05-01T10:06:54.001Z</time></trkpt><trkpt lat="43.77793958891034" lon="10.954493608776488"><ele>182.0</ele><time>2026-05-01T10:06:55.001Z</time></trkpt><trkpt lat="43.77785373632915" lon="10.95436797007508"><ele>182.0</ele><time>2026-05-01T10:06:56.001Z</time></trkpt><trkpt lat="43.777776849887275" lon="10.95426850261332"><ele>182.0</ele><time>2026-05-01T10:06:57.001Z</time></trkpt><trkpt lat="43.777704716062146" lon="10.954165576533436"><ele>182.0</ele><time>2026-05-01T10:06:58.001Z</time></trkpt><trkpt lat="43.77762979385482" lon="10.954085836140305"><ele>182.0</ele><time>2026-05-01T10:06:59.001Z</time></trkpt><trkpt lat="43.77755609646711" lon="10.954027377313384"><ele>183.0</ele><time>2026-05-01T10:07:00.001Z</time></trkpt><trkpt lat="43.77747790608943" lon="10.953960851355582"><ele>184.0</ele><time>2026-05-01T10:07:01.001Z</time></trkpt><trkpt lat="43.77739323005791" lon="10.953894502367353"><ele>185.0</ele><time>2026-05-01T10:07:02.001Z</time></trkpt><trkpt lat="43.77730181604299" lon="10.953827438320307"><ele>186.0</ele><time>2026-05-01T10:07:03.001Z</time></trkpt><trkpt lat="43.77721783457199" lon="10.95375711469264"><ele>187.0</ele><time>2026-05-01T10:07:04.001Z</time></trkpt><trkpt lat="43.777138635522256" lon="10.953685376029876"><ele>187.0</ele><time>2026-05-01T10:07:05.001Z</time></trkpt><trkpt lat="43.77705918174988" lon="10.953622812429717"><ele>187.0</ele><time>2026-05-01T10:07:06.001Z</time></trkpt><trkpt lat="43.776977777169165" lon="10.953557134797235"><ele>187.0</ele><time>2026-05-01T10:07:07.001Z</time></trkpt><trkpt lat="43.776896371564064" lon="10.953502155789128"><ele>187.0</ele><time>2026-05-01T10:07:08.001Z</time></trkpt><trkpt lat="43.7768111344165" lon="10.95343666560521"><ele>187.0</ele><time>2026-05-01T10:07:09.001Z</time></trkpt><trkpt lat="43.77672542195288" lon="10.953373227619846"><ele>186.25</ele><time>2026-05-01T10:07:10.002Z</time></trkpt><trkpt lat="43.77662997274469" lon="10.95331060884938"><ele>185.5</ele><time>2026-05-01T10:07:11.002Z</time></trkpt><trkpt lat="43.776516451516855" lon="10.953237593515764"><ele>184.75</ele><time>2026-05-01T10:07:12.002Z</time></trkpt><trkpt lat="43.776406665280795" lon="10.953160565168163"><ele>184.0</ele><time>2026-05-01T10:07:13.002Z</time></trkpt><trkpt lat="43.77630283684014" lon="10.953090635083795"><ele>184.0</ele><time>2026-05-01T10:07:14.002Z</time></trkpt><trkpt lat="43.776203191132986" lon="10.953029229920672"><ele>184.0</ele><time>2026-05-01T10:07:15.002Z</time></trkpt><trkpt lat="43.776104037632464" lon="10.952967570673039"><ele>184.0</ele><time>2026-05-01T10:07:16.002Z</time></trkpt><trkpt lat="43.776008633986535" lon="10.952898440745654"><ele>184.0</ele><time>2026-05-01T10:07:17.002Z</time></trkpt><trkpt lat="43.77591531707963" lon="10.952832169710593"><ele>184.0</ele><time>2026-05-01T10:07:18.002Z</time></trkpt><trkpt lat="43.77581941792911" lon="10.952781100830999"><ele>182.2</ele><time>2026-05-01T10:07:19.002Z</time></trkpt><trkpt lat="43.77572190104402" lon="10.952744635373834"><ele>180.39999999999998</ele><time>2026-05-01T10:07:20.002Z</time></trkpt><trkpt lat="43.77561877448604" lon="10.952733059620114"><ele>178.6</ele><time>2026-05-01T10:07:21.002Z</time></trkpt><trkpt lat="43.77551525907423" lon="10.952738927931664"><ele>176.8</ele><time>2026-05-01T10:07:22.002Z</time></trkpt><trkpt lat="43.775417062165715" lon="10.952767828006593"><ele>175.0</ele><time>2026-05-01T10:07:23.002Z</time></trkpt><trkpt lat="43.77531112487274" lon="10.952811108609632"><ele>175.0</ele><time>2026-05-01T10:07:24.002Z</time></trkpt><trkpt lat="43.77519887672713" lon="10.952858535370291"><ele>175.0</ele><time>2026-05-01T10:07:25.002Z</time></trkpt><trkpt lat="43.77508342241711" lon="10.952898658132534"><ele>175.0</ele><time>2026-05-01T10:07:26.002Z</time></trkpt><trkpt lat="43.77496860870505" lon="10.952924014344864"><ele>175.0</ele><time>2026-05-01T10:07:27.002Z</time></trkpt><trkpt lat="43.77485529272008" lon="10.952938729172102"><ele>173.0</ele><time>2026-05-01T10:07:28.002Z</time></trkpt><trkpt lat="43.774741617517485" lon="10.952931959626099"><ele>171.0</ele><time>2026-05-01T10:07:29.002Z</time></trkpt><trkpt lat="43.7746297667043" lon="10.952912236807702"><ele>169.0</ele><time>2026-05-01T10:07:30.002Z</time></trkpt><trkpt lat="43.77451911373183" lon="10.95287806537133"><ele>167.0</ele><time>2026-05-01T10:07:31.002Z</time></trkpt><trkpt lat="43.77441249629201" lon="10.952818604962227"><ele>166.75</ele><time>2026-05-01T10:07:32.002Z</time></trkpt><trkpt lat="43.774307626091385" lon="10.952728784197628"><ele>166.5</ele><time>2026-05-01T10:07:33.002Z</time></trkpt><trkpt lat="43.7741904306756" lon="10.952602892014749"><ele>166.25</ele><time>2026-05-01T10:07:34.002Z</time></trkpt><trkpt lat="43.7740803106809" lon="10.952461057073737"><ele>166.0</ele><time>2026-05-01T10:07:35.002Z</time></trkpt><trkpt lat="43.77398872315472" lon="10.9523158267536"><ele>164.0</ele><time>2026-05-01T10:07:36.002Z</time></trkpt><trkpt lat="43.773895615134506" lon="10.952173982540545"><ele>162.0</ele><time>2026-05-01T10:07:37.002Z</time></trkpt><trkpt lat="43.77379831593238" lon="10.952039313962775"><ele>160.0</ele><time>2026-05-01T10:07:38.002Z</time></trkpt><trkpt lat="43.77369577471997" lon="10.951898102928297"><ele>158.0</ele><time>2026-05-01T10:07:39.002Z</time></trkpt><trkpt lat="43.77359138756341" lon="10.951752065187815"><ele>156.0</ele><time>2026-05-01T10:07:40.002Z</time></trkpt><trkpt lat="43.77349006811882" lon="10.951609657024559"><ele>154.0</ele><time>2026-05-01T10:07:41.002Z</time></trkpt><trkpt lat="43.77339387088912" lon="10.95147412647284"><ele>152.0</ele><time>2026-05-01T10:07:42.002Z</time></trkpt><trkpt lat="43.77329250309005" lon="10.951332104853847"><ele>150.0</ele><time>2026-05-01T10:07:43.003Z</time></trkpt><trkpt lat="43.7731925309532" lon="10.95120092396957"><ele>150.0</ele><time>2026-05-01T10:07:44.003Z</time></trkpt><trkpt lat="43.773087793010475" lon="10.951078085936066"><ele>150.0</ele><time>2026-05-01T10:07:45.003Z</time></trkpt><trkpt lat="43.772985121919575" lon="10.95096291034101"><ele>150.0</ele><time>2026-05-01T10:07:46.003Z</time></trkpt><trkpt lat="43.77288407599546" lon="10.950862358036108"><ele>150.0</ele><time>2026-05-01T10:07:47.003Z</time></trkpt><trkpt lat="43.77278223758267" lon="10.95078936765762"><ele>146.66666666666666</ele><time>2026-05-01T10:07:48.003Z</time></trkpt><trkpt lat="43.77266446490826" lon="10.950739428276544"><ele>143.33333333333331</ele><time>2026-05-01T10:07:49.003Z</time></trkpt><trkpt lat="43.77251560205938" lon="10.950698801793227"><ele>140.0</ele><time>2026-05-01T10:07:50.003Z</time></trkpt><trkpt lat="43.77234239151887" lon="10.950648618919203"><ele>140.0</ele><time>2026-05-01T10:07:51.003Z</time></trkpt><trkpt lat="43.772182099030104" lon="10.950609111614094"><ele>140.0</ele><time>2026-05-01T10:07:52.003Z</time></trkpt><trkpt lat="43.77202749642347" lon="10.95057295856721"><ele>140.0</ele><time>2026-05-01T10:07:53.003Z</time></trkpt><trkpt lat="43.77188370234849" lon="10.950539627582085"><ele>138.25</ele><time>2026-05-01T10:07:54.003Z</time></trkpt><trkpt lat="43.77174901099625" lon="10.9505135251621"><ele>136.5</ele><time>2026-05-01T10:07:55.003Z</time></trkpt><trkpt lat="43.77162016751564" lon="10.950501866776332"><ele>134.75</ele><time>2026-05-01T10:07:56.003Z</time></trkpt><trkpt lat="43.77149540048928" lon="10.950507556408775"><ele>133.0</ele><time>2026-05-01T10:07:57.003Z</time></trkpt><trkpt lat="43.77137235660076" lon="10.95055508140811"><ele>133.0</ele><time>2026-05-01T10:07:58.003Z</time></trkpt><trkpt lat="43.77126154536598" lon="10.950637663042981"><ele>133.0</ele><time>2026-05-01T10:07:59.003Z</time></trkpt><trkpt lat="43.77113306819584" lon="10.950756380912324"><ele>133.0</ele><time>2026-05-01T10:08:00.003Z</time></trkpt><trkpt lat="43.77100577473816" lon="10.95086038801826"><ele>133.0</ele><time>2026-05-01T10:08:01.003Z</time></trkpt><trkpt lat="43.77088174211635" lon="10.950924996843481"><ele>128.33333333333334</ele><time>2026-05-01T10:08:02.003Z</time></trkpt><trkpt lat="43.77074851136353" lon="10.950959063607252"><ele>123.66666666666666</ele><time>2026-05-01T10:08:03.003Z</time></trkpt><trkpt lat="43.77059567043531" lon="10.950950285819625"><ele>119.0</ele><time>2026-05-01T10:08:04.003Z</time></trkpt><trkpt lat="43.77042565369731" lon="10.950919953110676"><ele>119.0</ele><time>2026-05-01T10:08:05.003Z</time></trkpt><trkpt lat="43.77026477304099" lon="10.950895563831796"><ele>119.0</ele><time>2026-05-01T10:08:06.003Z</time></trkpt><trkpt lat="43.77011619763987" lon="10.950871639945023"><ele>119.0</ele><time>2026-05-01T10:08:07.003Z</time></trkpt><trkpt lat="43.76997815530705" lon="10.950843953863439"><ele>118.25</ele><time>2026-05-01T10:08:08.003Z</time></trkpt><trkpt lat="43.76984998869814" lon="10.950797274248123"><ele>117.5</ele><time>2026-05-01T10:08:09.003Z</time></trkpt><trkpt lat="43.76972947285544" lon="10.9507146887755"><ele>116.75</ele><time>2026-05-01T10:08:10.003Z</time></trkpt><trkpt lat="43.76960074898837" lon="10.950598929295069"><ele>116.0</ele><time>2026-05-01T10:08:11.003Z</time></trkpt><trkpt lat="43.76947415763522" lon="10.95047240852237"><ele>114.25</ele><time>2026-05-01T10:08:12.003Z</time></trkpt><trkpt lat="43.76935084142148" lon="10.950355682392559"><ele>112.5</ele><time>2026-05-01T10:08:13Z</time></trkpt><trkpt lat="43.769228611441534" lon="10.950243620741931"><ele>110.75</ele><time>2026-05-01T10:08:14Z</time></trkpt><trkpt lat="43.76910814101879" lon="10.950123600269668"><ele>109.0</ele><time>2026-05-01T10:08:15Z</time></trkpt><trkpt lat="43.76899869557255" lon="10.949995231723475"><ele>109.0</ele><time>2026-05-01T10:08:16Z</time></trkpt><trkpt lat="43.768916722558274" lon="10.949865141687358"><ele>109.0</ele><time>2026-05-01T10:08:17Z</time></trkpt><trkpt lat="43.768862219399935" lon="10.949729087380167"><ele>109.0</ele><time>2026-05-01T10:08:18Z</time></trkpt><trkpt lat="43.76884914303628" lon="10.949579237142627"><ele>109.0</ele><time>2026-05-01T10:08:19Z</time></trkpt><trkpt lat="43.76882677231788" lon="10.949451925628509"><ele>109.0</ele><time>2026-05-01T10:08:20Z</time></trkpt><trkpt lat="43.76882260674194" lon="10.949337742506838"><ele>109.0</ele><time>2026-05-01T10:08:21Z</time></trkpt><trkpt lat="43.768800665083546" lon="10.949241350541769"><ele>109.0</ele><time>2026-05-01T10:08:22Z</time></trkpt><trkpt lat="43.76875023789321" lon="10.949170174911657"><ele>109.0</ele><time>2026-05-01T10:08:23Z</time></trkpt><trkpt lat="43.76867865258868" lon="10.949131826807532"><ele>109.0</ele><time>2026-05-01T10:08:24Z</time></trkpt><trkpt lat="43.76860089073315" lon="10.949132904570172"><ele>109.0</ele><time>2026-05-01T10:08:25Z</time></trkpt><trkpt lat="43.768527467450326" lon="10.949172364969204"><ele>109.0</ele><time>2026-05-01T10:08:26Z</time></trkpt><trkpt lat="43.76848002967261" lon="10.949238087058044"><ele>109.0</ele><time>2026-05-01T10:08:27Z</time></trkpt><trkpt lat="43.76845091580667" lon="10.949336826114738"><ele>104.25</ele><time>2026-05-01T10:08:28Z</time></trkpt><trkpt lat="43.76844094342936" lon="10.949464603616322"><ele>99.5</ele><time>2026-05-01T10:08:29Z</time></trkpt><trkpt lat="43.76846526350689" lon="10.949633703754493"><ele>94.75</ele><time>2026-05-01T10:08:30Z</time></trkpt><trkpt lat="43.76849568127203" lon="10.949834805986189"><ele>90.0</ele><time>2026-05-01T10:08:31Z</time></trkpt><trkpt lat="43.76852490749698" lon="10.950015957780613"><ele>89.2</ele><time>2026-05-01T10:08:32Z</time></trkpt><trkpt lat="43.768539023015784" lon="10.95017541657194"><ele>88.4</ele><time>2026-05-01T10:08:33Z</time></trkpt><trkpt lat="43.76853813879561" lon="10.950316115743847"><ele>87.6</ele><time>2026-05-01T10:08:34Z</time></trkpt><trkpt lat="43.768515578311636" lon="10.950439792283511"><ele>86.8</ele><time>2026-05-01T10:08:35Z</time></trkpt><trkpt lat="43.768461339313234" lon="10.950556036105716"><ele>86.0</ele><time>2026-05-01T10:08:36Z</time></trkpt><trkpt lat="43.76837319177031" lon="10.950642000683969"><ele>86.0</ele><time>2026-05-01T10:08:37Z</time></trkpt><trkpt lat="43.768261331953305" lon="10.95067340556697"><ele>86.0</ele><time>2026-05-01T10:08:38Z</time></trkpt><trkpt lat="43.768143290539626" lon="10.950643767654746"><ele>86.0</ele><time>2026-05-01T10:08:39Z</time></trkpt><trkpt lat="43.76801206560129" lon="10.95056787563138"><ele>86.0</ele><time>2026-05-01T10:08:40Z</time></trkpt><trkpt lat="43.76787846924534" lon="10.950456345706865"><ele>86.0</ele><time>2026-05-01T10:08:41Z</time></trkpt><trkpt lat="43.76774461699438" lon="10.95030970484794"><ele>86.0</ele><time>2026-05-01T10:08:42Z</time></trkpt><trkpt lat="43.767618981238485" lon="10.95012905446664"><ele>86.0</ele><time>2026-05-01T10:08:43Z</time></trkpt><trkpt lat="43.767490443072376" lon="10.949917196221856"><ele>87.0</ele><time>2026-05-01T10:08:44.001Z</time></trkpt><trkpt lat="43.767354623318724" lon="10.94969970177321"><ele>88.0</ele><time>2026-05-01T10:08:45.001Z</time></trkpt><trkpt lat="43.76722788510119" lon="10.949514861687131"><ele>89.0</ele><time>2026-05-01T10:08:46.001Z</time></trkpt><trkpt lat="43.767105576533105" lon="10.949357646314986"><ele>90.0</ele><time>2026-05-01T10:08:47.001Z</time></trkpt><trkpt lat="43.766973628688035" lon="10.949208137379168"><ele>91.0</ele><time>2026-05-01T10:08:48.001Z</time></trkpt><trkpt lat="43.766849352708036" lon="10.94906663478158"><ele>92.0</ele><time>2026-05-01T10:08:49.001Z</time></trkpt><trkpt lat="43.7667393511927" lon="10.948951045479076"><ele>92.0</ele><time>2026-05-01T10:08:50.001Z</time></trkpt><trkpt lat="43.76662962631103" lon="10.948847477076987"><ele>92.0</ele><time>2026-05-01T10:08:51.001Z</time></trkpt><trkpt lat="43.76652677801692" lon="10.948761304343819"><ele>92.0</ele><time>2026-05-01T10:08:52.001Z</time></trkpt><trkpt lat="43.766430562922984" lon="10.948681478607885"><ele>92.0</ele><time>2026-05-01T10:08:53.001Z</time></trkpt><trkpt lat="43.76633481305783" lon="10.948599856198049"><ele>92.0</ele><time>2026-05-01T10:08:54.001Z</time></trkpt><trkpt lat="43.76623112744615" lon="10.948518186517735"><ele>92.0</ele><time>2026-05-01T10:08:55.001Z</time></trkpt><trkpt lat="43.76612164174455" lon="10.94843425044845"><ele>92.0</ele><time>2026-05-01T10:08:56.001Z</time></trkpt><trkpt lat="43.76602261539977" lon="10.948353614457252"><ele>92.0</ele><time>2026-05-01T10:08:57.001Z</time></trkpt><trkpt lat="43.765921556415066" lon="10.948284702103127"><ele>92.5</ele><time>2026-05-01T10:08:58.001Z</time></trkpt><trkpt lat="43.765815445357795" lon="10.948226689549807"><ele>93.0</ele><time>2026-05-01T10:08:59.001Z</time></trkpt><trkpt lat="43.765709956124816" lon="10.948180107325884"><ele>93.5</ele><time>2026-05-01T10:09:00.001Z</time></trkpt><trkpt lat="43.76560327009089" lon="10.948131931008227"><ele>94.0</ele><time>2026-05-01T10:09:01.001Z</time></trkpt><trkpt lat="43.765484728122864" lon="10.948071558030792"><ele>94.0</ele><time>2026-05-01T10:09:02.001Z</time></trkpt><trkpt lat="43.76536579406381" lon="10.948015781325942"><ele>94.0</ele><time>2026-05-01T10:09:03.001Z</time></trkpt><trkpt lat="43.76525408686776" lon="10.947966629562773"><ele>94.0</ele><time>2026-05-01T10:09:04.001Z</time></trkpt><trkpt lat="43.76514863049879" lon="10.947921295995855"><ele>94.0</ele><time>2026-05-01T10:09:05.001Z</time></trkpt><trkpt lat="43.765027223861324" lon="10.947864494254887"><ele>94.0</ele><time>2026-05-01T10:09:06.001Z</time></trkpt><trkpt lat="43.764904974419096" lon="10.947808647768074"><ele>94.0</ele><time>2026-05-01T10:09:07.001Z</time></trkpt><trkpt lat="43.76478736080824" lon="10.947759835265783"><ele>94.0</ele><time>2026-05-01T10:09:08.001Z</time></trkpt><trkpt lat="43.76467379409499" lon="10.947709751515378"><ele>94.0</ele><time>2026-05-01T10:09:09.001Z</time></trkpt><trkpt lat="43.76457045179828" lon="10.947661514947256"><ele>94.0</ele><time>2026-05-01T10:09:10.001Z</time></trkpt><trkpt lat="43.764477025003856" lon="10.947615417442538"><ele>94.0</ele><time>2026-05-01T10:09:11.001Z</time></trkpt><trkpt lat="43.76438817441158" lon="10.947569182924424"><ele>94.0</ele><time>2026-05-01T10:09:12.001Z</time></trkpt><trkpt lat="43.7643035158446" lon="10.9475257188102"><ele>94.0</ele><time>2026-05-01T10:09:13.001Z</time></trkpt><trkpt lat="43.76422250005781" lon="10.947486268694657"><ele>94.0</ele><time>2026-05-01T10:09:14.001Z</time></trkpt><trkpt lat="43.76414048665498" lon="10.947451025420687"><ele>93.0</ele><time>2026-05-01T10:09:15.002Z</time></trkpt><trkpt lat="43.76405904655714" lon="10.947410704625192"><ele>92.0</ele><time>2026-05-01T10:09:16.002Z</time></trkpt><trkpt lat="43.763974893059824" lon="10.947371191841786"><ele>91.0</ele><time>2026-05-01T10:09:17.002Z</time></trkpt><trkpt lat="43.763876867129156" lon="10.947323630056616"><ele>90.0</ele><time>2026-05-01T10:09:18.002Z</time></trkpt><trkpt lat="43.76376627205213" lon="10.94727613507229"><ele>89.0</ele><time>2026-05-01T10:09:19.002Z</time></trkpt><trkpt lat="43.76366519699822" lon="10.947233127370598"><ele>89.0</ele><time>2026-05-01T10:09:20.002Z</time></trkpt><trkpt lat="43.76357696821117" lon="10.947198281703491"><ele>89.0</ele><time>2026-05-01T10:09:21.002Z</time></trkpt><trkpt lat="43.76350872635484" lon="10.947165920385117"><ele>89.0</ele><time>2026-05-01T10:09:22.002Z</time></trkpt><trkpt lat="43.76344815233729" lon="10.947097804160093"><ele>89.0</ele><time>2026-05-01T10:09:24.002Z</time></trkpt><trkpt lat="43.76350992005104" lon="10.946961212216044"><ele>89.0</ele><time>2026-05-01T10:09:27.002Z</time></trkpt><trkpt lat="43.76356322119306" lon="10.94688264467328"><ele>89.0</ele><time>2026-05-01T10:09:28.002Z</time></trkpt><trkpt lat="43.763631841720795" lon="10.946768866586039"><ele>87.0</ele><time>2026-05-01T10:09:29.002Z</time></trkpt><trkpt lat="43.76371585963221" lon="10.946634034459347"><ele>85.0</ele><time>2026-05-01T10:09:30.002Z</time></trkpt><trkpt lat="43.76378485125049" lon="10.946506065338092"><ele>83.0</ele><time>2026-05-01T10:09:31.002Z</time></trkpt><trkpt lat="43.7638575464236" lon="10.946389370196478"><ele>81.0</ele><time>2026-05-01T10:09:32.002Z</time></trkpt><trkpt lat="43.76392399418468" lon="10.946256472779417"><ele>81.0</ele><time>2026-05-01T10:09:33.002Z</time></trkpt><trkpt lat="43.76400072133154" lon="10.94610936004389"><ele>81.0</ele><time>2026-05-01T10:09:34.002Z</time></trkpt><trkpt lat="43.76411956731902" lon="10.945896749363635"><ele>81.0</ele><time>2026-05-01T10:09:35.002Z</time></trkpt><trkpt lat="43.76422827976307" lon="10.945689158683534"><ele>77.33333333333333</ele><time>2026-05-01T10:09:36.002Z</time></trkpt><trkpt lat="43.76432828720289" lon="10.945500625573812"><ele>73.66666666666666</ele><time>2026-05-01T10:09:37.002Z</time></trkpt><trkpt lat="43.76442491832659" lon="10.945316865132964"><ele>70.0</ele><time>2026-05-01T10:09:38.002Z</time></trkpt><trkpt lat="43.76452127119419" lon="10.945138569864703"><ele>67.25</ele><time>2026-05-01T10:09:39.002Z</time></trkpt><trkpt lat="43.7646073153281" lon="10.944977748224806"><ele>64.5</ele><time>2026-05-01T10:09:40.002Z</time></trkpt><trkpt lat="43.76468482097768" lon="10.94483186888012"><ele>61.75</ele><time>2026-05-01T10:09:41.002Z</time></trkpt><trkpt lat="43.76475002578884" lon="10.94470194599107"><ele>59.0</ele><time>2026-05-01T10:09:42.002Z</time></trkpt><trkpt lat="43.76480534265297" lon="10.944592329365848"><ele>59.00000000000001</ele><time>2026-05-01T10:09:43.002Z</time></trkpt><trkpt lat="43.764846298481004" lon="10.944505874159795"><ele>59.0</ele><time>2026-05-01T10:09:44.002Z</time></trkpt><trkpt lat="43.76487580963935" lon="10.944364319522974"><ele>59.0</ele><time>2026-05-01T10:09:46.002Z</time></trkpt><trkpt lat="43.76484884973926" lon="10.944239870590367"><ele>59.0</ele><time>2026-05-01T10:09:48.003Z</time></trkpt><trkpt lat="43.76480779853523" lon="10.94411723771405"><ele>59.00000000000001</ele><time>2026-05-01T10:09:50.003Z</time></trkpt><trkpt lat="43.764782134827165" lon="10.944031675538817"><ele>59.0</ele><time>2026-05-01T10:09:51.003Z</time></trkpt><trkpt lat="43.76475176042025" lon="10.943928776946992"><ele>57.333333333333336</ele><time>2026-05-01T10:09:52.003Z</time></trkpt><trkpt lat="43.76472691409782" lon="10.943831097398844"><ele>55.66666666666667</ele><time>2026-05-01T10:09:53.003Z</time></trkpt><trkpt lat="43.76470058639553" lon="10.943728683614472"><ele>54.0</ele><time>2026-05-01T10:09:54.003Z</time></trkpt><trkpt lat="43.76467079229945" lon="10.943613159182227"><ele>52.33333333333333</ele><time>2026-05-01T10:09:55.003Z</time></trkpt><trkpt lat="43.764659118251025" lon="10.943485541740708"><ele>50.666666666666664</ele><time>2026-05-01T10:09:56.003Z</time></trkpt><trkpt lat="43.76464176608865" lon="10.94339624216584"><ele>49.0</ele><time>2026-05-01T10:09:57.003Z</time></trkpt><trkpt lat="43.764635112256954" lon="10.94328319485767"><ele>48.99999999999999</ele><time>2026-05-01T10:10:00.003Z</time></trkpt><trkpt lat="43.764756119049736" lon="10.943304760648653"><ele>49.0</ele><time>2026-05-01T10:10:05.003Z</time></trkpt><trkpt lat="43.76481841209273" lon="10.943344183870877"><ele>49.0</ele><time>2026-05-01T10:10:06.003Z</time></trkpt><trkpt lat="43.764872219365756" lon="10.943399147753368"><ele>49.0</ele><time>2026-05-01T10:10:07.003Z</time></trkpt><trkpt lat="43.764930839283174" lon="10.943477284381181"><ele>48.99999999999999</ele><time>2026-05-01T10:10:08.003Z</time></trkpt><trkpt lat="43.76500765521872" lon="10.943578569224258"><ele>49.0</ele><time>2026-05-01T10:10:09.003Z</time></trkpt><trkpt lat="43.76506958995453" lon="10.943635584204918"><ele>48.99999999999999</ele><time>2026-05-01T10:10:10.003Z</time></trkpt><trkpt lat="43.765148890563495" lon="10.943742743053416"><ele>49.0</ele><time>2026-05-01T10:10:12.003Z</time></trkpt><trkpt lat="43.76520306371992" lon="10.943812754531686"><ele>49.0</ele><time>2026-05-01T10:10:14.003Z</time></trkpt><trkpt lat="43.765267806560885" lon="10.943900776947226"><ele>49.0</ele><time>2026-05-01T10:10:17.003Z</time></trkpt><trkpt lat="43.76532263145299" lon="10.943976616377412"><ele>48.99999999999999</ele><time>2026-05-01T10:10:20Z</time></trkpt><trkpt lat="43.76540203613375" lon="10.94393743520365"><ele>49.0</ele><time>2026-05-01T10:10:22Z</time></trkpt><trkpt lat="43.765472206079046" lon="10.943910929287147"><ele>49.0</ele><time>2026-05-01T10:10:25Z</time></trkpt><trkpt lat="43.76540766224431" lon="10.943919334267639"><ele>49.0</ele><time>2026-05-01T10:10:32Z</time></trkpt><trkpt lat="43.765347044201256" lon="10.94394908080341"><ele>49.0</ele><time>2026-05-01T10:10:34Z</time></trkpt><trkpt lat="43.7652873082527" lon="10.943992393364635"><ele>49.0</ele><time>2026-05-01T10:10:37Z</time></trkpt><trkpt lat="43.76516452320353" lon="10.943765551959094"><ele>49.0</ele><time>2026-05-01T10:10:41Z</time></trkpt><trkpt lat="43.765095610272354" lon="10.943662205560143"><ele>49.0</ele><time>2026-05-01T10:10:43Z</time></trkpt><trkpt lat="43.76504402109272" lon="10.94358279948709"><ele>49.0</ele><time>2026-05-01T10:10:45Z</time></trkpt><trkpt lat="43.76497033449576" lon="10.943504973100676"><ele>49.0</ele><time>2026-05-01T10:10:47Z</time></trkpt><trkpt lat="43.764872788128834" lon="10.943384641934307"><ele>49.0</ele><time>2026-05-01T10:10:49Z</time></trkpt><trkpt lat="43.76482560722293" lon="10.943316514754349"><ele>49.0</ele><time>2026-05-01T10:10:50Z</time></trkpt><trkpt lat="43.7647267800205" lon="10.94325434850777"><ele>48.2</ele><time>2026-05-01T10:10:52.001Z</time></trkpt><trkpt lat="43.76464332144359" lon="10.943256449697488"><ele>47.400000000000006</ele><time>2026-05-01T10:10:54.001Z</time></trkpt><trkpt lat="43.7645924642805" lon="10.943166799724743"><ele>46.6</ele><time>2026-05-01T10:10:58.001Z</time></trkpt><trkpt lat="43.76461484879635" lon="10.943038086524613"><ele>45.8</ele><time>2026-05-01T10:11:00.001Z</time></trkpt><trkpt lat="43.76463223132582" lon="10.94293713571363"><ele>45.0</ele><time>2026-05-01T10:11:24.002Z</time></trkpt><trkpt lat="43.76465920364961" lon="10.942783311541344"><ele>45.0</ele><time>2026-05-01T10:11:26.002Z</time></trkpt><trkpt lat="43.76469316846979" lon="10.942681629860223"><ele>45.0</ele><time>2026-05-01T10:11:27.002Z</time></trkpt><trkpt lat="43.76471989603259" lon="10.942578417250186"><ele>45.0</ele><time>2026-05-01T10:11:28.002Z</time></trkpt><trkpt lat="43.764754501742864" lon="10.942498322289524"><ele>45.0</ele><time>2026-05-01T10:11:29.002Z</time></trkpt><trkpt lat="43.76481495119374" lon="10.94235860249216"><ele>45.0</ele><time>2026-05-01T10:11:31.002Z</time></trkpt><trkpt lat="43.76486695730042" lon="10.94222570164124"><ele>45.2</ele><time>2026-05-01T10:11:33.002Z</time></trkpt><trkpt lat="43.76489700577339" lon="10.942107962398197"><ele>45.4</ele><time>2026-05-01T10:11:34.002Z</time></trkpt><trkpt lat="43.76492866820718" lon="10.941982092431136"><ele>45.599999999999994</ele><time>2026-05-01T10:11:35.002Z</time></trkpt><trkpt lat="43.764952744798" lon="10.941843401179542"><ele>45.8</ele><time>2026-05-01T10:11:36.002Z</time></trkpt><trkpt lat="43.76497649824746" lon="10.94169673493337"><ele>46.0</ele><time>2026-05-01T10:11:37.002Z</time></trkpt><trkpt lat="43.7649943018596" lon="10.941555177189375"><ele>47.8</ele><time>2026-05-01T10:11:38.002Z</time></trkpt><trkpt lat="43.76501428638644" lon="10.941413560297583"><ele>49.599999999999994</ele><time>2026-05-01T10:11:39.002Z</time></trkpt><trkpt lat="43.76503621156906" lon="10.941265468215706"><ele>51.4</ele><time>2026-05-01T10:11:40.002Z</time></trkpt><trkpt lat="43.765055697148185" lon="10.941110370824775"><ele>53.2</ele><time>2026-05-01T10:11:41.002Z</time></trkpt><trkpt lat="43.76508021660698" lon="10.940954950825786"><ele>55.0</ele><time>2026-05-01T10:11:42.002Z</time></trkpt><trkpt lat="43.765103843144" lon="10.940801848577703"><ele>55.83333333333333</ele><time>2026-05-01T10:11:43.002Z</time></trkpt><trkpt lat="43.76512522692692" lon="10.940671638419865"><ele>56.666666666666664</ele><time>2026-05-01T10:11:44.002Z</time></trkpt><trkpt lat="43.76514938703183" lon="10.940559663778004"><ele>57.5</ele><time>2026-05-01T10:11:45.002Z</time></trkpt><trkpt lat="43.765181597550644" lon="10.94044399251803"><ele>58.33333333333333</ele><time>2026-05-01T10:11:46.002Z</time></trkpt><trkpt lat="43.76521361185634" lon="10.940333010650724"><ele>59.166666666666664</ele><time>2026-05-01T10:11:47.002Z</time></trkpt><trkpt lat="43.76524726095284" lon="10.940216602094495"><ele>60.0</ele><time>2026-05-01T10:11:48.002Z</time></trkpt><trkpt lat="43.76527642799622" lon="10.940096849241458"><ele>62.0</ele><time>2026-05-01T10:11:49.002Z</time></trkpt><trkpt lat="43.76530375620999" lon="10.93997660706524"><ele>64.0</ele><time>2026-05-01T10:11:50.002Z</time></trkpt><trkpt lat="43.76533612889484" lon="10.939865489362553"><ele>66.0</ele><time>2026-05-01T10:11:51.002Z</time></trkpt><trkpt lat="43.76536566068487" lon="10.93974687728011"><ele>68.0</ele><time>2026-05-01T10:11:52.002Z</time></trkpt><trkpt lat="43.76539971174821" lon="10.939629772676728"><ele>70.0</ele><time>2026-05-01T10:11:53.002Z</time></trkpt><trkpt lat="43.76543271068698" lon="10.939519407027113"><ele>72.0</ele><time>2026-05-01T10:11:54.002Z</time></trkpt><trkpt lat="43.76545911797605" lon="10.939415570799534"><ele>72.00000000000001</ele><time>2026-05-01T10:11:55.002Z</time></trkpt><trkpt lat="43.76548353201898" lon="10.9393144475904"><ele>72.0</ele><time>2026-05-01T10:11:56.002Z</time></trkpt><trkpt lat="43.76550678167596" lon="10.939215103444262"><ele>72.0</ele><time>2026-05-01T10:11:57.003Z</time></trkpt><trkpt lat="43.76553829866533" lon="10.9391169668709"><ele>72.0</ele><time>2026-05-01T10:11:58.003Z</time></trkpt><trkpt lat="43.76557017562233" lon="10.939022396569245"><ele>72.0</ele><time>2026-05-01T10:11:59.003Z</time></trkpt><trkpt lat="43.76559387348469" lon="10.938935872729196"><ele>72.00000000000001</ele><time>2026-05-01T10:12:00.003Z</time></trkpt><trkpt lat="43.765606361615944" lon="10.938832184596512"><ele>72.0</ele><time>2026-05-01T10:12:01.003Z</time></trkpt><trkpt lat="43.76561541921209" lon="10.938704463054643"><ele>73.0</ele><time>2026-05-01T10:12:02.003Z</time></trkpt><trkpt lat="43.76562498224004" lon="10.938576110080847"><ele>74.0</ele><time>2026-05-01T10:12:03.003Z</time></trkpt><trkpt lat="43.765631159325636" lon="10.938461789134658"><ele>75.0</ele><time>2026-05-01T10:12:04.003Z</time></trkpt><trkpt lat="43.76563632817826" lon="10.938365845426198"><ele>76.0</ele><time>2026-05-01T10:12:05.003Z</time></trkpt><trkpt lat="43.76565154266156" lon="10.938204230319576"><ele>77.0</ele><time>2026-05-01T10:12:07.003Z</time></trkpt><trkpt lat="43.76567202732323" lon="10.9380770043974"><ele>81.0</ele><time>2026-05-01T10:12:09.003Z</time></trkpt><trkpt lat="43.765726704128845" lon="10.93795960734645"><ele>81.0</ele><time>2026-05-01T10:12:12.003Z</time></trkpt><trkpt lat="43.765789431743094" lon="10.937846570684504"><ele>81.0</ele><time>2026-05-01T10:12:14.003Z</time></trkpt><trkpt lat="43.76583607207011" lon="10.937776618377308"><ele>81.0</ele><time>2026-05-01T10:12:16.003Z</time></trkpt></trkseg></trk></gpx>